Données brutes

Données brutes de la station

Données brutes (2000 dernières valeurs)

Date Temp Humidity Wind Gust Direction Pressure Rain
2020-10-01 10:26:00 15.7°C 68% 13.5 km/h 20.6 km/h 164° 1005.5 hPa 0.000 mm
2020-10-01 10:25:00 15.5°C 68% 13.0 km/h 19.0 km/h 187° 1005.4 hPa 0.000 mm
2020-10-01 10:24:00 16.0°C 68% 12.6 km/h 20.1 km/h 153° 1005.4 hPa 0.000 mm
2020-10-01 10:23:00 15.9°C 68% 16.2 km/h 23.2 km/h 169° 1005.5 hPa 0.000 mm
2020-10-01 10:22:00 15.9°C 68% 14.0 km/h 17.9 km/h 142° 1005.5 hPa 0.000 mm
2020-10-01 10:21:00 16.0°C 68% 14.3 km/h 21.1 km/h 127° 1005.4 hPa 0.000 mm
2020-10-01 10:20:00 16.0°C 68% 13.2 km/h 17.4 km/h 141° 1005.4 hPa 0.000 mm
2020-10-01 10:19:00 15.9°C 69% 11.6 km/h 19.0 km/h 161° 1005.4 hPa 0.000 mm
2020-10-01 10:18:00 16.0°C 69% 15.4 km/h 21.6 km/h 167° 1005.4 hPa 0.000 mm
2020-10-01 10:17:00 15.8°C 69% 13.7 km/h 18.5 km/h 171° 1005.4 hPa 0.000 mm
2020-10-01 10:16:00 15.6°C 69% 11.4 km/h 17.9 km/h 141° 1005.4 hPa 0.000 mm
2020-10-01 10:15:00 15.6°C 69% 14.3 km/h 23.2 km/h 138° 1005.4 hPa 0.000 mm
2020-10-01 10:14:00 15.6°C 69% 15.5 km/h 19.0 km/h 158° 1005.4 hPa 0.000 mm
2020-10-01 10:13:00 15.5°C 69% 16.9 km/h 23.8 km/h 165° 1005.4 hPa 0.000 mm
2020-10-01 10:12:00 15.4°C 69% 16.5 km/h 22.2 km/h 89° 1005.3 hPa 0.000 mm
2020-10-01 10:11:00 15.4°C 69% 19.0 km/h 24.3 km/h 180° 1005.3 hPa 0.000 mm
2020-10-01 10:10:00 15.5°C 69% 15.0 km/h 19.0 km/h 146° 1005.3 hPa 0.000 mm
2020-10-01 10:09:00 15.5°C 70% 13.3 km/h 22.7 km/h 150° 1005.3 hPa 0.000 mm
2020-10-01 10:08:00 15.4°C 70% 10.1 km/h 14.8 km/h 143° 1005.4 hPa 0.000 mm
2020-10-01 10:07:00 15.3°C 70% 13.9 km/h 20.1 km/h 161° 1005.4 hPa 0.000 mm
2020-10-01 10:06:00 15.4°C 70% 12.7 km/h 16.4 km/h 192° 1005.4 hPa 0.000 mm
2020-10-01 10:05:00 15.1°C 70% 13.3 km/h 19.5 km/h 132° 1005.5 hPa 0.000 mm
2020-10-01 10:04:00 15.2°C 70% 11.3 km/h 17.4 km/h 151° 1005.5 hPa 0.000 mm
2020-10-01 10:03:00 15.3°C 70% 14.0 km/h 16.9 km/h 127° 1005.5 hPa 0.000 mm
2020-10-01 10:02:00 15.1°C 70% 12.2 km/h 16.4 km/h 87° 1005.5 hPa 0.000 mm
2020-10-01 10:01:00 15.2°C 70% 15.0 km/h 21.1 km/h 160° 1005.5 hPa 0.000 mm
2020-10-01 10:00:00 15.1°C 70% 11.1 km/h 13.7 km/h 178° 1005.5 hPa 0.000 mm
2020-10-01 09:59:00 15.1°C 70% 13.1 km/h 22.2 km/h 182° 1005.5 hPa 0.000 mm
2020-10-01 09:58:00 15.1°C 70% 12.8 km/h 15.8 km/h 160° 1005.5 hPa 0.000 mm
2020-10-01 09:57:00 14.9°C 70% 12.4 km/h 22.2 km/h 96° 1005.5 hPa 0.000 mm
2020-10-01 09:56:00 14.9°C 70% 12.3 km/h 17.4 km/h 178° 1005.5 hPa 0.000 mm
2020-10-01 09:55:00 14.8°C 70% 11.5 km/h 19.5 km/h 131° 1005.5 hPa 0.000 mm
2020-10-01 09:54:00 14.8°C 71% 11.0 km/h 19.0 km/h 165° 1005.5 hPa 0.000 mm
2020-10-01 09:53:00 14.8°C 71% 11.6 km/h 16.4 km/h 89° 1005.5 hPa 0.000 mm
2020-10-01 09:52:00 14.7°C 71% 10.2 km/h 15.3 km/h 159° 1005.6 hPa 0.000 mm
2020-10-01 09:51:00 14.8°C 71% 9.5 km/h 16.9 km/h 137° 1005.6 hPa 0.000 mm
2020-10-01 09:50:00 14.7°C 71% 13.6 km/h 17.9 km/h 120° 1005.5 hPa 0.000 mm
2020-10-01 09:49:00 14.7°C 71% 12.5 km/h 16.9 km/h 149° 1005.5 hPa 0.000 mm
2020-10-01 09:48:00 14.7°C 71% 13.0 km/h 18.5 km/h 118° 1005.6 hPa 0.000 mm
2020-10-01 09:47:00 14.6°C 71% 11.8 km/h 15.3 km/h 142° 1005.6 hPa 0.000 mm
2020-10-01 09:46:00 14.6°C 71% 10.6 km/h 13.2 km/h 127° 1005.6 hPa 0.000 mm
2020-10-01 09:45:00 14.6°C 71% 12.7 km/h 17.4 km/h 210° 1005.6 hPa 0.000 mm
2020-10-01 09:44:00 14.5°C 72% 8.9 km/h 12.1 km/h 135° 1005.6 hPa 0.000 mm
2020-10-01 09:43:00 14.6°C 72% 12.4 km/h 17.4 km/h 140° 1005.6 hPa 0.000 mm
2020-10-01 09:42:00 14.5°C 72% 9.7 km/h 14.8 km/h 170° 1005.6 hPa 0.000 mm
2020-10-01 09:41:00 14.5°C 72% 8.1 km/h 10.0 km/h 143° 1005.6 hPa 0.000 mm
2020-10-01 09:40:00 14.5°C 72% 9.2 km/h 14.8 km/h 167° 1005.6 hPa 0.000 mm
2020-10-01 09:39:00 14.4°C 72% 11.9 km/h 19.0 km/h 145° 1005.6 hPa 0.000 mm
2020-10-01 09:38:00 14.4°C 72% 11.3 km/h 16.9 km/h 191° 1005.6 hPa 0.000 mm
2020-10-01 09:37:00 14.4°C 72% 11.2 km/h 16.4 km/h 149° 1005.6 hPa 0.000 mm
2020-10-01 09:36:00 14.4°C 72% 12.8 km/h 21.6 km/h 156° 1005.6 hPa 0.000 mm
2020-10-01 09:35:00 14.4°C 72% 14.1 km/h 19.0 km/h 140° 1005.6 hPa 0.000 mm
2020-10-01 09:34:00 14.1°C 73% 9.8 km/h 19.0 km/h 107° 1005.6 hPa 0.000 mm
2020-10-01 09:33:00 14.4°C 73% 12.3 km/h 16.4 km/h 143° 1005.6 hPa 0.000 mm
2020-10-01 09:32:00 14.6°C 73% 12.4 km/h 19.0 km/h 136° 1005.6 hPa 0.000 mm
2020-10-01 09:31:00 14.3°C 73% 11.3 km/h 15.3 km/h 141° 1005.5 hPa 0.000 mm
2020-10-01 09:30:00 14.3°C 73% 9.6 km/h 12.1 km/h 152° 1005.6 hPa 0.000 mm
2020-10-01 09:29:00 14.4°C 73% 13.5 km/h 20.1 km/h 150° 1005.5 hPa 0.000 mm
2020-10-01 09:28:00 14.3°C 73% 11.8 km/h 15.3 km/h 142° 1005.5 hPa 0.000 mm
2020-10-01 09:27:00 14.3°C 73% 15.0 km/h 21.6 km/h 197° 1005.5 hPa 0.000 mm
2020-10-01 09:26:00 14.3°C 73% 12.4 km/h 15.8 km/h 150° 1005.5 hPa 0.000 mm
2020-10-01 09:25:00 14.3°C 73% 14.0 km/h 18.5 km/h 133° 1005.5 hPa 0.000 mm
2020-10-01 09:24:00 14.3°C 74% 11.2 km/h 16.9 km/h 105° 1005.5 hPa 0.000 mm
2020-10-01 09:23:00 14.3°C 74% 12.1 km/h 16.9 km/h 155° 1005.5 hPa 0.000 mm
2020-10-01 09:22:00 14.3°C 74% 11.2 km/h 15.3 km/h 142° 1005.4 hPa 0.000 mm
2020-10-01 09:21:00 14.3°C 74% 11.8 km/h 14.8 km/h 162° 1005.5 hPa 0.000 mm
2020-10-01 09:20:00 14.3°C 74% 13.8 km/h 17.9 km/h 143° 1005.5 hPa 0.000 mm
2020-10-01 09:19:00 14.2°C 74% 9.3 km/h 14.2 km/h 173° 1005.5 hPa 0.000 mm
2020-10-01 09:18:00 14.2°C 74% 15.8 km/h 21.1 km/h 142° 1005.5 hPa 0.000 mm
2020-10-01 09:17:00 14.2°C 74% 15.2 km/h 20.6 km/h 155° 1005.5 hPa 0.000 mm
2020-10-01 09:16:00 14.0°C 74% 15.4 km/h 23.2 km/h 153° 1005.5 hPa 0.000 mm
2020-10-01 09:15:00 14.2°C 74% 15.8 km/h 21.6 km/h 162° 1005.5 hPa 0.000 mm
2020-10-01 09:14:00 14.2°C 75% 17.3 km/h 25.9 km/h 141° 1005.5 hPa 0.000 mm
2020-10-01 09:13:00 14.3°C 75% 14.0 km/h 20.1 km/h 147° 1005.4 hPa 0.000 mm
2020-10-01 09:12:00 14.2°C 75% 14.2 km/h 20.1 km/h 137° 1005.4 hPa 0.000 mm
2020-10-01 09:11:00 14.2°C 75% 15.4 km/h 20.6 km/h 162° 1005.4 hPa 0.000 mm
2020-10-01 09:10:00 14.3°C 75% 14.4 km/h 17.9 km/h 141° 1005.3 hPa 0.000 mm
2020-10-01 09:09:00 14.2°C 75% 17.8 km/h 28.0 km/h 153° 1005.2 hPa 0.000 mm
2020-10-01 09:08:00 14.2°C 75% 13.5 km/h 19.5 km/h 160° 1005.3 hPa 0.000 mm
2020-10-01 09:07:00 14.1°C 75% 11.1 km/h 15.3 km/h 156° 1005.3 hPa 0.000 mm
2020-10-01 09:06:00 14.2°C 75% 13.5 km/h 17.9 km/h 164° 1005.3 hPa 0.000 mm
2020-10-01 09:05:00 14.2°C 75% 18.5 km/h 23.8 km/h 135° 1005.2 hPa 0.000 mm
2020-10-01 09:04:00 14.2°C 76% 16.6 km/h 26.9 km/h 137° 1005.3 hPa 0.000 mm
2020-10-01 09:03:00 14.1°C 76% 15.2 km/h 17.4 km/h 124° 1005.3 hPa 0.000 mm
2020-10-01 09:02:00 14.1°C 76% 9.6 km/h 15.3 km/h 108° 1005.3 hPa 0.000 mm
2020-10-01 09:01:00 14.3°C 76% 15.9 km/h 26.4 km/h 165° 1005.4 hPa 0.000 mm
2020-10-01 09:00:00 14.1°C 76% 15.8 km/h 21.1 km/h 134° 1005.4 hPa 0.000 mm
2020-10-01 08:59:00 14.0°C 77% 10.1 km/h 15.3 km/h 149° 1005.3 hPa 0.000 mm
2020-10-01 08:58:00 14.1°C 77% 12.5 km/h 17.9 km/h 143° 1005.4 hPa 0.000 mm
2020-10-01 08:57:00 14.1°C 77% 10.6 km/h 15.3 km/h 131° 1005.4 hPa 0.000 mm
2020-10-01 08:56:00 14.0°C 77% 11.1 km/h 17.4 km/h 146° 1005.5 hPa 0.000 mm
2020-10-01 08:55:00 14.0°C 77% 12.3 km/h 17.9 km/h 200° 1005.5 hPa 0.000 mm
2020-10-01 08:54:00 14.0°C 77% 13.9 km/h 17.9 km/h 138° 1005.5 hPa 0.000 mm
2020-10-01 08:53:00 13.9°C 77% 11.1 km/h 17.4 km/h 171° 1005.5 hPa 0.000 mm
2020-10-01 08:52:00 13.9°C 77% 11.3 km/h 19.0 km/h 78° 1005.5 hPa 0.000 mm
2020-10-01 08:51:00 13.9°C 77% 14.8 km/h 20.1 km/h 100° 1005.5 hPa 0.000 mm
2020-10-01 08:50:00 13.9°C 77% 12.0 km/h 17.9 km/h 160° 1005.5 hPa 0.000 mm
2020-10-01 08:49:00 13.9°C 78% 15.8 km/h 20.6 km/h 99° 1005.5 hPa 0.000 mm
2020-10-01 08:48:00 13.9°C 78% 14.1 km/h 19.5 km/h 168° 1005.6 hPa 0.000 mm
2020-10-01 08:47:00 13.8°C 78% 14.1 km/h 16.9 km/h 138° 1005.6 hPa 0.000 mm
2020-10-01 08:46:00 13.7°C 78% 13.2 km/h 18.5 km/h 153° 1005.6 hPa 0.000 mm
2020-10-01 08:45:00 13.7°C 78% 11.2 km/h 14.8 km/h 181° 1005.6 hPa 0.000 mm
2020-10-01 08:44:00 13.7°C 78% 13.4 km/h 16.9 km/h 177° 1005.6 hPa 0.000 mm
2020-10-01 08:43:00 13.6°C 78% 10.8 km/h 13.2 km/h 151° 1005.6 hPa 0.000 mm
2020-10-01 08:42:00 13.7°C 78% 7.6 km/h 10.6 km/h 187° 1005.6 hPa 0.000 mm
2020-10-01 08:41:00 13.5°C 78% 10.9 km/h 14.2 km/h 169° 1005.6 hPa 0.000 mm
2020-10-01 08:40:00 13.7°C 78% 9.7 km/h 13.2 km/h 128° 1005.6 hPa 0.000 mm
2020-10-01 08:39:00 13.7°C 79% 11.2 km/h 13.7 km/h 173° 1005.6 hPa 0.000 mm
2020-10-01 08:38:00 13.6°C 79% 11.5 km/h 15.3 km/h 123° 1005.6 hPa 0.000 mm
2020-10-01 08:37:00 13.9°C 79% 15.6 km/h 23.2 km/h 143° 1005.6 hPa 0.000 mm
2020-10-01 08:36:00 13.7°C 79% 13.1 km/h 20.1 km/h 134° 1005.6 hPa 0.000 mm
2020-10-01 08:35:00 13.7°C 79% 10.4 km/h 15.8 km/h 178° 1005.7 hPa 0.000 mm
2020-10-01 08:34:00 13.7°C 80% 9.6 km/h 16.4 km/h 152° 1005.7 hPa 0.000 mm
2020-10-01 08:33:00 13.8°C 80% 10.7 km/h 14.8 km/h 125° 1005.6 hPa 0.000 mm
2020-10-01 08:32:00 13.8°C 80% 13.0 km/h 18.5 km/h 132° 1005.6 hPa 0.000 mm
2020-10-01 08:31:00 13.7°C 80% 12.0 km/h 16.9 km/h 145° 1005.6 hPa 0.000 mm
2020-10-01 08:30:00 13.7°C 80% 12.4 km/h 14.8 km/h 154° 1005.6 hPa 0.000 mm
2020-10-01 08:29:00 13.6°C 80% 12.2 km/h 16.9 km/h 95° 1005.6 hPa 0.000 mm
2020-10-01 08:28:00 13.7°C 80% 11.7 km/h 16.9 km/h 168° 1005.6 hPa 0.000 mm
2020-10-01 08:27:00 13.8°C 80% 16.3 km/h 21.1 km/h 151° 1005.6 hPa 0.000 mm
2020-10-01 08:26:00 13.6°C 80% 12.5 km/h 16.9 km/h 124° 1005.6 hPa 0.000 mm
2020-10-01 08:25:00 13.5°C 80% 12.7 km/h 18.5 km/h 159° 1005.7 hPa 0.000 mm
2020-10-01 08:24:00 13.5°C 81% 9.0 km/h 12.7 km/h 154° 1005.7 hPa 0.000 mm
2020-10-01 08:23:00 13.7°C 81% 12.0 km/h 16.9 km/h 152° 1005.7 hPa 0.000 mm
2020-10-01 08:22:00 13.6°C 81% 14.1 km/h 21.1 km/h 170° 1005.7 hPa 0.000 mm
2020-10-01 08:21:00 13.4°C 81% 11.3 km/h 15.3 km/h 167° 1005.7 hPa 0.000 mm
2020-10-01 08:20:00 13.4°C 81% 11.1 km/h 13.7 km/h 150° 1005.7 hPa 0.000 mm
2020-10-01 08:19:00 13.4°C 82% 10.0 km/h 14.8 km/h 173° 1005.7 hPa 0.000 mm
2020-10-01 08:18:00 13.5°C 82% 12.4 km/h 17.9 km/h 180° 1005.6 hPa 0.000 mm
2020-10-01 08:17:00 13.4°C 82% 11.4 km/h 15.8 km/h 172° 1005.6 hPa 0.000 mm
2020-10-01 08:16:00 13.4°C 82% 13.9 km/h 19.0 km/h 125° 1005.6 hPa 0.000 mm
2020-10-01 08:15:00 13.4°C 82% 11.6 km/h 15.3 km/h 168° 1005.6 hPa 0.000 mm
2020-10-01 08:14:00 13.4°C 82% 13.3 km/h 17.9 km/h 111° 1005.6 hPa 0.000 mm
2020-10-01 08:13:00 13.3°C 82% 12.7 km/h 17.9 km/h 111° 1005.6 hPa 0.000 mm
2020-10-01 08:12:00 13.4°C 82% 12.8 km/h 20.1 km/h 128° 1005.6 hPa 0.000 mm
2020-10-01 08:11:00 13.4°C 82% 12.2 km/h 18.5 km/h 151° 1005.6 hPa 0.000 mm
2020-10-01 08:10:00 13.3°C 82% 13.9 km/h 18.5 km/h 141° 1005.6 hPa 0.000 mm
2020-10-01 08:09:00 13.3°C 83% 15.2 km/h 21.6 km/h 173° 1005.5 hPa 0.000 mm
2020-10-01 08:08:00 13.1°C 83% 9.9 km/h 14.2 km/h 161° 1005.5 hPa 0.000 mm
2020-10-01 08:07:00 13.2°C 83% 11.9 km/h 17.9 km/h 99° 1005.5 hPa 0.000 mm
2020-10-01 08:06:00 13.3°C 83% 13.2 km/h 19.5 km/h 181° 1005.6 hPa 0.000 mm
2020-10-01 08:05:00 13.2°C 83% 11.6 km/h 19.0 km/h 179° 1005.6 hPa 0.000 mm
2020-10-01 08:04:00 13.0°C 83% 13.1 km/h 15.8 km/h 147° 1005.6 hPa 0.000 mm
2020-10-01 08:03:00 13.3°C 83% 12.1 km/h 15.3 km/h 181° 1005.6 hPa 0.000 mm
2020-10-01 08:02:00 13.3°C 83% 14.8 km/h 18.5 km/h 152° 1005.7 hPa 0.000 mm
2020-10-01 08:01:00 13.3°C 83% 14.8 km/h 24.3 km/h 155° 1005.7 hPa 0.000 mm
2020-10-01 08:00:00 13.4°C 83% 13.8 km/h 20.1 km/h 126° 1005.6 hPa 0.000 mm
2020-10-01 07:59:00 13.3°C 84% 12.2 km/h 22.2 km/h 128° 1005.6 hPa 0.000 mm
2020-10-01 07:58:00 13.3°C 84% 10.4 km/h 13.7 km/h 140° 1005.6 hPa 0.000 mm
2020-10-01 07:57:00 13.1°C 84% 14.3 km/h 23.8 km/h 153° 1005.7 hPa 0.000 mm
2020-10-01 07:56:00 13.1°C 84% 8.6 km/h 11.1 km/h 164° 1005.7 hPa 0.000 mm
2020-10-01 07:55:00 13.2°C 84% 10.1 km/h 13.7 km/h 134° 1005.7 hPa 0.000 mm
2020-10-01 07:54:00 13.1°C 84% 12.5 km/h 16.4 km/h 163° 1005.7 hPa 0.000 mm
2020-10-01 07:53:00 13.2°C 84% 13.8 km/h 17.9 km/h 171° 1005.8 hPa 0.000 mm
2020-10-01 07:52:00 13.2°C 84% 10.7 km/h 15.8 km/h 173° 1005.8 hPa 0.000 mm
2020-10-01 07:51:00 13.4°C 84% 9.5 km/h 13.7 km/h 161° 1005.8 hPa 0.000 mm
2020-10-01 07:50:00 13.3°C 84% 11.0 km/h 16.4 km/h 129° 1005.8 hPa 0.000 mm
2020-10-01 07:49:00 13.3°C 84% 12.1 km/h 16.9 km/h 152° 1005.8 hPa 0.000 mm
2020-10-01 07:48:00 13.4°C 84% 12.3 km/h 16.9 km/h 102° 1005.8 hPa 0.000 mm
2020-10-01 07:47:00 13.3°C 84% 12.9 km/h 19.5 km/h 155° 1005.7 hPa 0.000 mm
2020-10-01 07:46:00 13.4°C 84% 14.9 km/h 21.1 km/h 136° 1005.7 hPa 0.000 mm
2020-10-01 07:45:00 13.3°C 84% 14.2 km/h 23.8 km/h 164° 1005.7 hPa 0.000 mm
2020-10-01 07:44:00 13.2°C 84% 13.5 km/h 20.1 km/h 150° 1005.7 hPa 0.000 mm
2020-10-01 07:43:00 13.4°C 84% 13.4 km/h 17.4 km/h 146° 1005.7 hPa 0.000 mm
2020-10-01 07:42:00 13.4°C 84% 14.0 km/h 18.5 km/h 145° 1005.8 hPa 0.000 mm
2020-10-01 07:41:00 13.5°C 84% 13.2 km/h 16.4 km/h 167° 1005.7 hPa 0.000 mm
2020-10-01 07:40:00 13.4°C 84% 13.1 km/h 19.5 km/h 99° 1005.7 hPa 0.000 mm
2020-10-01 07:39:00 13.4°C 84% 12.6 km/h 17.9 km/h 111° 1005.7 hPa 0.000 mm
2020-10-01 07:38:00 13.5°C 84% 12.5 km/h 22.2 km/h 144° 1005.6 hPa 0.000 mm
2020-10-01 07:37:00 13.4°C 84% 10.8 km/h 15.8 km/h 128° 1005.7 hPa 0.000 mm
2020-10-01 07:36:00 13.4°C 84% 12.5 km/h 17.4 km/h 160° 1005.7 hPa 0.000 mm
2020-10-01 07:35:00 13.4°C 84% 13.5 km/h 21.1 km/h 177° 1005.6 hPa 0.000 mm
2020-10-01 07:34:00 13.5°C 84% 15.4 km/h 20.1 km/h 143° 1005.6 hPa 0.000 mm
2020-10-01 07:33:00 13.5°C 84% 15.6 km/h 20.6 km/h 134° 1005.6 hPa 0.000 mm
2020-10-01 07:32:00 13.5°C 84% 12.5 km/h 19.0 km/h 108° 1005.6 hPa 0.000 mm
2020-10-01 07:31:00 13.5°C 84% 12.8 km/h 16.9 km/h 161° 1005.7 hPa 0.000 mm
2020-10-01 07:30:00 13.5°C 84% 16.0 km/h 20.6 km/h 132° 1005.8 hPa 0.000 mm
2020-10-01 07:29:00 13.5°C 84% 14.0 km/h 23.2 km/h 114° 1005.8 hPa 0.000 mm
2020-10-01 07:28:00 13.5°C 84% 10.4 km/h 15.3 km/h 151° 1005.8 hPa 0.000 mm
2020-10-01 07:27:00 13.4°C 84% 11.2 km/h 17.4 km/h 167° 1005.8 hPa 0.000 mm
2020-10-01 07:26:00 13.5°C 84% 10.7 km/h 17.9 km/h 156° 1005.8 hPa 0.000 mm
2020-10-01 07:25:00 13.6°C 84% 12.5 km/h 19.0 km/h 143° 1005.8 hPa 0.000 mm
2020-10-01 07:24:00 13.6°C 84% 11.4 km/h 16.9 km/h 150° 1005.8 hPa 0.000 mm
2020-10-01 07:23:00 13.5°C 84% 10.7 km/h 19.0 km/h 126° 1005.8 hPa 0.000 mm
2020-10-01 07:22:00 13.5°C 84% 12.7 km/h 18.5 km/h 122° 1005.8 hPa 0.000 mm
2020-10-01 07:21:00 13.9°C 84% 14.7 km/h 22.2 km/h 123° 1005.9 hPa 0.000 mm
2020-10-01 07:20:00 13.6°C 84% 14.3 km/h 19.0 km/h 135° 1005.9 hPa 0.000 mm
2020-10-01 07:19:00 13.6°C 85% 13.4 km/h 18.5 km/h 164° 1005.9 hPa 0.000 mm
2020-10-01 07:18:00 13.4°C 85% 12.0 km/h 15.8 km/h 141° 1005.9 hPa 0.000 mm
2020-10-01 07:17:00 13.4°C 85% 10.5 km/h 14.2 km/h 152° 1005.9 hPa 0.000 mm
2020-10-01 07:16:00 13.5°C 85% 10.1 km/h 12.7 km/h 165° 1006.0 hPa 0.000 mm
2020-10-01 07:15:00 13.6°C 85% 9.9 km/h 14.8 km/h 176° 1005.9 hPa 0.000 mm
2020-10-01 07:14:00 13.5°C 85% 11.8 km/h 19.0 km/h 118° 1005.9 hPa 0.000 mm
2020-10-01 07:13:00 13.5°C 85% 9.6 km/h 13.2 km/h 134° 1006.0 hPa 0.000 mm
2020-10-01 07:12:00 13.5°C 85% 7.8 km/h 10.6 km/h 169° 1005.9 hPa 0.000 mm
2020-10-01 07:11:00 13.5°C 85% 7.3 km/h 9.0 km/h 124° 1005.9 hPa 0.000 mm
2020-10-01 07:10:00 13.6°C 85% 8.9 km/h 12.7 km/h 141° 1006.0 hPa 0.000 mm
2020-10-01 07:09:00 13.6°C 85% 8.8 km/h 13.7 km/h 143° 1006.0 hPa 0.000 mm
2020-10-01 07:08:00 13.3°C 85% 8.5 km/h 11.1 km/h 159° 1006.0 hPa 0.000 mm
2020-10-01 07:07:00 13.8°C 85% 8.1 km/h 10.6 km/h 124° 1006.0 hPa 0.000 mm
2020-10-01 07:06:00 13.6°C 85% 8.0 km/h 12.1 km/h 145° 1006.1 hPa 0.000 mm
2020-10-01 07:05:00 13.6°C 85% 6.8 km/h 9.0 km/h 74° 1006.0 hPa 0.000 mm
2020-10-01 07:04:00 13.7°C 85% 8.6 km/h 11.6 km/h 146° 1006.0 hPa 0.000 mm
2020-10-01 07:03:00 13.6°C 85% 9.6 km/h 12.7 km/h 136° 1006.0 hPa 0.000 mm
2020-10-01 07:02:00 13.6°C 85% 7.2 km/h 11.6 km/h 127° 1006.0 hPa 0.000 mm
2020-10-01 07:01:00 13.7°C 85% 12.1 km/h 15.8 km/h 98° 1006.0 hPa 0.000 mm
2020-10-01 07:00:00 13.6°C 85% 8.9 km/h 15.8 km/h 161° 1006.0 hPa 0.000 mm
2020-10-01 06:59:00 13.7°C 85% 11.1 km/h 14.8 km/h 125° 1006.0 hPa 0.000 mm
2020-10-01 06:58:00 13.6°C 85% 9.1 km/h 13.2 km/h 109° 1006.0 hPa 0.000 mm
2020-10-01 06:57:00 13.6°C 85% 11.4 km/h 17.4 km/h 111° 1006.0 hPa 0.000 mm
2020-10-01 06:56:00 13.7°C 85% 9.2 km/h 14.2 km/h 140° 1006.0 hPa 0.000 mm
2020-10-01 06:55:00 13.6°C 85% 8.5 km/h 12.1 km/h 138° 1006.0 hPa 0.000 mm
2020-10-01 06:54:00 13.6°C 85% 9.3 km/h 14.2 km/h 117° 1006.1 hPa 0.000 mm
2020-10-01 06:53:00 13.7°C 85% 10.1 km/h 14.8 km/h 165° 1006.1 hPa 0.000 mm
2020-10-01 06:52:00 13.7°C 85% 10.6 km/h 14.8 km/h 134° 1006.1 hPa 0.000 mm
2020-10-01 06:51:00 13.7°C 85% 8.3 km/h 11.6 km/h 81° 1006.1 hPa 0.000 mm
2020-10-01 06:50:00 13.8°C 85% 7.9 km/h 12.7 km/h 129° 1006.1 hPa 0.000 mm
2020-10-01 06:49:00 13.9°C 85% 10.6 km/h 15.3 km/h 118° 1006.2 hPa 0.000 mm
2020-10-01 06:48:00 13.9°C 85% 10.4 km/h 15.8 km/h 143° 1006.2 hPa 0.000 mm
2020-10-01 06:47:00 13.8°C 85% 9.9 km/h 13.2 km/h 141° 1006.2 hPa 0.000 mm
2020-10-01 06:46:00 13.8°C 85% 10.4 km/h 14.8 km/h 122° 1006.1 hPa 0.000 mm
2020-10-01 06:45:00 14.1°C 85% 10.5 km/h 13.2 km/h 160° 1006.2 hPa 0.000 mm
2020-10-01 06:44:00 13.9°C 86% 9.3 km/h 13.7 km/h 136° 1006.2 hPa 0.000 mm
2020-10-01 06:43:00 13.9°C 86% 9.5 km/h 14.8 km/h 133° 1006.2 hPa 0.000 mm
2020-10-01 06:42:00 13.8°C 86% 9.1 km/h 13.2 km/h 135° 1006.2 hPa 0.000 mm
2020-10-01 06:41:00 13.9°C 86% 10.9 km/h 14.8 km/h 138° 1006.2 hPa 0.000 mm
2020-10-01 06:40:00 13.8°C 86% 8.6 km/h 11.1 km/h 167° 1006.3 hPa 0.000 mm
2020-10-01 06:39:00 13.9°C 86% 10.4 km/h 15.8 km/h 129° 1006.3 hPa 0.000 mm
2020-10-01 06:38:00 13.9°C 86% 10.8 km/h 15.3 km/h 136° 1006.3 hPa 0.000 mm
2020-10-01 06:37:00 13.9°C 86% 12.5 km/h 17.4 km/h 111° 1006.4 hPa 0.000 mm
2020-10-01 06:36:00 13.9°C 86% 9.4 km/h 13.2 km/h 119° 1006.4 hPa 0.000 mm
2020-10-01 06:35:00 14.0°C 86% 9.2 km/h 12.7 km/h 115° 1006.4 hPa 0.000 mm
2020-10-01 06:34:00 13.9°C 86% 9.9 km/h 13.2 km/h 132° 1006.4 hPa 0.000 mm
2020-10-01 06:34:00 14.0°C 86% 13.8 km/h 19.0 km/h 147° 1006.4 hPa 0.000 mm
2020-10-01 06:33:00 13.9°C 86% 12.1 km/h 14.8 km/h 167° 1006.5 hPa 0.000 mm
2020-10-01 06:32:00 13.9°C 86% 10.4 km/h 13.2 km/h 133° 1006.5 hPa 0.000 mm
2020-10-01 06:31:00 13.9°C 86% 9.7 km/h 16.9 km/h 182° 1006.5 hPa 0.000 mm
2020-10-01 06:30:00 13.8°C 86% 9.1 km/h 13.2 km/h 186° 1006.5 hPa 0.000 mm
2020-10-01 06:29:00 13.8°C 86% 10.2 km/h 12.7 km/h 140° 1006.5 hPa 0.000 mm
2020-10-01 06:28:00 13.6°C 86% 7.3 km/h 9.5 km/h 132° 1006.6 hPa 0.000 mm
2020-10-01 06:27:00 13.8°C 86% 9.0 km/h 13.2 km/h 170° 1006.6 hPa 0.000 mm
2020-10-01 06:26:00 13.8°C 86% 8.3 km/h 10.6 km/h 156° 1006.6 hPa 0.000 mm
2020-10-01 06:25:00 13.8°C 86% 9.4 km/h 14.8 km/h 118° 1006.6 hPa 0.000 mm
2020-10-01 06:24:00 13.8°C 86% 9.5 km/h 12.7 km/h 140° 1006.6 hPa 0.000 mm
2020-10-01 06:23:00 13.9°C 86% 10.7 km/h 15.3 km/h 187° 1006.6 hPa 0.000 mm
2020-10-01 06:22:00 14.0°C 86% 11.2 km/h 16.4 km/h 116° 1006.6 hPa 0.000 mm
2020-10-01 06:21:00 14.2°C 86% 9.5 km/h 12.1 km/h 140° 1006.6 hPa 0.000 mm
2020-10-01 06:20:00 13.8°C 87% 10.0 km/h 14.2 km/h 171° 1006.7 hPa 0.000 mm
2020-10-01 06:19:00 13.7°C 87% 8.3 km/h 10.0 km/h 143° 1006.7 hPa 0.000 mm
2020-10-01 06:18:00 13.8°C 87% 10.7 km/h 14.8 km/h 170° 1006.7 hPa 0.000 mm
2020-10-01 06:17:00 13.8°C 87% 10.5 km/h 14.2 km/h 135° 1006.7 hPa 0.000 mm
2020-10-01 06:16:00 13.8°C 87% 8.7 km/h 13.7 km/h 163° 1006.8 hPa 0.000 mm
2020-10-01 06:15:00 13.8°C 87% 8.7 km/h 13.2 km/h 153° 1006.8 hPa 0.000 mm
2020-10-01 06:14:00 13.7°C 87% 11.4 km/h 14.8 km/h 92° 1006.8 hPa 0.000 mm
2020-10-01 06:13:00 13.7°C 87% 8.1 km/h 11.1 km/h 134° 1006.8 hPa 0.000 mm
2020-10-01 06:12:00 13.9°C 87% 8.6 km/h 11.6 km/h 163° 1006.8 hPa 0.000 mm
2020-10-01 06:11:00 13.9°C 87% 8.1 km/h 11.6 km/h 101° 1006.8 hPa 0.000 mm
2020-10-01 06:10:00 13.8°C 87% 7.4 km/h 11.1 km/h 105° 1006.9 hPa 0.000 mm
2020-10-01 06:09:00 13.8°C 87% 9.7 km/h 12.7 km/h 145° 1006.9 hPa 0.000 mm
2020-10-01 06:08:00 13.9°C 87% 10.0 km/h 16.4 km/h 145° 1006.9 hPa 0.000 mm
2020-10-01 06:07:00 13.9°C 87% 7.2 km/h 9.5 km/h 152° 1006.9 hPa 0.000 mm
2020-10-01 06:06:00 13.9°C 87% 7.5 km/h 11.1 km/h 124° 1006.9 hPa 0.000 mm
2020-10-01 06:05:00 13.8°C 87% 9.0 km/h 13.7 km/h 140° 1006.9 hPa 0.000 mm
2020-10-01 06:04:00 13.8°C 87% 11.1 km/h 16.4 km/h 131° 1006.9 hPa 0.000 mm
2020-10-01 06:03:00 13.9°C 87% 8.0 km/h 10.6 km/h 155° 1006.9 hPa 0.000 mm
2020-10-01 06:02:00 13.8°C 87% 8.7 km/h 13.2 km/h 136° 1006.9 hPa 0.000 mm
2020-10-01 06:01:00 13.8°C 87% 8.9 km/h 12.1 km/h 87° 1007.0 hPa 0.000 mm
2020-10-01 06:00:00 13.9°C 87% 9.4 km/h 12.1 km/h 165° 1007.0 hPa 0.000 mm
2020-10-01 05:59:00 14.0°C 87% 11.8 km/h 17.4 km/h 125° 1007.0 hPa 0.000 mm
2020-10-01 05:58:00 13.8°C 87% 8.1 km/h 12.1 km/h 141° 1007.0 hPa 0.000 mm
2020-10-01 05:57:00 13.7°C 87% 9.4 km/h 13.2 km/h 78° 1007.0 hPa 0.000 mm
2020-10-01 05:56:00 13.7°C 87% 8.6 km/h 12.1 km/h 154° 1007.0 hPa 0.000 mm
2020-10-01 05:55:00 13.7°C 87% 9.1 km/h 15.3 km/h 127° 1007.0 hPa 0.000 mm
2020-10-01 05:54:00 13.8°C 87% 6.2 km/h 8.4 km/h 149° 1007.0 hPa 0.000 mm
2020-10-01 05:53:00 13.8°C 87% 9.0 km/h 11.6 km/h 117° 1007.0 hPa 0.000 mm
2020-10-01 05:52:00 13.9°C 87% 8.1 km/h 12.1 km/h 152° 1007.0 hPa 0.000 mm
2020-10-01 05:51:00 13.8°C 87% 7.0 km/h 9.0 km/h 125° 1007.0 hPa 0.000 mm
2020-10-01 05:50:00 13.8°C 87% 7.5 km/h 10.6 km/h 138° 1007.0 hPa 0.000 mm
2020-10-01 05:49:00 13.8°C 87% 7.5 km/h 12.7 km/h 92° 1007.0 hPa 0.000 mm
2020-10-01 05:48:00 13.8°C 87% 7.8 km/h 12.7 km/h 134° 1007.1 hPa 0.000 mm
2020-10-01 05:47:00 13.8°C 87% 6.6 km/h 12.1 km/h 141° 1007.0 hPa 0.000 mm
2020-10-01 05:46:00 14.0°C 87% 7.6 km/h 12.1 km/h 150° 1007.1 hPa 0.000 mm
2020-10-01 05:45:00 13.9°C 87% 3.4 km/h 4.8 km/h 142° 1007.1 hPa 0.000 mm
2020-10-01 05:44:00 14.0°C 86% 7.4 km/h 9.5 km/h 159° 1007.2 hPa 0.000 mm
2020-10-01 05:43:00 14.0°C 86% 8.2 km/h 10.6 km/h 145° 1007.2 hPa 0.000 mm
2020-10-01 05:42:00 14.1°C 86% 9.1 km/h 12.7 km/h 136° 1007.2 hPa 0.000 mm
2020-10-01 05:41:00 14.1°C 86% 9.4 km/h 15.3 km/h 106° 1007.2 hPa 0.000 mm
2020-10-01 05:40:00 14.0°C 86% 10.6 km/h 14.8 km/h 167° 1007.2 hPa 0.000 mm
2020-10-01 05:39:00 14.1°C 86% 10.3 km/h 17.9 km/h 128° 1007.2 hPa 0.000 mm
2020-10-01 05:38:00 14.2°C 86% 10.3 km/h 12.7 km/h 146° 1007.3 hPa 0.000 mm
2020-10-01 05:37:00 14.2°C 86% 10.0 km/h 13.2 km/h 153° 1007.3 hPa 0.000 mm
2020-10-01 05:36:00 14.3°C 86% 11.9 km/h 17.4 km/h 154° 1007.3 hPa 0.000 mm
2020-10-01 05:35:00 14.4°C 86% 9.8 km/h 12.7 km/h 162° 1007.3 hPa 0.000 mm
2020-10-01 05:34:00 14.4°C 86% 8.9 km/h 11.6 km/h 142° 1007.3 hPa 0.000 mm
2020-10-01 05:33:00 14.3°C 86% 11.3 km/h 17.4 km/h 117° 1007.4 hPa 0.000 mm
2020-10-01 05:32:00 14.3°C 86% 10.7 km/h 15.3 km/h 151° 1007.4 hPa 0.000 mm
2020-10-01 05:31:00 14.2°C 86% 9.5 km/h 14.2 km/h 176° 1007.4 hPa 0.000 mm
2020-10-01 05:30:00 14.2°C 86% 9.2 km/h 13.2 km/h 144° 1007.4 hPa 0.000 mm
2020-10-01 05:29:00 14.3°C 86% 8.6 km/h 12.7 km/h 134° 1007.4 hPa 0.000 mm
2020-10-01 05:28:00 14.3°C 86% 10.0 km/h 13.2 km/h 96° 1007.5 hPa 0.000 mm
2020-10-01 05:27:00 14.2°C 86% 11.6 km/h 15.8 km/h 165° 1007.5 hPa 0.000 mm
2020-10-01 05:26:00 14.2°C 86% 12.1 km/h 18.5 km/h 162° 1007.5 hPa 0.000 mm
2020-10-01 05:25:00 14.1°C 86% 9.6 km/h 12.1 km/h 173° 1007.5 hPa 0.000 mm
2020-10-01 05:24:00 14.0°C 86% 7.7 km/h 12.1 km/h 129° 1007.5 hPa 0.000 mm
2020-10-01 05:23:00 14.1°C 86% 9.5 km/h 13.2 km/h 172° 1007.6 hPa 0.000 mm
2020-10-01 05:22:00 14.0°C 86% 11.9 km/h 15.8 km/h 142° 1007.6 hPa 0.000 mm
2020-10-01 05:21:00 14.0°C 86% 10.1 km/h 15.3 km/h 154° 1007.6 hPa 0.000 mm
2020-10-01 05:20:00 14.0°C 86% 11.3 km/h 13.2 km/h 199° 1007.5 hPa 0.000 mm
2020-10-01 05:19:00 14.0°C 86% 9.1 km/h 12.1 km/h 177° 1007.6 hPa 0.000 mm
2020-10-01 05:18:00 13.9°C 86% 7.4 km/h 10.6 km/h 155° 1007.6 hPa 0.000 mm
2020-10-01 05:17:00 13.9°C 86% 9.1 km/h 11.6 km/h 180° 1007.6 hPa 0.000 mm
2020-10-01 05:16:00 13.9°C 86% 10.4 km/h 12.7 km/h 143° 1007.6 hPa 0.000 mm
2020-10-01 05:15:00 13.9°C 86% 8.3 km/h 14.8 km/h 146° 1007.6 hPa 0.000 mm
2020-10-01 05:14:00 13.9°C 86% 8.6 km/h 13.2 km/h 110° 1007.6 hPa 0.000 mm
2020-10-01 05:13:00 14.0°C 86% 8.7 km/h 11.1 km/h 189° 1007.6 hPa 0.000 mm
2020-10-01 05:12:00 13.6°C 86% 10.7 km/h 14.8 km/h 150° 1007.6 hPa 0.000 mm
2020-10-01 05:11:00 13.9°C 86% 7.8 km/h 11.6 km/h 199° 1007.6 hPa 0.000 mm
2020-10-01 05:10:00 13.8°C 86% 7.3 km/h 10.6 km/h 164° 1007.6 hPa 0.000 mm
2020-10-01 05:09:00 14.2°C 86% 10.3 km/h 16.9 km/h 117° 1007.5 hPa 0.000 mm
2020-10-01 05:08:00 14.0°C 86% 9.1 km/h 11.1 km/h 169° 1007.5 hPa 0.000 mm
2020-10-01 05:07:00 13.9°C 86% 8.3 km/h 11.6 km/h 165° 1007.6 hPa 0.000 mm
2020-10-01 05:06:00 13.9°C 86% 11.2 km/h 18.5 km/h 108° 1007.6 hPa 0.000 mm
2020-10-01 05:05:00 13.9°C 86% 8.2 km/h 10.6 km/h 163° 1007.6 hPa 0.000 mm
2020-10-01 05:04:00 14.0°C 86% 10.1 km/h 15.3 km/h 165° 1007.6 hPa 0.000 mm
2020-10-01 05:03:00 14.0°C 86% 8.6 km/h 11.6 km/h 176° 1007.6 hPa 0.000 mm
2020-10-01 05:02:00 14.0°C 86% 9.6 km/h 11.6 km/h 168° 1007.6 hPa 0.000 mm
2020-10-01 05:01:00 14.0°C 86% 10.2 km/h 13.2 km/h 113° 1007.6 hPa 0.000 mm
2020-10-01 05:00:00 13.9°C 86% 8.0 km/h 11.1 km/h 170° 1007.6 hPa 0.000 mm
2020-10-01 04:59:00 13.9°C 86% 8.3 km/h 12.1 km/h 132° 1007.6 hPa 0.000 mm
2020-10-01 04:58:00 14.0°C 86% 7.3 km/h 10.0 km/h 159° 1007.7 hPa 0.000 mm
2020-10-01 04:57:00 13.8°C 86% 8.7 km/h 10.0 km/h 128° 1007.7 hPa 0.000 mm
2020-10-01 04:56:00 14.0°C 86% 6.6 km/h 7.9 km/h 155° 1007.6 hPa 0.000 mm
2020-10-01 04:55:00 13.9°C 86% 7.3 km/h 9.0 km/h 181° 1007.7 hPa 0.000 mm
2020-10-01 04:54:00 14.0°C 86% 10.8 km/h 14.8 km/h 195° 1007.7 hPa 0.000 mm
2020-10-01 04:53:00 14.1°C 86% 11.6 km/h 14.2 km/h 162° 1007.7 hPa 0.000 mm
2020-10-01 04:52:00 14.1°C 86% 8.9 km/h 11.6 km/h 141° 1007.7 hPa 0.000 mm
2020-10-01 04:51:00 13.9°C 86% 10.3 km/h 13.7 km/h 168° 1007.7 hPa 0.000 mm
2020-10-01 04:50:00 14.2°C 86% 10.9 km/h 14.2 km/h 118° 1007.8 hPa 0.000 mm
2020-10-01 04:49:00 14.3°C 86% 11.0 km/h 14.2 km/h 151° 1007.8 hPa 0.000 mm
2020-10-01 04:48:00 14.2°C 86% 11.8 km/h 16.4 km/h 141° 1007.7 hPa 0.000 mm
2020-10-01 04:47:00 14.2°C 86% 14.0 km/h 16.9 km/h 132° 1007.7 hPa 0.000 mm
2020-10-01 04:46:00 14.2°C 86% 14.7 km/h 19.0 km/h 154° 1007.7 hPa 0.000 mm
2020-10-01 04:45:00 14.2°C 86% 14.1 km/h 17.9 km/h 142° 1007.7 hPa 0.000 mm
2020-10-01 04:44:00 14.1°C 86% 12.8 km/h 16.4 km/h 146° 1007.7 hPa 0.000 mm
2020-10-01 04:43:00 14.1°C 86% 13.4 km/h 20.6 km/h 152° 1007.7 hPa 0.000 mm
2020-10-01 04:42:00 14.1°C 86% 12.8 km/h 18.5 km/h 134° 1007.7 hPa 0.000 mm
2020-10-01 04:41:00 14.1°C 86% 11.4 km/h 19.0 km/h 119° 1007.7 hPa 0.000 mm
2020-10-01 04:40:00 14.1°C 86% 11.3 km/h 14.8 km/h 170° 1007.8 hPa 0.000 mm
2020-10-01 04:39:00 14.2°C 86% 11.3 km/h 21.1 km/h 176° 1007.8 hPa 0.000 mm
2020-10-01 04:38:00 14.3°C 86% 9.8 km/h 17.9 km/h 98° 1007.8 hPa 0.000 mm
2020-10-01 04:37:00 14.2°C 86% 11.0 km/h 14.2 km/h 168° 1007.8 hPa 0.000 mm
2020-10-01 04:36:00 14.3°C 86% 11.7 km/h 16.4 km/h 115° 1007.8 hPa 0.000 mm
2020-10-01 04:35:00 14.1°C 86% 11.7 km/h 20.1 km/h 174° 1007.8 hPa 0.000 mm
2020-10-01 04:34:00 14.1°C 86% 13.2 km/h 17.9 km/h 163° 1007.8 hPa 0.000 mm
2020-10-01 04:33:00 14.1°C 86% 10.9 km/h 15.3 km/h 156° 1007.8 hPa 0.000 mm
2020-10-01 04:32:00 14.2°C 86% 11.7 km/h 16.4 km/h 147° 1007.8 hPa 0.000 mm
2020-10-01 04:31:00 14.1°C 86% 10.0 km/h 14.2 km/h 149° 1007.8 hPa 0.000 mm
2020-10-01 04:30:00 14.1°C 86% 9.8 km/h 12.1 km/h 145° 1007.8 hPa 0.000 mm
2020-10-01 04:29:00 14.1°C 86% 9.9 km/h 16.4 km/h 153° 1007.9 hPa 0.000 mm
2020-10-01 04:28:00 14.2°C 86% 10.1 km/h 14.8 km/h 176° 1007.8 hPa 0.000 mm
2020-10-01 04:27:00 14.2°C 86% 9.4 km/h 12.7 km/h 174° 1007.9 hPa 0.000 mm
2020-10-01 04:26:00 14.3°C 86% 10.5 km/h 13.7 km/h 160° 1007.9 hPa 0.000 mm
2020-10-01 04:25:00 14.3°C 86% 15.7 km/h 21.1 km/h 149° 1007.9 hPa 0.000 mm
2020-10-01 04:24:00 14.3°C 86% 11.4 km/h 14.2 km/h 149° 1007.9 hPa 0.000 mm
2020-10-01 04:23:00 14.3°C 86% 10.9 km/h 13.7 km/h 158° 1007.9 hPa 0.000 mm
2020-10-01 04:22:00 14.2°C 86% 12.9 km/h 17.4 km/h 172° 1007.9 hPa 0.000 mm
2020-10-01 04:21:00 14.3°C 86% 10.4 km/h 15.3 km/h 146° 1007.9 hPa 0.000 mm
2020-10-01 04:20:00 14.3°C 86% 13.6 km/h 17.9 km/h 176° 1007.9 hPa 0.000 mm
2020-10-01 04:19:00 14.2°C 85% 10.6 km/h 14.2 km/h 152° 1007.9 hPa 0.000 mm
2020-10-01 04:18:00 14.3°C 85% 8.4 km/h 12.1 km/h 155° 1008.0 hPa 0.000 mm
2020-10-01 04:17:00 14.3°C 85% 10.3 km/h 15.8 km/h 143° 1007.9 hPa 0.000 mm
2020-10-01 04:16:00 14.3°C 85% 12.7 km/h 16.9 km/h 178° 1007.9 hPa 0.000 mm
2020-10-01 04:15:00 14.4°C 85% 11.5 km/h 15.3 km/h 165° 1007.9 hPa 0.000 mm
2020-10-01 04:14:00 14.4°C 85% 10.3 km/h 16.4 km/h 154° 1008.0 hPa 0.000 mm
2020-10-01 04:13:00 14.6°C 85% 11.9 km/h 15.3 km/h 165° 1008.0 hPa 0.000 mm
2020-10-01 04:12:00 14.3°C 85% 14.3 km/h 19.0 km/h 151° 1008.0 hPa 0.000 mm
2020-10-01 04:11:00 14.4°C 85% 12.7 km/h 14.8 km/h 177° 1008.0 hPa 0.000 mm
2020-10-01 04:10:00 14.4°C 85% 12.3 km/h 16.9 km/h 171° 1008.0 hPa 0.000 mm
2020-10-01 04:09:00 14.5°C 85% 10.8 km/h 13.7 km/h 192° 1008.1 hPa 0.000 mm
2020-10-01 04:08:00 14.6°C 85% 13.7 km/h 19.0 km/h 171° 1008.1 hPa 0.000 mm
2020-10-01 04:07:00 14.5°C 85% 12.8 km/h 16.9 km/h 154° 1008.1 hPa 0.000 mm
2020-10-01 04:06:00 14.5°C 85% 14.1 km/h 19.0 km/h 182° 1008.1 hPa 0.000 mm
2020-10-01 04:05:00 14.8°C 85% 10.9 km/h 13.7 km/h 132° 1008.1 hPa 0.000 mm
2020-10-01 04:04:00 14.6°C 85% 11.8 km/h 15.3 km/h 162° 1008.1 hPa 0.000 mm
2020-10-01 04:03:00 14.6°C 85% 15.2 km/h 23.2 km/h 165° 1008.1 hPa 0.000 mm
2020-10-01 04:02:00 14.6°C 85% 11.9 km/h 17.4 km/h 171° 1008.1 hPa 0.000 mm
2020-10-01 04:01:00 14.7°C 85% 13.7 km/h 16.9 km/h 120° 1008.1 hPa 0.000 mm
2020-10-01 04:00:00 14.6°C 85% 11.3 km/h 15.3 km/h 128° 1008.2 hPa 0.000 mm
2020-10-01 03:59:00 14.9°C 85% 13.3 km/h 17.4 km/h 140° 1008.2 hPa 0.000 mm
2020-10-01 03:58:00 14.7°C 85% 13.3 km/h 19.0 km/h 98° 1008.2 hPa 0.000 mm
2020-10-01 03:57:00 14.7°C 85% 10.9 km/h 15.3 km/h 168° 1008.2 hPa 0.000 mm
2020-10-01 03:56:00 14.6°C 85% 8.7 km/h 10.6 km/h 153° 1008.2 hPa 0.000 mm
2020-10-01 03:55:00 14.5°C 85% 9.6 km/h 12.7 km/h 158° 1008.3 hPa 0.000 mm
2020-10-01 03:54:00 14.6°C 85% 10.3 km/h 12.7 km/h 151° 1008.3 hPa 0.000 mm
2020-10-01 03:53:00 14.5°C 85% 11.9 km/h 17.4 km/h 134° 1008.3 hPa 0.000 mm
2020-10-01 03:52:00 14.8°C 85% 12.6 km/h 18.5 km/h 146° 1008.3 hPa 0.000 mm
2020-10-01 03:51:00 14.4°C 85% 10.2 km/h 14.2 km/h 152° 1008.4 hPa 0.000 mm
2020-10-01 03:50:00 14.6°C 85% 10.4 km/h 12.7 km/h 179° 1008.3 hPa 0.000 mm
2020-10-01 03:49:00 14.5°C 84% 8.7 km/h 13.2 km/h 161° 1008.4 hPa 0.000 mm
2020-10-01 03:48:00 14.5°C 84% 9.3 km/h 12.7 km/h 189° 1008.3 hPa 0.000 mm
2020-10-01 03:47:00 14.8°C 84% 9.8 km/h 12.7 km/h 169° 1008.4 hPa 0.000 mm
2020-10-01 03:46:00 14.5°C 84% 8.9 km/h 10.6 km/h 153° 1008.4 hPa 0.000 mm
2020-10-01 03:45:00 14.6°C 84% 10.3 km/h 14.8 km/h 206° 1008.4 hPa 0.000 mm
2020-10-01 03:44:00 14.7°C 84% 8.4 km/h 13.2 km/h 177° 1008.4 hPa 0.000 mm
2020-10-01 03:43:00 14.5°C 84% 12.8 km/h 19.0 km/h 170° 1008.4 hPa 0.000 mm
2020-10-01 03:42:00 14.6°C 84% 10.7 km/h 13.7 km/h 133° 1008.4 hPa 0.000 mm
2020-10-01 03:41:00 15.0°C 84% 11.4 km/h 16.9 km/h 162° 1008.5 hPa 0.000 mm
2020-10-01 03:40:00 14.6°C 84% 14.1 km/h 21.6 km/h 181° 1008.5 hPa 0.000 mm
2020-10-01 03:39:00 14.4°C 84% 10.9 km/h 14.2 km/h 161° 1008.5 hPa 0.000 mm
2020-10-01 03:38:00 14.7°C 84% 10.6 km/h 13.2 km/h 144° 1008.5 hPa 0.000 mm
2020-10-01 03:37:00 14.6°C 84% 10.3 km/h 12.7 km/h 105° 1008.5 hPa 0.000 mm
2020-10-01 03:36:00 14.8°C 84% 9.3 km/h 13.7 km/h 160° 1008.5 hPa 0.000 mm
2020-10-01 03:35:00 15.0°C 84% 11.5 km/h 14.2 km/h 161° 1008.5 hPa 0.000 mm
2020-10-01 03:34:00 14.8°C 84% 10.9 km/h 14.8 km/h 142° 1008.5 hPa 0.000 mm
2020-10-01 03:33:00 14.7°C 84% 12.3 km/h 16.4 km/h 155° 1008.5 hPa 0.000 mm
2020-10-01 03:32:00 15.1°C 84% 13.3 km/h 20.6 km/h 200° 1008.5 hPa 0.000 mm
2020-10-01 03:31:00 14.8°C 84% 11.5 km/h 15.3 km/h 156° 1008.5 hPa 0.000 mm
2020-10-01 03:30:00 14.9°C 84% 10.1 km/h 16.9 km/h 125° 1008.6 hPa 0.000 mm
2020-10-01 03:29:00 14.9°C 84% 14.1 km/h 18.5 km/h 180° 1008.6 hPa 0.000 mm
2020-10-01 03:28:00 14.9°C 84% 12.8 km/h 16.9 km/h 160° 1008.6 hPa 0.000 mm
2020-10-01 03:27:00 15.2°C 84% 11.3 km/h 13.7 km/h 185° 1008.6 hPa 0.000 mm
2020-10-01 03:26:00 14.8°C 84% 14.3 km/h 20.6 km/h 131° 1008.6 hPa 0.000 mm
2020-10-01 03:25:00 14.8°C 84% 13.3 km/h 20.6 km/h 155° 1008.6 hPa 0.000 mm
2020-10-01 03:24:00 14.7°C 83% 11.7 km/h 17.9 km/h 149° 1008.6 hPa 0.000 mm
2020-10-01 03:23:00 14.8°C 83% 11.8 km/h 13.7 km/h 207° 1008.6 hPa 0.000 mm
2020-10-01 03:22:00 14.9°C 83% 10.8 km/h 13.7 km/h 97° 1008.6 hPa 0.000 mm
2020-10-01 03:21:00 14.9°C 83% 13.5 km/h 19.5 km/h 136° 1008.7 hPa 0.000 mm
2020-10-01 03:20:00 14.9°C 83% 11.7 km/h 14.8 km/h 158° 1008.7 hPa 0.000 mm
2020-10-01 03:19:00 14.8°C 83% 10.9 km/h 14.8 km/h 131° 1008.7 hPa 0.000 mm
2020-10-01 03:18:00 14.7°C 83% 11.7 km/h 16.9 km/h 151° 1008.7 hPa 0.000 mm
2020-10-01 03:17:00 15.1°C 83% 11.7 km/h 17.4 km/h 119° 1008.7 hPa 0.000 mm
2020-10-01 03:16:00 14.9°C 83% 11.7 km/h 16.9 km/h 173° 1008.7 hPa 0.000 mm
2020-10-01 03:15:00 14.8°C 83% 12.1 km/h 18.5 km/h 152° 1008.7 hPa 0.000 mm
2020-10-01 03:14:00 15.0°C 83% 10.8 km/h 12.7 km/h 180° 1008.7 hPa 0.000 mm
2020-10-01 03:13:00 15.1°C 83% 11.0 km/h 15.3 km/h 149° 1008.7 hPa 0.000 mm
2020-10-01 03:12:00 15.0°C 83% 10.2 km/h 12.7 km/h 134° 1008.7 hPa 0.000 mm
2020-10-01 03:11:00 15.0°C 83% 9.9 km/h 13.7 km/h 129° 1008.7 hPa 0.000 mm
2020-10-01 03:10:00 15.0°C 83% 13.1 km/h 15.3 km/h 162° 1008.7 hPa 0.000 mm
2020-10-01 03:09:00 15.0°C 83% 10.8 km/h 13.2 km/h 165° 1008.6 hPa 0.000 mm
2020-10-01 03:08:00 14.8°C 83% 9.9 km/h 15.3 km/h 116° 1008.7 hPa 0.000 mm
2020-10-01 03:07:00 15.0°C 83% 12.8 km/h 20.1 km/h 145° 1008.8 hPa 0.000 mm
2020-10-01 03:06:00 15.1°C 83% 9.2 km/h 12.1 km/h 145° 1008.8 hPa 0.000 mm
2020-10-01 03:05:00 14.9°C 83% 9.0 km/h 12.7 km/h 141° 1008.8 hPa 0.000 mm
2020-10-01 03:04:00 15.0°C 83% 11.8 km/h 14.8 km/h 164° 1008.8 hPa 0.000 mm
2020-10-01 03:03:00 14.9°C 83% 8.6 km/h 12.7 km/h 116° 1008.8 hPa 0.000 mm
2020-10-01 03:02:00 15.1°C 83% 10.5 km/h 13.7 km/h 150° 1008.9 hPa 0.000 mm
2020-10-01 03:01:00 15.1°C 83% 10.1 km/h 14.2 km/h 159° 1008.9 hPa 0.000 mm
2020-10-01 03:00:00 15.2°C 83% 10.3 km/h 17.4 km/h 147° 1008.9 hPa 0.000 mm
2020-10-01 02:59:00 14.8°C 82% 9.5 km/h 13.2 km/h 151° 1008.9 hPa 0.000 mm
2020-10-01 02:58:00 14.9°C 82% 10.5 km/h 13.7 km/h 171° 1008.9 hPa 0.000 mm
2020-10-01 02:57:00 14.9°C 82% 8.8 km/h 12.7 km/h 106° 1008.9 hPa 0.000 mm
2020-10-01 02:56:00 14.8°C 82% 9.5 km/h 12.1 km/h 182° 1009.0 hPa 0.000 mm
2020-10-01 02:55:00 14.8°C 82% 9.7 km/h 12.1 km/h 180° 1009.0 hPa 0.000 mm
2020-10-01 02:54:00 14.8°C 82% 8.7 km/h 12.7 km/h 136° 1009.0 hPa 0.000 mm
2020-10-01 02:53:00 14.5°C 82% 9.3 km/h 14.8 km/h 167° 1009.0 hPa 0.000 mm
2020-10-01 02:52:00 14.8°C 82% 12.2 km/h 17.9 km/h 162° 1009.0 hPa 0.000 mm
2020-10-01 02:51:00 14.9°C 82% 10.7 km/h 17.9 km/h 177° 1009.0 hPa 0.000 mm
2020-10-01 02:50:00 14.7°C 82% 9.1 km/h 17.9 km/h 142° 1009.0 hPa 0.000 mm
2020-10-01 02:49:00 14.8°C 82% 10.3 km/h 12.7 km/h 152° 1009.0 hPa 0.000 mm
2020-10-01 02:48:00 14.8°C 82% 8.4 km/h 11.6 km/h 186° 1009.0 hPa 0.000 mm
2020-10-01 02:47:00 14.8°C 82% 10.5 km/h 13.2 km/h 191° 1009.1 hPa 0.000 mm
2020-10-01 02:46:00 14.8°C 82% 11.8 km/h 16.9 km/h 192° 1009.0 hPa 0.000 mm
2020-10-01 02:45:00 14.8°C 82% 13.2 km/h 18.5 km/h 150° 1009.1 hPa 0.000 mm
2020-10-01 02:44:00 14.7°C 82% 11.3 km/h 14.2 km/h 140° 1009.1 hPa 0.000 mm
2020-10-01 02:43:00 14.8°C 82% 11.4 km/h 15.3 km/h 158° 1009.1 hPa 0.000 mm
2020-10-01 02:42:00 14.6°C 82% 13.1 km/h 18.5 km/h 111° 1009.1 hPa 0.000 mm
2020-10-01 02:41:00 14.8°C 82% 10.7 km/h 13.7 km/h 173° 1009.1 hPa 0.000 mm
2020-10-01 02:40:00 14.7°C 82% 11.6 km/h 15.3 km/h 138° 1009.1 hPa 0.000 mm
2020-10-01 02:39:00 14.7°C 82% 13.4 km/h 20.1 km/h 140° 1009.1 hPa 0.000 mm
2020-10-01 02:38:00 14.6°C 82% 10.5 km/h 13.7 km/h 111° 1009.1 hPa 0.000 mm
2020-10-01 02:37:00 14.5°C 82% 11.1 km/h 14.2 km/h 183° 1009.1 hPa 0.000 mm
2020-10-01 02:36:00 14.4°C 82% 11.0 km/h 14.2 km/h 176° 1009.1 hPa 0.000 mm
2020-10-01 02:35:00 14.7°C 82% 9.4 km/h 11.6 km/h 177° 1009.1 hPa 0.000 mm
2020-10-01 02:34:00 14.5°C 82% 11.3 km/h 16.4 km/h 113° 1009.1 hPa 0.000 mm
2020-10-01 02:33:00 14.4°C 82% 10.4 km/h 13.2 km/h 165° 1009.1 hPa 0.000 mm
2020-10-01 02:32:00 14.5°C 82% 10.9 km/h 12.7 km/h 170° 1009.2 hPa 0.000 mm
2020-10-01 02:31:00 14.5°C 82% 11.5 km/h 14.2 km/h 140° 1009.2 hPa 0.000 mm
2020-10-01 02:30:00 14.4°C 82% 10.2 km/h 15.3 km/h 179° 1009.2 hPa 0.000 mm
2020-10-01 02:29:00 14.4°C 82% 8.5 km/h 12.1 km/h 178° 1009.2 hPa 0.000 mm
2020-10-01 02:28:00 14.4°C 82% 11.1 km/h 13.2 km/h 197° 1009.2 hPa 0.000 mm
2020-10-01 02:27:00 14.4°C 82% 10.7 km/h 14.2 km/h 145° 1009.2 hPa 0.000 mm
2020-10-01 02:26:00 14.3°C 82% 10.8 km/h 13.7 km/h 210° 1009.2 hPa 0.000 mm
2020-10-01 02:25:00 14.5°C 82% 8.6 km/h 11.6 km/h 152° 1009.2 hPa 0.000 mm
2020-10-01 02:24:00 14.5°C 82% 12.2 km/h 16.4 km/h 107° 1009.2 hPa 0.000 mm
2020-10-01 02:23:00 14.5°C 82% 10.3 km/h 14.2 km/h 152° 1009.3 hPa 0.000 mm
2020-10-01 02:22:00 14.5°C 82% 8.9 km/h 11.6 km/h 171° 1009.3 hPa 0.000 mm
2020-10-01 02:21:00 14.5°C 82% 8.1 km/h 13.2 km/h 133° 1009.3 hPa 0.000 mm
2020-10-01 02:20:00 14.5°C 82% 9.7 km/h 12.7 km/h 119° 1009.3 hPa 0.000 mm
2020-10-01 02:19:00 14.5°C 81% 7.0 km/h 8.4 km/h 146° 1009.4 hPa 0.000 mm
2020-10-01 02:18:00 14.6°C 81% 8.4 km/h 10.6 km/h 154° 1009.4 hPa 0.000 mm
2020-10-01 02:17:00 14.5°C 81% 11.3 km/h 15.3 km/h 146° 1009.4 hPa 0.000 mm
2020-10-01 02:16:00 14.8°C 81% 8.4 km/h 10.0 km/h 131° 1009.4 hPa 0.000 mm
2020-10-01 02:15:00 14.6°C 81% 9.6 km/h 12.1 km/h 143° 1009.4 hPa 0.000 mm
2020-10-01 02:14:00 14.7°C 81% 9.7 km/h 12.1 km/h 140° 1009.4 hPa 0.000 mm
2020-10-01 02:13:00 14.7°C 81% 9.8 km/h 13.2 km/h 119° 1009.3 hPa 0.000 mm
2020-10-01 02:12:00 14.6°C 81% 9.0 km/h 12.7 km/h 159° 1009.3 hPa 0.000 mm
2020-10-01 02:11:00 14.6°C 81% 9.9 km/h 16.4 km/h 119° 1009.4 hPa 0.000 mm
2020-10-01 02:10:00 14.5°C 81% 10.3 km/h 19.0 km/h 128° 1009.5 hPa 0.000 mm
2020-10-01 02:09:00 14.6°C 81% 11.9 km/h 16.4 km/h 170° 1009.5 hPa 0.000 mm
2020-10-01 02:08:00 14.6°C 81% 10.7 km/h 17.4 km/h 131° 1009.5 hPa 0.000 mm
2020-10-01 02:07:00 14.6°C 81% 11.8 km/h 15.8 km/h 138° 1009.4 hPa 0.000 mm
2020-10-01 02:06:00 14.6°C 81% 11.0 km/h 15.8 km/h 146° 1009.4 hPa 0.000 mm
2020-10-01 02:05:00 14.8°C 81% 8.8 km/h 14.2 km/h 108° 1009.4 hPa 0.000 mm
2020-10-01 02:04:00 14.6°C 81% 7.6 km/h 10.6 km/h 141° 1009.4 hPa 0.000 mm
2020-10-01 02:03:00 14.7°C 81% 7.9 km/h 9.5 km/h 163° 1009.4 hPa 0.000 mm
2020-10-01 02:02:00 14.8°C 81% 9.4 km/h 13.2 km/h 152° 1009.5 hPa 0.000 mm
2020-10-01 02:01:00 14.7°C 81% 8.9 km/h 12.1 km/h 129° 1009.5 hPa 0.000 mm
2020-10-01 02:00:00 14.8°C 81% 7.9 km/h 11.1 km/h 149° 1009.5 hPa 0.000 mm
2020-10-01 01:59:00 14.7°C 81% 9.6 km/h 15.3 km/h 197° 1009.5 hPa 0.000 mm
2020-10-01 01:58:00 14.7°C 81% 8.7 km/h 11.6 km/h 138° 1009.5 hPa 0.000 mm
2020-10-01 01:57:00 14.7°C 81% 7.4 km/h 9.5 km/h 141° 1009.5 hPa 0.000 mm
2020-10-01 01:56:00 14.6°C 81% 10.3 km/h 14.8 km/h 158° 1009.5 hPa 0.000 mm
2020-10-01 01:55:00 14.6°C 81% 8.3 km/h 10.6 km/h 164° 1009.5 hPa 0.000 mm
2020-10-01 01:54:00 14.7°C 81% 7.2 km/h 10.6 km/h 120° 1009.6 hPa 0.000 mm
2020-10-01 01:53:00 14.7°C 81% 9.5 km/h 13.7 km/h 142° 1009.5 hPa 0.000 mm
2020-10-01 01:52:00 14.7°C 81% 6.5 km/h 7.9 km/h 120° 1009.5 hPa 0.000 mm
2020-10-01 01:51:00 14.7°C 81% 6.6 km/h 10.6 km/h 133° 1009.5 hPa 0.000 mm
2020-10-01 01:50:00 14.6°C 81% 8.8 km/h 11.1 km/h 141° 1009.5 hPa 0.000 mm
2020-10-01 01:49:00 14.7°C 81% 7.9 km/h 11.6 km/h 145° 1009.5 hPa 0.000 mm
2020-10-01 01:48:00 14.7°C 81% 9.3 km/h 12.7 km/h 135° 1009.4 hPa 0.000 mm
2020-10-01 01:47:00 14.7°C 81% 9.3 km/h 11.6 km/h 161° 1009.5 hPa 0.000 mm
2020-10-01 01:46:00 14.6°C 81% 8.1 km/h 10.6 km/h 146° 1009.5 hPa 0.000 mm
2020-10-01 01:45:00 14.5°C 81% 6.7 km/h 10.0 km/h 95° 1009.5 hPa 0.000 mm
2020-10-01 01:44:00 14.6°C 81% 6.7 km/h 8.4 km/h 162° 1009.5 hPa 0.000 mm
2020-10-01 01:43:00 14.7°C 81% 6.7 km/h 10.0 km/h 136° 1009.6 hPa 0.000 mm
2020-10-01 01:42:00 14.6°C 81% 7.5 km/h 10.0 km/h 169° 1009.6 hPa 0.000 mm
2020-10-01 01:41:00 14.6°C 81% 6.4 km/h 9.5 km/h 143° 1009.6 hPa 0.000 mm
2020-10-01 01:40:00 14.5°C 81% 8.7 km/h 11.6 km/h 125° 1009.5 hPa 0.000 mm
2020-10-01 01:39:00 14.5°C 81% 9.2 km/h 11.1 km/h 167° 1009.5 hPa 0.000 mm
2020-10-01 01:38:00 14.7°C 81% 8.8 km/h 11.1 km/h 151° 1009.6 hPa 0.000 mm
2020-10-01 01:37:00 14.5°C 81% 8.4 km/h 12.1 km/h 122° 1009.6 hPa 0.000 mm
2020-10-01 01:36:00 14.4°C 81% 7.2 km/h 9.0 km/h 164° 1009.6 hPa 0.000 mm
2020-10-01 01:35:00 14.5°C 81% 8.6 km/h 13.2 km/h 177° 1009.6 hPa 0.000 mm
2020-10-01 01:34:00 14.5°C 80% 7.0 km/h 10.6 km/h 114° 1009.6 hPa 0.000 mm
2020-10-01 01:33:00 14.5°C 80% 6.6 km/h 11.6 km/h 164° 1009.5 hPa 0.000 mm
2020-10-01 01:32:00 14.6°C 80% 6.6 km/h 8.4 km/h 143° 1009.6 hPa 0.000 mm
2020-10-01 01:31:00 14.6°C 80% 6.4 km/h 7.9 km/h 161° 1009.6 hPa 0.000 mm
2020-10-01 01:30:00 14.7°C 80% 8.0 km/h 10.6 km/h 163° 1009.6 hPa 0.000 mm
2020-10-01 01:29:00 14.8°C 80% 7.3 km/h 9.0 km/h 154° 1009.6 hPa 0.000 mm
2020-10-01 01:28:00 14.8°C 80% 6.6 km/h 9.0 km/h 144° 1009.6 hPa 0.000 mm
2020-10-01 01:27:00 14.9°C 80% 8.0 km/h 10.6 km/h 129° 1009.6 hPa 0.000 mm
2020-10-01 01:26:00 14.9°C 80% 8.6 km/h 10.6 km/h 163° 1009.6 hPa 0.000 mm
2020-10-01 01:25:00 14.9°C 80% 10.3 km/h 13.7 km/h 145° 1009.6 hPa 0.000 mm
2020-10-01 01:24:00 15.0°C 80% 9.7 km/h 15.3 km/h 107° 1009.6 hPa 0.000 mm
2020-10-01 01:23:00 14.8°C 80% 9.7 km/h 13.2 km/h 150° 1009.6 hPa 0.000 mm
2020-10-01 01:22:00 14.8°C 80% 7.8 km/h 9.5 km/h 140° 1009.6 hPa 0.000 mm
2020-10-01 01:21:00 14.8°C 80% 8.8 km/h 12.1 km/h 141° 1009.6 hPa 0.000 mm
2020-10-01 01:20:00 14.9°C 80% 11.0 km/h 13.7 km/h 144° 1009.6 hPa 0.000 mm
2020-10-01 01:19:00 14.9°C 80% 8.1 km/h 12.1 km/h 128° 1009.7 hPa 0.000 mm
2020-10-01 01:18:00 15.0°C 80% 10.7 km/h 14.2 km/h 143° 1009.7 hPa 0.000 mm
2020-10-01 01:17:00 15.0°C 80% 10.7 km/h 14.2 km/h 129° 1009.7 hPa 0.000 mm
2020-10-01 01:16:00 15.1°C 80% 10.6 km/h 16.9 km/h 146° 1009.7 hPa 0.000 mm
2020-10-01 01:15:00 15.1°C 80% 10.5 km/h 13.7 km/h 95° 1009.8 hPa 0.000 mm
2020-10-01 01:14:00 15.1°C 80% 9.1 km/h 14.2 km/h 120° 1009.8 hPa 0.000 mm
2020-10-01 01:13:00 15.0°C 80% 9.0 km/h 11.6 km/h 145° 1009.8 hPa 0.000 mm
2020-10-01 01:12:00 15.0°C 80% 9.2 km/h 12.1 km/h 151° 1009.8 hPa 0.000 mm
2020-10-01 01:11:00 15.0°C 80% 8.6 km/h 11.1 km/h 119° 1009.8 hPa 0.000 mm
2020-10-01 01:10:00 15.2°C 80% 8.2 km/h 11.6 km/h 168° 1009.8 hPa 0.000 mm
2020-10-01 01:09:00 15.1°C 80% 10.1 km/h 15.8 km/h 135° 1009.8 hPa 0.000 mm
2020-10-01 01:08:00 15.1°C 80% 10.1 km/h 13.7 km/h 109° 1009.8 hPa 0.000 mm
2020-10-01 01:07:00 15.1°C 80% 10.6 km/h 14.2 km/h 153° 1009.8 hPa 0.000 mm
2020-10-01 01:06:00 15.3°C 80% 11.3 km/h 14.2 km/h 107° 1009.8 hPa 0.000 mm
2020-10-01 01:05:00 15.0°C 80% 13.9 km/h 19.0 km/h 159° 1009.8 hPa 0.000 mm
2020-10-01 01:04:00 15.0°C 80% 12.1 km/h 15.8 km/h 138° 1009.8 hPa 0.000 mm
2020-10-01 01:03:00 15.2°C 80% 10.7 km/h 13.7 km/h 180° 1009.8 hPa 0.000 mm
2020-10-01 01:02:00 15.2°C 80% 8.7 km/h 15.8 km/h 111° 1009.8 hPa 0.000 mm
2020-10-01 01:01:00 15.3°C 80% 9.7 km/h 16.9 km/h 134° 1009.8 hPa 0.000 mm
2020-10-01 01:00:00 15.2°C 80% 8.6 km/h 12.7 km/h 137° 1009.8 hPa 0.000 mm
2020-10-01 00:59:00 15.3°C 80% 12.3 km/h 17.4 km/h 127° 1009.8 hPa 0.000 mm
2020-10-01 00:58:00 15.3°C 80% 11.3 km/h 16.4 km/h 107° 1009.9 hPa 0.000 mm
2020-10-01 00:57:00 15.6°C 80% 9.1 km/h 14.8 km/h 155° 1009.9 hPa 0.000 mm
2020-10-01 00:56:00 15.2°C 80% 10.9 km/h 14.8 km/h 155° 1009.9 hPa 0.000 mm
2020-10-01 00:55:00 15.4°C 80% 10.2 km/h 14.8 km/h 156° 1009.9 hPa 0.000 mm
2020-10-01 00:54:00 15.5°C 80% 10.6 km/h 14.8 km/h 149° 1009.9 hPa 0.000 mm
2020-10-01 00:53:00 15.7°C 80% 11.6 km/h 15.3 km/h 167° 1009.9 hPa 0.000 mm
2020-10-01 00:52:00 15.5°C 80% 13.6 km/h 17.9 km/h 147° 1009.9 hPa 0.000 mm
2020-10-01 00:51:00 15.5°C 80% 11.4 km/h 14.2 km/h 163° 1009.9 hPa 0.000 mm
2020-10-01 00:50:00 15.5°C 80% 13.9 km/h 18.5 km/h 119° 1009.9 hPa 0.000 mm
2020-10-01 00:49:00 15.6°C 80% 13.7 km/h 16.9 km/h 125° 1009.9 hPa 0.000 mm
2020-10-01 00:48:00 15.4°C 80% 11.7 km/h 15.3 km/h 162° 1009.9 hPa 0.000 mm
2020-10-01 00:47:00 15.6°C 80% 10.5 km/h 15.3 km/h 75° 1009.9 hPa 0.000 mm
2020-10-01 00:46:00 15.6°C 80% 11.1 km/h 17.4 km/h 169° 1009.9 hPa 0.000 mm
2020-10-01 00:45:00 15.5°C 80% 12.5 km/h 15.3 km/h 126° 1009.9 hPa 0.000 mm
2020-10-01 00:44:00 15.3°C 80% 11.9 km/h 15.8 km/h 189° 1009.9 hPa 0.000 mm
2020-10-01 00:43:00 15.6°C 80% 9.4 km/h 15.3 km/h 156° 1009.9 hPa 0.000 mm
2020-10-01 00:42:00 15.5°C 80% 10.4 km/h 15.3 km/h 170° 1009.9 hPa 0.000 mm
2020-10-01 00:41:00 15.5°C 80% 12.3 km/h 17.4 km/h 74° 1009.9 hPa 0.000 mm
2020-10-01 00:40:00 15.6°C 80% 10.2 km/h 15.8 km/h 110° 1009.9 hPa 0.000 mm
2020-10-01 00:39:00 15.6°C 80% 9.5 km/h 16.4 km/h 120° 1009.9 hPa 0.000 mm
2020-10-01 00:38:00 15.5°C 80% 10.0 km/h 13.7 km/h 155° 1009.9 hPa 0.000 mm
2020-10-01 00:37:00 15.7°C 80% 9.0 km/h 14.2 km/h 144° 1009.9 hPa 0.000 mm
2020-10-01 00:36:00 15.8°C 80% 12.4 km/h 17.9 km/h 122° 1009.9 hPa 0.000 mm
2020-10-01 00:35:00 15.7°C 80% 10.2 km/h 13.7 km/h 154° 1010.0 hPa 0.000 mm
2020-10-01 00:34:00 15.7°C 80% 10.8 km/h 17.4 km/h 141° 1009.9 hPa 0.000 mm
2020-10-01 00:33:00 15.7°C 80% 11.0 km/h 13.7 km/h 113° 1010.0 hPa 0.000 mm
2020-10-01 00:32:00 15.7°C 80% 11.4 km/h 19.5 km/h 117° 1010.0 hPa 0.000 mm
2020-10-01 00:31:00 15.7°C 80% 10.8 km/h 14.2 km/h 143° 1010.0 hPa 0.000 mm
2020-10-01 00:30:00 15.7°C 80% 12.6 km/h 17.4 km/h 109° 1010.0 hPa 0.000 mm
2020-10-01 00:29:00 15.8°C 80% 10.6 km/h 13.7 km/h 108° 1010.0 hPa 0.000 mm
2020-10-01 00:28:00 15.8°C 80% 14.2 km/h 21.6 km/h 158° 1010.1 hPa 0.000 mm
2020-10-01 00:27:00 15.8°C 80% 13.2 km/h 19.5 km/h 128° 1010.1 hPa 0.000 mm
2020-10-01 00:26:00 15.8°C 80% 8.0 km/h 10.0 km/h 111° 1010.1 hPa 0.000 mm
2020-10-01 00:25:00 15.8°C 80% 10.6 km/h 15.8 km/h 70° 1010.1 hPa 0.000 mm
2020-10-01 00:24:00 15.9°C 80% 11.8 km/h 14.8 km/h 115° 1010.1 hPa 0.000 mm
2020-10-01 00:23:00 15.6°C 80% 15.2 km/h 19.0 km/h 153° 1010.1 hPa 0.000 mm
2020-10-01 00:22:00 15.9°C 80% 14.2 km/h 17.9 km/h 135° 1010.1 hPa 0.000 mm
2020-10-01 00:21:00 15.9°C 80% 11.1 km/h 17.4 km/h 150° 1010.1 hPa 0.000 mm
2020-10-01 00:20:00 15.9°C 80% 15.1 km/h 21.6 km/h 187° 1010.1 hPa 0.000 mm
2020-10-01 00:19:00 16.0°C 80% 12.7 km/h 17.9 km/h 132° 1010.1 hPa 0.000 mm
2020-10-01 00:18:00 15.9°C 80% 12.5 km/h 16.9 km/h 150° 1010.1 hPa 0.000 mm
2020-10-01 00:17:00 15.9°C 80% 13.9 km/h 19.0 km/h 126° 1010.1 hPa 0.000 mm
2020-10-01 00:16:00 15.9°C 80% 15.6 km/h 21.1 km/h 170° 1010.1 hPa 0.000 mm
2020-10-01 00:15:00 16.0°C 80% 15.3 km/h 22.2 km/h 167° 1010.0 hPa 0.000 mm
2020-10-01 00:14:00 15.9°C 80% 12.6 km/h 16.9 km/h 156° 1010.1 hPa 0.000 mm
2020-10-01 00:13:00 15.9°C 80% 13.1 km/h 18.5 km/h 125° 1010.0 hPa 0.000 mm
2020-10-01 00:12:00 15.9°C 80% 14.6 km/h 22.2 km/h 136° 1010.0 hPa 0.000 mm
2020-10-01 00:11:00 16.0°C 80% 17.1 km/h 21.6 km/h 141° 1010.0 hPa 0.000 mm
2020-10-01 00:10:00 15.8°C 80% 15.8 km/h 22.2 km/h 135° 1010.0 hPa 0.000 mm
2020-10-01 00:09:00 15.8°C 79% 10.8 km/h 14.8 km/h 133° 1010.0 hPa 0.000 mm
2020-10-01 00:08:00 15.9°C 79% 12.8 km/h 16.4 km/h 160° 1010.0 hPa 0.000 mm
2020-10-01 00:07:00 15.9°C 79% 14.8 km/h 20.1 km/h 142° 1009.9 hPa 0.000 mm
2020-10-01 00:06:00 15.9°C 79% 11.5 km/h 16.4 km/h 162° 1010.0 hPa 0.000 mm
2020-10-01 00:05:00 16.1°C 79% 17.0 km/h 21.6 km/h 179° 1010.0 hPa 0.000 mm
2020-10-01 00:04:00 16.0°C 79% 12.6 km/h 17.4 km/h 183° 1010.0 hPa 0.000 mm
2020-10-01 00:03:00 16.0°C 79% 12.1 km/h 16.4 km/h 174° 1010.0 hPa 0.000 mm
2020-10-01 00:02:00 16.1°C 79% 11.8 km/h 17.4 km/h 128° 1010.1 hPa 0.000 mm
2020-10-01 00:01:00 16.1°C 79% 12.2 km/h 16.9 km/h 126° 1010.1 hPa 0.000 mm
2020-10-01 00:00:00 16.0°C 79% 13.6 km/h 21.1 km/h 143° 1010.1 hPa 0.000 mm
2020-09-30 23:59:00 16.2°C 79% 9.6 km/h 13.7 km/h 134° 1010.2 hPa 0.000 mm
2020-09-30 23:58:00 15.9°C 79% 11.0 km/h 14.2 km/h 143° 1010.1 hPa 0.000 mm
2020-09-30 23:57:00 15.9°C 79% 9.3 km/h 14.2 km/h 147° 1010.1 hPa 0.000 mm
2020-09-30 23:56:00 16.0°C 79% 11.2 km/h 15.8 km/h 172° 1010.1 hPa 0.000 mm
2020-09-30 23:55:00 16.0°C 79% 11.0 km/h 17.9 km/h 162° 1010.1 hPa 0.000 mm
2020-09-30 23:54:00 16.1°C 79% 9.9 km/h 16.4 km/h 156° 1010.1 hPa 0.000 mm
2020-09-30 23:53:00 16.1°C 79% 13.2 km/h 20.1 km/h 149° 1010.1 hPa 0.000 mm
2020-09-30 23:52:00 16.1°C 79% 10.7 km/h 13.7 km/h 116° 1010.2 hPa 0.000 mm
2020-09-30 23:51:00 16.0°C 79% 11.3 km/h 15.3 km/h 141° 1010.2 hPa 0.000 mm
2020-09-30 23:50:00 16.0°C 79% 10.4 km/h 14.2 km/h 160° 1010.2 hPa 0.000 mm
2020-09-30 23:49:00 16.2°C 79% 10.2 km/h 15.3 km/h 119° 1010.2 hPa 0.000 mm
2020-09-30 23:48:00 16.2°C 79% 12.9 km/h 19.0 km/h 209° 1010.2 hPa 0.000 mm
2020-09-30 23:47:00 16.2°C 79% 11.6 km/h 15.3 km/h 147° 1010.2 hPa 0.000 mm
2020-09-30 23:46:00 16.2°C 79% 9.5 km/h 15.8 km/h 107° 1010.2 hPa 0.000 mm
2020-09-30 23:45:00 16.0°C 79% 11.7 km/h 17.4 km/h 150° 1010.2 hPa 0.000 mm
2020-09-30 23:44:00 16.0°C 79% 8.5 km/h 13.2 km/h 132° 1010.2 hPa 0.000 mm
2020-09-30 23:43:00 16.1°C 79% 10.0 km/h 15.8 km/h 136° 1010.3 hPa 0.000 mm
2020-09-30 23:42:00 16.0°C 79% 7.0 km/h 10.0 km/h 174° 1010.3 hPa 0.000 mm
2020-09-30 23:41:00 15.8°C 79% 10.7 km/h 14.2 km/h 155° 1010.2 hPa 0.000 mm
2020-09-30 23:40:00 16.1°C 79% 11.4 km/h 14.2 km/h 192° 1010.2 hPa 0.000 mm
2020-09-30 23:39:00 16.0°C 79% 7.9 km/h 10.0 km/h 178° 1010.3 hPa 0.000 mm
2020-09-30 23:38:00 16.1°C 79% 10.7 km/h 14.8 km/h 160° 1010.3 hPa 0.000 mm
2020-09-30 23:37:00 16.0°C 79% 10.6 km/h 14.2 km/h 129° 1010.2 hPa 0.000 mm
2020-09-30 23:36:00 16.0°C 79% 9.7 km/h 12.7 km/h 158° 1010.3 hPa 0.000 mm
2020-09-30 23:35:00 15.8°C 79% 9.9 km/h 12.7 km/h 134° 1010.3 hPa 0.000 mm
2020-09-30 23:34:00 15.9°C 79% 9.6 km/h 12.1 km/h 127° 1010.3 hPa 0.000 mm
2020-09-30 23:33:00 15.9°C 79% 8.1 km/h 12.7 km/h 189° 1010.3 hPa 0.000 mm
2020-09-30 23:32:00 15.8°C 79% 8.6 km/h 13.7 km/h 113° 1010.2 hPa 0.000 mm
2020-09-30 23:31:00 15.7°C 79% 8.3 km/h 10.0 km/h 156° 1010.3 hPa 0.000 mm
2020-09-30 23:30:00 15.6°C 79% 6.2 km/h 10.0 km/h 171° 1010.3 hPa 0.000 mm
2020-09-30 23:29:00 15.9°C 79% 7.3 km/h 11.1 km/h 134° 1010.4 hPa 0.000 mm
2020-09-30 23:28:00 16.0°C 79% 5.2 km/h 7.4 km/h 133° 1010.4 hPa 0.000 mm
2020-09-30 23:27:00 15.7°C 79% 8.0 km/h 10.6 km/h 142° 1010.5 hPa 0.000 mm
2020-09-30 23:26:00 15.8°C 79% 5.1 km/h 6.3 km/h 116° 1010.5 hPa 0.000 mm
2020-09-30 23:25:00 15.8°C 79% 5.8 km/h 9.5 km/h 164° 1010.5 hPa 0.000 mm
2020-09-30 23:24:00 15.7°C 79% 5.9 km/h 7.9 km/h 152° 1010.5 hPa 0.000 mm
2020-09-30 23:23:00 16.0°C 79% 7.5 km/h 12.1 km/h 200° 1010.5 hPa 0.000 mm
2020-09-30 23:22:00 15.8°C 79% 10.6 km/h 15.3 km/h 142° 1010.5 hPa 0.000 mm
2020-09-30 23:21:00 15.7°C 79% 8.4 km/h 10.6 km/h 127° 1010.5 hPa 0.000 mm
2020-09-30 23:20:00 16.0°C 79% 7.3 km/h 11.1 km/h 151° 1010.4 hPa 0.000 mm
2020-09-30 23:19:00 15.8°C 79% 6.9 km/h 9.5 km/h 150° 1010.5 hPa 0.000 mm
2020-09-30 23:18:00 15.9°C 79% 5.4 km/h 7.4 km/h 119° 1010.4 hPa 0.000 mm
2020-09-30 23:17:00 15.9°C 79% 6.5 km/h 9.0 km/h 124° 1010.4 hPa 0.000 mm
2020-09-30 23:16:00 15.8°C 79% 6.0 km/h 9.0 km/h 137° 1010.4 hPa 0.000 mm
2020-09-30 23:15:00 15.8°C 79% 7.2 km/h 13.2 km/h 160° 1010.4 hPa 0.000 mm
2020-09-30 23:14:00 15.8°C 79% 6.2 km/h 9.0 km/h 158° 1010.4 hPa 0.000 mm
2020-09-30 23:13:00 15.9°C 79% 4.7 km/h 6.3 km/h 171° 1010.5 hPa 0.000 mm
2020-09-30 23:12:00 15.9°C 79% 5.2 km/h 8.4 km/h 131° 1010.5 hPa 0.000 mm
2020-09-30 23:11:00 15.9°C 79% 4.7 km/h 7.4 km/h 141° 1010.5 hPa 0.000 mm
2020-09-30 23:10:00 15.9°C 79% 5.7 km/h 7.4 km/h 136° 1010.5 hPa 0.000 mm
2020-09-30 23:09:00 15.7°C 79% 5.3 km/h 7.4 km/h 106° 1010.4 hPa 0.000 mm
2020-09-30 23:08:00 15.8°C 79% 5.8 km/h 7.9 km/h 177° 1010.4 hPa 0.000 mm
2020-09-30 23:07:00 15.8°C 79% 4.0 km/h 5.8 km/h 113° 1010.4 hPa 0.000 mm
2020-09-30 23:06:00 15.8°C 79% 5.8 km/h 7.9 km/h 137° 1010.5 hPa 0.000 mm
2020-09-30 23:05:00 15.8°C 79% 5.2 km/h 7.9 km/h 93° 1010.5 hPa 0.000 mm
2020-09-30 23:04:00 15.8°C 78% 6.2 km/h 10.0 km/h 151° 1010.4 hPa 0.000 mm
2020-09-30 23:03:00 15.8°C 78% 7.1 km/h 12.7 km/h 132° 1010.5 hPa 0.000 mm
2020-09-30 23:02:00 15.8°C 78% 7.0 km/h 9.5 km/h 93° 1010.5 hPa 0.000 mm
2020-09-30 23:01:00 16.1°C 78% 7.0 km/h 11.1 km/h 154° 1010.5 hPa 0.000 mm
2020-09-30 23:00:00 15.8°C 78% 6.6 km/h 12.1 km/h 138° 1010.4 hPa 0.000 mm
2020-09-30 22:59:00 15.8°C 78% 6.6 km/h 9.0 km/h 97° 1010.5 hPa 0.000 mm
2020-09-30 22:58:00 15.5°C 78% 6.9 km/h 9.5 km/h 134° 1010.5 hPa 0.000 mm
2020-09-30 22:57:00 15.6°C 78% 6.7 km/h 7.4 km/h 136° 1010.4 hPa 0.000 mm
2020-09-30 22:56:00 15.7°C 78% 5.2 km/h 9.0 km/h 116° 1010.4 hPa 0.000 mm
2020-09-30 22:55:00 15.6°C 78% 5.0 km/h 5.8 km/h 108° 1010.4 hPa 0.000 mm
2020-09-30 22:54:00 15.6°C 78% 5.6 km/h 7.9 km/h 150° 1010.3 hPa 0.000 mm
2020-09-30 22:53:00 15.6°C 78% 4.8 km/h 5.8 km/h 129° 1010.4 hPa 0.000 mm
2020-09-30 22:52:00 15.9°C 78% 6.0 km/h 7.4 km/h 124° 1010.4 hPa 0.000 mm
2020-09-30 22:51:00 15.6°C 78% 6.4 km/h 9.5 km/h 114° 1010.4 hPa 0.000 mm
2020-09-30 22:50:00 15.7°C 78% 5.7 km/h 7.4 km/h 122° 1010.5 hPa 0.000 mm
2020-09-30 22:49:00 15.5°C 78% 5.2 km/h 7.9 km/h 96° 1010.5 hPa 0.000 mm
2020-09-30 22:48:00 15.5°C 78% 5.4 km/h 7.9 km/h 136° 1010.4 hPa 0.000 mm
2020-09-30 22:47:00 15.5°C 78% 5.4 km/h 7.4 km/h 114° 1010.5 hPa 0.000 mm
2020-09-30 22:46:00 15.5°C 78% 6.3 km/h 8.4 km/h 144° 1010.5 hPa 0.000 mm
2020-09-30 22:45:00 15.7°C 78% 6.2 km/h 9.0 km/h 105° 1010.5 hPa 0.000 mm
2020-09-30 22:44:00 15.6°C 78% 5.2 km/h 7.9 km/h 127° 1010.5 hPa 0.000 mm
2020-09-30 22:43:00 15.6°C 78% 4.8 km/h 5.8 km/h 109° 1010.6 hPa 0.000 mm
2020-09-30 22:42:00 15.4°C 78% 3.1 km/h 5.3 km/h 147° 1010.6 hPa 0.000 mm
2020-09-30 22:41:00 15.6°C 78% 4.2 km/h 7.9 km/h 122° 1010.6 hPa 0.000 mm
2020-09-30 22:40:00 15.6°C 78% 4.5 km/h 7.4 km/h 129° 1010.6 hPa 0.000 mm
2020-09-30 22:39:00 15.8°C 78% 5.2 km/h 7.4 km/h 95° 1010.6 hPa 0.000 mm
2020-09-30 22:38:00 15.5°C 78% 4.9 km/h 6.3 km/h 120° 1010.6 hPa 0.000 mm
2020-09-30 22:37:00 15.6°C 78% 5.8 km/h 7.9 km/h 144° 1010.6 hPa 0.000 mm
2020-09-30 22:36:00 15.7°C 78% 4.1 km/h 5.8 km/h 118° 1010.5 hPa 0.000 mm
2020-09-30 22:35:00 15.6°C 78% 5.0 km/h 7.4 km/h 129° 1010.6 hPa 0.000 mm
2020-09-30 22:34:00 15.4°C 78% 5.2 km/h 6.9 km/h 162° 1010.6 hPa 0.000 mm
2020-09-30 22:33:00 15.3°C 78% 5.7 km/h 8.4 km/h 146° 1010.6 hPa 0.000 mm
2020-09-30 22:32:00 15.4°C 78% 2.7 km/h 3.2 km/h 160° 1010.6 hPa 0.000 mm
2020-09-30 22:31:00 15.5°C 78% 2.7 km/h 3.7 km/h 117° 1010.6 hPa 0.000 mm
2020-09-30 22:30:00 15.3°C 78% 3.8 km/h 4.8 km/h 146° 1010.6 hPa 0.000 mm
2020-09-30 22:29:00 15.2°C 78% 3.7 km/h 4.8 km/h 110° 1010.6 hPa 0.000 mm
2020-09-30 22:28:00 15.2°C 78% 3.2 km/h 4.8 km/h 120° 1010.6 hPa 0.000 mm
2020-09-30 22:27:00 15.3°C 78% 4.1 km/h 5.8 km/h 165° 1010.5 hPa 0.000 mm
2020-09-30 22:26:00 15.0°C 78% 4.3 km/h 7.4 km/h 133° 1010.6 hPa 0.000 mm
2020-09-30 22:25:00 15.3°C 78% 2.9 km/h 3.7 km/h 98° 1010.5 hPa 0.000 mm
2020-09-30 22:24:00 15.1°C 78% 4.2 km/h 5.8 km/h 170° 1010.6 hPa 0.000 mm
2020-09-30 22:23:00 15.3°C 78% 3.5 km/h 4.2 km/h 186° 1010.6 hPa 0.000 mm
2020-09-30 22:22:00 15.2°C 78% 4.8 km/h 6.9 km/h 160° 1010.6 hPa 0.000 mm
2020-09-30 22:21:00 15.4°C 78% 4.8 km/h 6.3 km/h 159° 1010.6 hPa 0.000 mm
2020-09-30 22:20:00 15.4°C 78% 3.8 km/h 5.3 km/h 133° 1010.5 hPa 0.000 mm
2020-09-30 22:19:00 15.6°C 78% 3.8 km/h 6.3 km/h 111° 1010.5 hPa 0.000 mm
2020-09-30 22:18:00 15.6°C 78% 4.2 km/h 5.8 km/h 111° 1010.6 hPa 0.000 mm
2020-09-30 22:17:00 15.4°C 78% 3.2 km/h 4.2 km/h 133° 1010.5 hPa 0.000 mm
2020-09-30 22:16:00 15.3°C 78% 3.0 km/h 4.2 km/h 147° 1010.5 hPa 0.000 mm
2020-09-30 22:15:00 15.0°C 78% 3.4 km/h 4.2 km/h 115° 1010.5 hPa 0.000 mm
2020-09-30 22:14:00 14.9°C 78% 3.3 km/h 4.8 km/h 144° 1010.5 hPa 0.000 mm
2020-09-30 22:13:00 14.9°C 78% 3.9 km/h 4.8 km/h 140° 1010.5 hPa 0.000 mm
2020-09-30 22:12:00 14.8°C 78% 5.7 km/h 6.3 km/h 170° 1010.6 hPa 0.000 mm
2020-09-30 22:11:00 14.8°C 78% 4.2 km/h 5.8 km/h 141° 1010.6 hPa 0.000 mm
2020-09-30 22:10:00 15.0°C 78% 2.9 km/h 4.8 km/h 151° 1010.6 hPa 0.000 mm
2020-09-30 22:09:00 15.2°C 77% 3.6 km/h 6.9 km/h 151° 1010.6 hPa 0.000 mm
2020-09-30 22:08:00 15.1°C 77% 3.6 km/h 4.2 km/h 176° 1010.6 hPa 0.000 mm
2020-09-30 22:07:00 15.3°C 77% 4.3 km/h 5.3 km/h 127° 1010.6 hPa 0.000 mm
2020-09-30 22:06:00 15.5°C 77% 2.5 km/h 3.7 km/h 143° 1010.6 hPa 0.000 mm
2020-09-30 22:05:00 15.3°C 77% 3.7 km/h 5.3 km/h 131° 1010.6 hPa 0.000 mm
2020-09-30 22:04:00 14.9°C 77% 4.3 km/h 6.3 km/h 125° 1010.5 hPa 0.000 mm
2020-09-30 22:03:00 14.6°C 77% 4.5 km/h 7.4 km/h 136° 1010.6 hPa 0.000 mm
2020-09-30 22:02:00 14.4°C 77% 3.8 km/h 5.3 km/h 126° 1010.6 hPa 0.000 mm
2020-09-30 22:01:00 14.2°C 77% 4.3 km/h 6.3 km/h 136° 1010.5 hPa 0.000 mm
2020-09-30 22:00:00 14.0°C 77% 3.3 km/h 5.3 km/h 155° 1010.5 hPa 0.000 mm
2020-09-30 21:59:00 13.9°C 77% 3.8 km/h 4.8 km/h 169° 1010.6 hPa 0.000 mm
2020-09-30 21:58:00 13.5°C 77% 3.0 km/h 4.2 km/h 127° 1010.6 hPa 0.000 mm
2020-09-30 21:57:00 13.5°C 77% 2.6 km/h 5.3 km/h 143° 1010.5 hPa 0.000 mm
2020-09-30 21:56:00 13.4°C 77% 2.6 km/h 3.2 km/h 110° 1010.6 hPa 0.000 mm
2020-09-30 21:55:00 13.2°C 77% 2.0 km/h 2.6 km/h 110° 1010.6 hPa 0.000 mm
2020-09-30 21:54:00 13.3°C 77% 2.2 km/h 2.6 km/h 128° 1010.6 hPa 0.000 mm
2020-09-30 21:53:00 13.3°C 77% 2.5 km/h 3.2 km/h 123° 1010.6 hPa 0.000 mm
2020-09-30 21:52:00 13.1°C 77% 2.2 km/h 3.2 km/h 134° 1010.6 hPa 0.000 mm
2020-09-30 21:51:00 12.9°C 77% 2.3 km/h 3.2 km/h 145° 1010.6 hPa 0.000 mm
2020-09-30 21:50:00 12.9°C 77% 3.4 km/h 4.8 km/h 165° 1010.6 hPa 0.000 mm
2020-09-30 21:49:00 12.9°C 77% 1.8 km/h 2.6 km/h 156° 1010.6 hPa 0.000 mm
2020-09-30 21:48:00 13.0°C 77% 0.9 km/h 2.1 km/h 140° 1010.6 hPa 0.000 mm
2020-09-30 21:47:00 12.7°C 77% 2.0 km/h 3.7 km/h 161° 1010.6 hPa 0.000 mm
2020-09-30 21:46:00 12.2°C 77% 1.2 km/h 3.2 km/h 77° 1010.7 hPa 0.000 mm
2020-09-30 21:45:00 12.1°C 77% 1.1 km/h 2.6 km/h 92° 1010.8 hPa 0.000 mm
2020-09-30 21:44:00 12.0°C 77% 0.3 km/h 1.6 km/h 173° 1010.8 hPa 0.000 mm
2020-09-30 21:43:00 11.9°C 77% 0.0 km/h 0.5 km/h 126° 1010.9 hPa 0.000 mm
2020-09-30 21:42:00 11.8°C 77% 0.0 km/h 0.0 km/h 117° 1010.9 hPa 0.000 mm
2020-09-30 21:41:00 11.8°C 77% 0.0 km/h 0.5 km/h 126° 1010.9 hPa 0.000 mm
2020-09-30 21:40:00 11.8°C 77% 0.0 km/h 0.0 km/h 126° 1010.9 hPa 0.000 mm
2020-09-30 21:39:00 11.9°C 77% 0.0 km/h 0.0 km/h 117° 1011.0 hPa 0.000 mm
2020-09-30 21:38:00 11.9°C 77% 0.0 km/h 0.0 km/h 135° 1011.0 hPa 0.000 mm
2020-09-30 21:37:00 11.9°C 77% 0.0 km/h 0.0 km/h 99° 1011.0 hPa 0.000 mm
2020-09-30 21:36:00 11.8°C 77% 0.0 km/h 0.0 km/h 72° 1011.0 hPa 0.000 mm
2020-09-30 21:35:00 12.0°C 77% 0.1 km/h 0.5 km/h 117° 1011.0 hPa 0.000 mm
2020-09-30 21:34:00 12.0°C 77% 0.2 km/h 1.1 km/h 144° 1011.0 hPa 0.000 mm
2020-09-30 21:33:00 12.2°C 77% 0.7 km/h 1.1 km/h 108° 1011.0 hPa 0.000 mm
2020-09-30 21:32:00 12.2°C 77% 0.3 km/h 1.1 km/h 108° 1011.0 hPa 0.000 mm
2020-09-30 21:31:00 12.2°C 77% 0.2 km/h 1.1 km/h 108° 1011.0 hPa 0.000 mm
2020-09-30 21:30:00 12.3°C 77% 1.0 km/h 1.6 km/h 144° 1011.1 hPa 0.000 mm
2020-09-30 21:29:00 12.3°C 77% 0.2 km/h 1.1 km/h 126° 1011.1 hPa 0.000 mm
2020-09-30 21:28:00 12.4°C 77% 0.0 km/h 0.0 km/h 99° 1011.1 hPa 0.000 mm
2020-09-30 21:27:00 12.3°C 77% 0.0 km/h 0.5 km/h 126° 1011.1 hPa 0.000 mm
2020-09-30 21:26:00 12.2°C 77% 0.0 km/h 0.0 km/h 108° 1011.1 hPa 0.000 mm
2020-09-30 21:25:00 12.1°C 77% 0.0 km/h 0.0 km/h 90° 1011.1 hPa 0.000 mm
2020-09-30 21:24:00 12.0°C 76% 0.6 km/h 1.1 km/h 117° 1011.1 hPa 0.000 mm
2020-09-30 21:23:00 12.1°C 76% 0.0 km/h 0.5 km/h 126° 1011.1 hPa 0.000 mm
2020-09-30 21:22:00 12.1°C 76% 0.0 km/h 0.0 km/h 108° 1011.1 hPa 0.000 mm
2020-09-30 21:21:00 12.1°C 76% 0.0 km/h 0.0 km/h 135° 1011.1 hPa 0.000 mm
2020-09-30 21:20:00 12.1°C 76% 0.0 km/h 0.0 km/h 126° 1011.1 hPa 0.000 mm
2020-09-30 21:19:00 12.0°C 76% 0.0 km/h 0.0 km/h 108° 1011.1 hPa 0.000 mm
2020-09-30 21:18:00 12.0°C 76% 0.0 km/h 0.0 km/h 90° 1011.1 hPa 0.000 mm
2020-09-30 21:17:00 12.1°C 76% 0.0 km/h 0.0 km/h 153° 1011.1 hPa 0.000 mm
2020-09-30 21:16:00 12.2°C 76% 0.4 km/h 1.6 km/h 117° 1011.1 hPa 0.000 mm
2020-09-30 21:15:00 12.3°C 76% 1.0 km/h 1.6 km/h 135° 1011.1 hPa 0.000 mm
2020-09-30 21:14:00 12.8°C 76% 1.3 km/h 2.1 km/h 167° 1011.1 hPa 0.000 mm
2020-09-30 21:13:00 13.1°C 76% 1.7 km/h 2.1 km/h 99° 1011.1 hPa 0.000 mm
2020-09-30 21:12:00 12.8°C 76% 2.4 km/h 4.2 km/h 126° 1011.0 hPa 0.000 mm
2020-09-30 21:11:00 12.6°C 76% 2.4 km/h 3.2 km/h 90° 1011.0 hPa 0.000 mm
2020-09-30 21:10:00 12.5°C 76% 2.2 km/h 3.7 km/h 126° 1011.0 hPa 0.000 mm
2020-09-30 21:09:00 12.6°C 76% 1.3 km/h 1.6 km/h 90° 1011.0 hPa 0.000 mm
2020-09-30 21:08:00 12.4°C 76% 1.7 km/h 2.6 km/h 99° 1011.0 hPa 0.000 mm
2020-09-30 21:07:00 12.2°C 76% 2.2 km/h 2.6 km/h 117° 1010.9 hPa 0.000 mm
2020-09-30 21:06:00 12.0°C 76% 1.6 km/h 2.6 km/h 108° 1011.0 hPa 0.000 mm
2020-09-30 21:05:00 12.2°C 76% 2.0 km/h 2.6 km/h 126° 1011.0 hPa 0.000 mm
2020-09-30 21:04:00 11.9°C 76% 2.2 km/h 2.6 km/h 153° 1010.9 hPa 0.000 mm
2020-09-30 21:03:00 12.1°C 76% 2.0 km/h 2.6 km/h 135° 1011.0 hPa 0.000 mm
2020-09-30 21:02:00 12.0°C 76% 1.6 km/h 2.1 km/h 99° 1010.9 hPa 0.000 mm
2020-09-30 21:01:00 12.1°C 76% 1.2 km/h 1.6 km/h 117° 1010.9 hPa 0.000 mm
2020-09-30 21:00:00 12.3°C 76% 1.1 km/h 2.1 km/h 117° 1011.0 hPa 0.000 mm
2020-09-30 20:59:00 12.4°C 75% 0.8 km/h 1.6 km/h 117° 1011.0 hPa 0.000 mm
2020-09-30 20:58:00 12.2°C 75% 0.9 km/h 1.6 km/h 117° 1011.0 hPa 0.000 mm
2020-09-30 20:57:00 12.3°C 75% 0.8 km/h 1.6 km/h 108° 1011.0 hPa 0.000 mm
2020-09-30 20:56:00 12.2°C 75% 1.3 km/h 1.6 km/h 135° 1011.0 hPa 0.000 mm
2020-09-30 20:55:00 12.2°C 75% 1.0 km/h 1.6 km/h 117° 1011.0 hPa 0.000 mm
2020-09-30 20:54:00 12.2°C 75% 1.1 km/h 1.6 km/h 108° 1010.9 hPa 0.000 mm
2020-09-30 20:53:00 12.3°C 75% 1.3 km/h 2.1 km/h 99° 1010.9 hPa 0.000 mm
2020-09-30 20:52:00 12.5°C 75% 1.4 km/h 2.1 km/h 117° 1010.9 hPa 0.000 mm
2020-09-30 20:51:00 12.7°C 75% 1.4 km/h 2.1 km/h 135° 1010.9 hPa 0.000 mm
2020-09-30 20:50:00 12.9°C 75% 2.0 km/h 2.6 km/h 106° 1010.9 hPa 0.000 mm
2020-09-30 20:49:00 13.2°C 75% 1.6 km/h 2.1 km/h 110° 1010.8 hPa 0.000 mm
2020-09-30 20:48:00 13.5°C 75% 1.1 km/h 1.6 km/h 115° 1010.8 hPa 0.000 mm
2020-09-30 20:47:00 13.5°C 75% 0.3 km/h 1.1 km/h 135° 1010.9 hPa 0.000 mm
2020-09-30 20:46:00 13.6°C 75% 0.6 km/h 1.1 km/h 122° 1010.8 hPa 0.000 mm
2020-09-30 20:45:00 13.6°C 75% 1.0 km/h 1.6 km/h 122° 1010.8 hPa 0.000 mm
2020-09-30 20:44:00 13.7°C 74% 1.2 km/h 2.1 km/h 122° 1010.9 hPa 0.000 mm
2020-09-30 20:43:00 13.7°C 74% 1.4 km/h 1.6 km/h 115° 1010.9 hPa 0.000 mm
2020-09-30 20:42:00 13.7°C 74% 2.1 km/h 2.6 km/h 108° 1010.9 hPa 0.000 mm
2020-09-30 20:41:00 13.8°C 74% 1.6 km/h 2.1 km/h 122° 1010.9 hPa 0.000 mm
2020-09-30 20:40:00 13.8°C 74% 1.4 km/h 2.1 km/h 122° 1010.9 hPa 0.000 mm
2020-09-30 20:39:00 13.8°C 75% 2.1 km/h 2.6 km/h 101° 1011.0 hPa 0.000 mm
2020-09-30 20:38:00 13.8°C 75% 2.6 km/h 3.7 km/h 122° 1011.0 hPa 0.000 mm
2020-09-30 20:37:00 13.8°C 75% 2.7 km/h 3.7 km/h 128° 1011.0 hPa 0.000 mm
2020-09-30 20:36:00 13.7°C 75% 2.7 km/h 3.7 km/h 109° 1011.1 hPa 0.000 mm
2020-09-30 20:35:00 13.7°C 75% 2.9 km/h 3.2 km/h 115° 1011.0 hPa 0.000 mm
2020-09-30 20:34:00 13.5°C 74% 2.8 km/h 3.7 km/h 135° 1011.0 hPa 0.000 mm
2020-09-30 20:33:00 13.5°C 74% 2.1 km/h 2.6 km/h 137° 1011.0 hPa 0.000 mm
2020-09-30 20:32:00 13.4°C 74% 1.1 km/h 1.6 km/h 72° 1011.0 hPa 0.000 mm
2020-09-30 20:31:00 13.4°C 74% 1.0 km/h 1.6 km/h 99° 1011.0 hPa 0.000 mm
2020-09-30 20:30:00 13.2°C 74% 0.8 km/h 1.1 km/h 81° 1011.0 hPa 0.000 mm
2020-09-30 20:29:00 13.2°C 74% 0.6 km/h 1.6 km/h 126° 1011.0 hPa 0.000 mm
2020-09-30 20:28:00 13.2°C 74% 0.4 km/h 1.1 km/h 108° 1011.0 hPa 0.000 mm
2020-09-30 20:27:00 13.4°C 74% 1.2 km/h 2.1 km/h 108° 1011.1 hPa 0.000 mm
2020-09-30 20:26:00 13.5°C 74% 1.2 km/h 1.6 km/h 135° 1011.1 hPa 0.000 mm
2020-09-30 20:25:00 13.4°C 74% 1.0 km/h 1.6 km/h 126° 1011.0 hPa 0.000 mm
2020-09-30 20:24:00 13.4°C 74% 0.9 km/h 1.1 km/h 99° 1011.0 hPa 0.000 mm
2020-09-30 20:23:00 13.3°C 74% 0.3 km/h 1.1 km/h 45° 1010.9 hPa 0.000 mm
2020-09-30 20:22:00 13.2°C 74% 0.7 km/h 1.1 km/h 117° 1010.9 hPa 0.000 mm
2020-09-30 20:21:00 13.2°C 74% 0.7 km/h 1.6 km/h 108° 1010.9 hPa 0.000 mm
2020-09-30 20:20:00 13.2°C 74% 1.1 km/h 1.6 km/h 126° 1010.9 hPa 0.000 mm
2020-09-30 20:19:00 13.1°C 73% 0.8 km/h 1.6 km/h 108° 1011.0 hPa 0.000 mm
2020-09-30 20:18:00 13.1°C 73% 0.6 km/h 1.1 km/h 108° 1011.0 hPa 0.000 mm
2020-09-30 20:17:00 13.1°C 73% 1.0 km/h 1.6 km/h 108° 1011.0 hPa 0.000 mm
2020-09-30 20:16:00 13.2°C 73% 1.7 km/h 2.1 km/h 99° 1011.1 hPa 0.000 mm
2020-09-30 20:15:00 13.4°C 73% 1.4 km/h 2.1 km/h 99° 1011.1 hPa 0.000 mm
2020-09-30 20:14:00 13.1°C 73% 1.3 km/h 2.1 km/h 108° 1011.1 hPa 0.000 mm
2020-09-30 20:13:00 13.3°C 73% 1.1 km/h 1.6 km/h 108° 1011.1 hPa 0.000 mm
2020-09-30 20:12:00 13.4°C 73% 1.1 km/h 1.6 km/h 144° 1011.1 hPa 0.000 mm
2020-09-30 20:11:00 13.4°C 73% 1.5 km/h 2.1 km/h 117° 1011.0 hPa 0.000 mm
2020-09-30 20:10:00 13.5°C 73% 2.2 km/h 2.6 km/h 113° 1011.0 hPa 0.000 mm
2020-09-30 20:09:00 13.6°C 73% 1.6 km/h 2.1 km/h 108° 1011.0 hPa 0.000 mm
2020-09-30 20:08:00 13.6°C 73% 1.5 km/h 2.1 km/h 99° 1011.1 hPa 0.000 mm
2020-09-30 20:07:00 13.7°C 73% 0.8 km/h 2.1 km/h 99° 1011.0 hPa 0.000 mm
2020-09-30 20:06:00 13.4°C 73% 1.7 km/h 2.1 km/h 99° 1011.0 hPa 0.000 mm
2020-09-30 20:05:00 13.3°C 73% 1.4 km/h 2.1 km/h 135° 1011.0 hPa 0.000 mm
2020-09-30 20:04:00 13.3°C 73% 1.1 km/h 1.6 km/h 108° 1011.0 hPa 0.000 mm
2020-09-30 20:03:00 13.3°C 73% 1.5 km/h 2.1 km/h 117° 1011.1 hPa 0.000 mm
2020-09-30 20:02:00 13.3°C 73% 2.7 km/h 3.7 km/h 126° 1011.1 hPa 0.000 mm
2020-09-30 20:01:00 13.4°C 73% 2.2 km/h 3.2 km/h 92° 1011.1 hPa 0.000 mm
2020-09-30 20:00:00 13.4°C 73% 1.8 km/h 2.6 km/h 135° 1011.1 hPa 0.000 mm
2020-09-30 19:59:00 13.4°C 72% 1.7 km/h 2.1 km/h 144° 1011.1 hPa 0.000 mm
2020-09-30 19:58:00 13.2°C 72% 1.4 km/h 2.1 km/h 126° 1011.1 hPa 0.000 mm
2020-09-30 19:57:00 13.4°C 72% 2.3 km/h 2.6 km/h 138° 1011.1 hPa 0.000 mm
2020-09-30 19:56:00 13.4°C 72% 2.6 km/h 3.2 km/h 154° 1011.1 hPa 0.000 mm
2020-09-30 19:55:00 13.5°C 72% 3.3 km/h 3.7 km/h 180° 1011.1 hPa 0.000 mm
2020-09-30 19:54:00 13.6°C 72% 2.5 km/h 3.7 km/h 108° 1011.1 hPa 0.000 mm
2020-09-30 19:53:00 13.7°C 72% 1.8 km/h 2.1 km/h 108° 1011.1 hPa 0.000 mm
2020-09-30 19:52:00 13.7°C 72% 2.1 km/h 2.6 km/h 108° 1011.1 hPa 0.000 mm
2020-09-30 19:51:00 13.7°C 72% 2.3 km/h 2.6 km/h 117° 1011.1 hPa 0.000 mm
2020-09-30 19:50:00 13.8°C 72% 2.2 km/h 2.6 km/h 126° 1011.1 hPa 0.000 mm
2020-09-30 19:49:00 14.0°C 71% 2.1 km/h 2.6 km/h 117° 1011.0 hPa 0.000 mm
2020-09-30 19:48:00 14.2°C 71% 1.7 km/h 2.1 km/h 126° 1011.1 hPa 0.000 mm
2020-09-30 19:47:00 14.4°C 71% 1.3 km/h 2.1 km/h 117° 1011.0 hPa 0.000 mm
2020-09-30 19:46:00 14.5°C 71% 0.0 km/h 0.0 km/h 126° 1011.0 hPa 0.000 mm
2020-09-30 19:45:00 14.5°C 71% 0.0 km/h 0.0 km/h 108° 1011.0 hPa 0.000 mm
2020-09-30 19:45:00 14.5°C 71% 0.0 km/h 0.0 km/h 108° 1011.0 hPa 0.000 mm
2020-09-30 19:44:00 14.5°C 71% 0.1 km/h 0.5 km/h 117° 1011.0 hPa 0.000 mm
2020-09-30 19:43:00 14.5°C 71% 0.7 km/h 1.1 km/h 108° 1011.0 hPa 0.000 mm
2020-09-30 19:42:00 14.8°C 71% 0.6 km/h 1.1 km/h 99° 1011.0 hPa 0.000 mm
2020-09-30 19:41:00 14.6°C 71% 0.6 km/h 1.1 km/h 99° 1011.0 hPa 0.000 mm
2020-09-30 19:40:00 14.5°C 71% 0.3 km/h 1.1 km/h 126° 1011.0 hPa 0.000 mm
2020-09-30 19:39:00 14.6°C 71% 0.0 km/h 0.0 km/h 135° 1011.0 hPa 0.000 mm
2020-09-30 19:38:00 14.6°C 71% 0.0 km/h 0.0 km/h 117° 1011.0 hPa 0.000 mm
2020-09-30 19:37:00 14.7°C 71% 0.0 km/h 0.0 km/h 153° 1011.0 hPa 0.000 mm
2020-09-30 19:36:00 14.7°C 71% 0.0 km/h 0.0 km/h 126° 1011.0 hPa 0.000 mm
2020-09-30 19:35:00 14.6°C 70% 0.0 km/h 0.0 km/h 99° 1011.0 hPa 0.000 mm
2020-09-30 19:34:00 14.8°C 70% 0.0 km/h 0.0 km/h 99° 1011.0 hPa 0.000 mm
2020-09-30 19:33:00 14.8°C 70% 0.0 km/h 0.0 km/h 126° 1011.0 hPa 0.000 mm
2020-09-30 19:32:00 14.9°C 70% 0.0 km/h 0.0 km/h 117° 1011.0 hPa 0.000 mm
2020-09-30 19:31:00 15.0°C 70% 0.0 km/h 0.0 km/h 126° 1011.0 hPa 0.000 mm
2020-09-30 19:30:00 15.1°C 70% 0.0 km/h 0.0 km/h 144° 1011.1 hPa 0.000 mm
2020-09-30 19:29:00 15.2°C 70% 0.0 km/h 0.0 km/h 135° 1011.1 hPa 0.000 mm
2020-09-30 19:28:00 15.2°C 70% 0.0 km/h 0.0 km/h 108° 1011.1 hPa 0.000 mm
2020-09-30 19:27:00 14.9°C 70% 0.0 km/h 0.0 km/h 135° 1011.1 hPa 0.000 mm
2020-09-30 19:26:00 15.1°C 70% 0.3 km/h 1.1 km/h 117° 1011.1 hPa 0.000 mm
2020-09-30 19:25:00 15.4°C 69% 0.8 km/h 1.1 km/h 117° 1011.1 hPa 0.000 mm
2020-09-30 19:24:00 15.5°C 69% 0.0 km/h 0.0 km/h 90° 1011.2 hPa 0.000 mm
2020-09-30 19:23:00 15.5°C 69% 0.0 km/h 0.0 km/h 126° 1011.1 hPa 0.000 mm
2020-09-30 19:22:00 15.5°C 69% 0.0 km/h 0.0 km/h 135° 1011.1 hPa 0.000 mm
2020-09-30 19:21:00 15.6°C 69% 0.0 km/h 0.0 km/h 126° 1011.1 hPa 0.000 mm
2020-09-30 19:20:00 15.4°C 69% 0.0 km/h 0.0 km/h 90° 1011.1 hPa 0.000 mm
2020-09-30 19:19:00 15.6°C 69% 0.0 km/h 0.0 km/h 90° 1011.1 hPa 0.000 mm
2020-09-30 19:18:00 15.7°C 69% 0.0 km/h 0.0 km/h 153° 1011.0 hPa 0.000 mm
2020-09-30 19:17:00 15.7°C 69% 0.0 km/h 0.0 km/h 144° 1011.0 hPa 0.000 mm
2020-09-30 19:16:00 15.9°C 69% 0.0 km/h 0.0 km/h 126° 1011.0 hPa 0.000 mm
2020-09-30 19:15:00 16.0°C 69% 0.4 km/h 1.6 km/h 108° 1011.0 hPa 0.000 mm
2020-09-30 19:14:00 16.2°C 69% 1.0 km/h 1.6 km/h 108° 1011.1 hPa 0.000 mm
2020-09-30 19:13:00 16.2°C 69% 1.1 km/h 1.6 km/h 81° 1011.1 hPa 0.000 mm
2020-09-30 19:12:00 16.3°C 69% 1.2 km/h 1.6 km/h 81° 1011.1 hPa 0.000 mm
2020-09-30 19:11:00 16.5°C 69% 1.0 km/h 1.6 km/h 117° 1011.1 hPa 0.000 mm
2020-09-30 19:10:00 16.6°C 68% 1.2 km/h 1.6 km/h 99° 1011.1 hPa 0.000 mm
2020-09-30 19:09:00 16.9°C 68% 1.5 km/h 1.6 km/h 117° 1011.1 hPa 0.000 mm
2020-09-30 19:08:00 17.0°C 68% 0.1 km/h 1.1 km/h 81° 1011.1 hPa 0.000 mm
2020-09-30 19:07:00 17.2°C 68% 0.0 km/h 0.0 km/h 108° 1011.0 hPa 0.000 mm
2020-09-30 19:06:00 17.3°C 68% 0.0 km/h 0.0 km/h 45° 1011.0 hPa 0.000 mm
2020-09-30 19:05:00 17.5°C 68% 0.0 km/h 0.0 km/h 108° 1011.1 hPa 0.000 mm
2020-09-30 19:04:00 17.2°C 68% 0.0 km/h 0.0 km/h 108° 1011.1 hPa 0.000 mm
2020-09-30 19:03:00 17.4°C 68% 0.0 km/h 0.0 km/h 95° 1011.1 hPa 0.000 mm
2020-09-30 19:02:00 17.5°C 68% 0.0 km/h 0.0 km/h 95° 1011.0 hPa 0.000 mm
2020-09-30 19:01:00 17.5°C 68% 0.3 km/h 1.1 km/h 115° 1011.1 hPa 0.000 mm
2020-09-30 19:00:00 17.6°C 68% 1.3 km/h 2.1 km/h 108° 1011.1 hPa 0.000 mm
2020-09-30 18:59:00 17.6°C 68% 2.0 km/h 3.2 km/h 122° 1011.1 hPa 0.000 mm
2020-09-30 18:58:00 17.6°C 68% 2.0 km/h 2.6 km/h 115° 1011.1 hPa 0.000 mm
2020-09-30 18:57:00 17.9°C 68% 2.2 km/h 3.2 km/h 115° 1011.1 hPa 0.000 mm
2020-09-30 18:56:00 17.9°C 68% 2.2 km/h 2.6 km/h 128° 1011.1 hPa 0.000 mm
2020-09-30 18:55:00 17.9°C 68% 1.7 km/h 2.6 km/h 101° 1011.1 hPa 0.000 mm
2020-09-30 18:54:00 17.9°C 67% 2.2 km/h 2.6 km/h 98° 1011.1 hPa 0.000 mm
2020-09-30 18:53:00 17.9°C 67% 1.9 km/h 2.6 km/h 108° 1011.1 hPa 0.000 mm
2020-09-30 18:52:00 18.0°C 67% 1.9 km/h 2.6 km/h 108° 1011.1 hPa 0.000 mm
2020-09-30 18:51:00 18.0°C 67% 2.1 km/h 2.6 km/h 116° 1011.1 hPa 0.000 mm
2020-09-30 18:50:00 18.0°C 67% 1.6 km/h 2.1 km/h 82° 1011.1 hPa 0.000 mm
2020-09-30 18:49:00 18.0°C 66% 2.4 km/h 3.7 km/h 89° 1011.1 hPa 0.000 mm
2020-09-30 18:48:00 18.0°C 66% 2.2 km/h 3.7 km/h 78° 1011.1 hPa 0.000 mm
2020-09-30 18:47:00 18.1°C 66% 1.2 km/h 2.6 km/h 77° 1011.1 hPa 0.000 mm
2020-09-30 18:46:00 18.1°C 66% 1.4 km/h 2.1 km/h 66° 1011.1 hPa 0.000 mm
2020-09-30 18:45:00 18.1°C 66% 1.0 km/h 1.6 km/h 74° 1011.2 hPa 0.000 mm
2020-09-30 18:44:00 18.2°C 66% 1.7 km/h 2.6 km/h 89° 1011.1 hPa 0.000 mm
2020-09-30 18:43:00 18.3°C 66% 2.5 km/h 3.2 km/h 83° 1011.2 hPa 0.000 mm
2020-09-30 18:42:00 18.2°C 66% 2.4 km/h 2.6 km/h 69° 1011.2 hPa 0.000 mm
2020-09-30 18:41:00 18.5°C 66% 0.6 km/h 1.6 km/h 56° 1011.2 hPa 0.000 mm
2020-09-30 18:40:00 18.3°C 66% 0.6 km/h 1.6 km/h 104° 1011.2 hPa 0.000 mm
2020-09-30 18:39:00 18.2°C 65% 2.5 km/h 3.7 km/h 54° 1011.2 hPa 0.000 mm
2020-09-30 18:38:00 18.3°C 65% 1.8 km/h 3.2 km/h 50° 1011.2 hPa 0.000 mm
2020-09-30 18:37:00 18.3°C 65% 2.3 km/h 3.2 km/h 82° 1011.1 hPa 0.000 mm
2020-09-30 18:36:00 18.4°C 65% 1.4 km/h 2.1 km/h 59° 1011.1 hPa 0.000 mm
2020-09-30 18:35:00 18.3°C 65% 1.8 km/h 2.6 km/h 54° 1011.1 hPa 0.000 mm
2020-09-30 18:34:00 18.4°C 65% 2.0 km/h 3.2 km/h 50° 1011.1 hPa 0.000 mm
2020-09-30 18:33:00 18.5°C 65% 2.1 km/h 3.2 km/h 56° 1011.1 hPa 0.000 mm
2020-09-30 18:32:00 18.6°C 65% 2.8 km/h 4.2 km/h 45° 1011.1 hPa 0.000 mm
2020-09-30 18:31:00 18.6°C 65% 2.3 km/h 2.6 km/h 50° 1011.1 hPa 0.000 mm
2020-09-30 18:30:00 18.6°C 65% 2.3 km/h 3.2 km/h 33° 1011.1 hPa 0.000 mm
2020-09-30 18:29:00 18.6°C 64% 2.5 km/h 3.2 km/h 48° 1011.1 hPa 0.000 mm
2020-09-30 18:28:00 18.7°C 64% 4.2 km/h 5.3 km/h 43° 1011.1 hPa 0.000 mm
2020-09-30 18:27:00 18.9°C 64% 3.2 km/h 4.2 km/h 47° 1011.1 hPa 0.000 mm
2020-09-30 18:26:00 18.8°C 64% 2.5 km/h 4.2 km/h 39° 1011.1 hPa 0.000 mm
2020-09-30 18:25:00 18.8°C 64% 1.5 km/h 2.6 km/h 68° 1011.1 hPa 0.000 mm
2020-09-30 18:24:00 18.8°C 64% 1.9 km/h 2.6 km/h 91° 1011.1 hPa 0.000 mm
2020-09-30 18:23:00 18.8°C 64% 1.2 km/h 2.1 km/h 59° 1011.1 hPa 0.000 mm
2020-09-30 18:22:00 18.8°C 64% 1.2 km/h 2.1 km/h 43° 1011.1 hPa 0.000 mm
2020-09-30 18:21:00 18.9°C 64% 0.6 km/h 1.1 km/h 69° 1011.1 hPa 0.000 mm
2020-09-30 18:20:00 18.9°C 64% 0.9 km/h 1.6 km/h 90° 1011.1 hPa 0.000 mm
2020-09-30 18:19:00 18.7°C 64% 2.6 km/h 3.7 km/h 47° 1011.1 hPa 0.000 mm
2020-09-30 18:18:00 18.9°C 64% 2.0 km/h 3.2 km/h 70° 1011.1 hPa 0.000 mm
2020-09-30 18:17:00 18.9°C 64% 2.3 km/h 3.7 km/h 90° 1011.1 hPa 0.000 mm
2020-09-30 18:16:00 18.9°C 64% 3.8 km/h 4.8 km/h 77° 1011.1 hPa 0.000 mm
2020-09-30 18:15:00 18.9°C 64% 3.0 km/h 3.7 km/h 75° 1011.1 hPa 0.000 mm
2020-09-30 18:14:00 18.9°C 63% 2.4 km/h 3.2 km/h 77° 1011.1 hPa 0.000 mm
2020-09-30 18:13:00 19.2°C 63% 2.8 km/h 3.2 km/h 79° 1011.1 hPa 0.000 mm
2020-09-30 18:12:00 19.1°C 63% 3.2 km/h 3.7 km/h 87° 1011.1 hPa 0.000 mm
2020-09-30 18:11:00 19.1°C 63% 2.2 km/h 3.7 km/h 81° 1011.1 hPa 0.000 mm
2020-09-30 18:10:00 19.2°C 63% 2.5 km/h 3.2 km/h 105° 1011.1 hPa 0.000 mm
2020-09-30 18:09:00 19.2°C 63% 1.6 km/h 2.1 km/h 84° 1011.1 hPa 0.000 mm
2020-09-30 18:08:00 19.3°C 63% 1.0 km/h 1.6 km/h 106° 1011.0 hPa 0.000 mm
2020-09-30 18:07:00 19.2°C 63% 0.8 km/h 1.6 km/h 107° 1011.0 hPa 0.000 mm
2020-09-30 18:06:00 19.2°C 63% 1.2 km/h 1.6 km/h 96° 1011.0 hPa 0.000 mm
2020-09-30 18:05:00 19.2°C 63% 1.4 km/h 2.1 km/h 82° 1011.0 hPa 0.000 mm
2020-09-30 18:04:00 19.1°C 63% 1.1 km/h 1.6 km/h 38° 1011.0 hPa 0.000 mm
2020-09-30 18:03:00 19.1°C 63% 1.1 km/h 1.6 km/h 50° 1011.0 hPa 0.000 mm
2020-09-30 18:02:00 19.1°C 63% 1.2 km/h 2.1 km/h 75° 1011.0 hPa 0.000 mm
2020-09-30 18:01:00 19.1°C 63% 3.4 km/h 4.8 km/h 72° 1011.0 hPa 0.000 mm
2020-09-30 18:00:00 19.1°C 63% 2.7 km/h 4.2 km/h 91° 1011.0 hPa 0.000 mm
2020-09-30 17:59:00 19.2°C 62% 2.8 km/h 4.2 km/h 86° 1011.0 hPa 0.000 mm
2020-09-30 17:58:00 19.3°C 62% 3.6 km/h 5.3 km/h 83° 1011.0 hPa 0.000 mm
2020-09-30 17:57:00 19.3°C 62% 2.5 km/h 3.7 km/h 74° 1011.0 hPa 0.000 mm
2020-09-30 17:56:00 19.3°C 62% 3.6 km/h 4.8 km/h 83° 1011.0 hPa 0.000 mm
2020-09-30 17:55:00 19.4°C 62% 2.5 km/h 3.7 km/h 73° 1011.1 hPa 0.000 mm
2020-09-30 17:54:00 19.5°C 62% 2.5 km/h 3.7 km/h 72° 1011.1 hPa 0.000 mm
2020-09-30 17:53:00 19.5°C 62% 3.6 km/h 4.2 km/h 97° 1011.0 hPa 0.000 mm
2020-09-30 17:52:00 19.6°C 62% 2.8 km/h 4.2 km/h 105° 1011.0 hPa 0.000 mm
2020-09-30 17:51:00 19.5°C 62% 2.1 km/h 2.6 km/h 90° 1011.0 hPa 0.000 mm
2020-09-30 17:50:00 19.5°C 62% 2.7 km/h 3.2 km/h 107° 1011.1 hPa 0.000 mm
2020-09-30 17:49:00 19.5°C 61% 0.9 km/h 2.1 km/h 90° 1011.1 hPa 0.000 mm
2020-09-30 17:48:00 19.5°C 61% 0.9 km/h 1.6 km/h 113° 1011.1 hPa 0.000 mm
2020-09-30 17:47:00 19.5°C 61% 1.2 km/h 2.1 km/h 83° 1011.1 hPa 0.000 mm
2020-09-30 17:46:00 19.5°C 61% 1.7 km/h 2.6 km/h 117° 1011.1 hPa 0.000 mm
2020-09-30 17:45:00 19.5°C 61% 1.4 km/h 2.1 km/h 113° 1011.1 hPa 0.000 mm
2020-09-30 17:44:00 19.4°C 60% 1.6 km/h 3.2 km/h 104° 1011.1 hPa 0.000 mm
2020-09-30 17:43:00 19.3°C 60% 2.7 km/h 3.7 km/h 56° 1011.1 hPa 0.000 mm
2020-09-30 17:42:00 19.4°C 60% 3.4 km/h 4.8 km/h 51° 1011.1 hPa 0.000 mm
2020-09-30 17:41:00 19.4°C 60% 2.8 km/h 4.8 km/h 74° 1011.1 hPa 0.000 mm
2020-09-30 17:40:00 19.6°C 60% 2.6 km/h 4.2 km/h 72° 1011.1 hPa 0.000 mm
2020-09-30 17:39:00 19.4°C 60% 2.6 km/h 4.2 km/h 60° 1011.1 hPa 0.000 mm
2020-09-30 17:38:00 19.2°C 60% 2.2 km/h 3.7 km/h 69° 1011.2 hPa 0.000 mm
2020-09-30 17:37:00 19.3°C 60% 2.4 km/h 3.7 km/h 108° 1011.2 hPa 0.000 mm
2020-09-30 17:36:00 19.4°C 60% 3.4 km/h 4.8 km/h 84° 1011.2 hPa 0.000 mm
2020-09-30 17:35:00 19.4°C 60% 4.5 km/h 5.8 km/h 105° 1011.2 hPa 0.000 mm
2020-09-30 17:34:00 19.4°C 60% 2.6 km/h 4.2 km/h 87° 1011.3 hPa 0.000 mm
2020-09-30 17:33:00 19.4°C 60% 2.7 km/h 3.2 km/h 59° 1011.3 hPa 0.000 mm
2020-09-30 17:32:00 19.4°C 60% 2.7 km/h 3.7 km/h 74° 1011.3 hPa 0.000 mm
2020-09-30 17:31:00 19.5°C 60% 3.8 km/h 4.2 km/h 78° 1011.4 hPa 0.000 mm
2020-09-30 17:30:00 19.5°C 60% 2.8 km/h 3.7 km/h 73° 1011.4 hPa 0.000 mm
2020-09-30 17:29:00 19.6°C 60% 2.4 km/h 3.7 km/h 118° 1011.4 hPa 0.000 mm
2020-09-30 17:28:00 19.5°C 60% 1.1 km/h 2.1 km/h 135° 1011.5 hPa 0.000 mm
2020-09-30 17:27:00 19.5°C 60% 1.2 km/h 2.1 km/h 117° 1011.5 hPa 0.000 mm
2020-09-30 17:26:00 19.6°C 60% 1.5 km/h 2.1 km/h 131° 1011.5 hPa 0.000 mm
2020-09-30 17:25:00 19.7°C 60% 1.6 km/h 3.2 km/h 123° 1011.5 hPa 0.000 mm
2020-09-30 17:24:00 19.6°C 60% 3.8 km/h 5.8 km/h 105° 1011.5 hPa 0.000 mm
2020-09-30 17:23:00 19.7°C 60% 3.5 km/h 4.2 km/h 107° 1011.5 hPa 0.000 mm
2020-09-30 17:22:00 19.8°C 60% 2.9 km/h 3.7 km/h 110° 1011.5 hPa 0.000 mm
2020-09-30 17:21:00 19.8°C 60% 1.8 km/h 2.1 km/h 77° 1011.5 hPa 0.000 mm
2020-09-30 17:20:00 19.8°C 60% 2.6 km/h 4.2 km/h 55° 1011.5 hPa 0.000 mm
2020-09-30 17:19:00 19.7°C 59% 1.8 km/h 3.2 km/h 122° 1011.5 hPa 0.000 mm
2020-09-30 17:18:00 20.0°C 59% 1.5 km/h 2.6 km/h 114° 1011.5 hPa 0.000 mm
2020-09-30 17:17:00 19.6°C 59% 1.4 km/h 2.1 km/h 125° 1011.5 hPa 0.000 mm
2020-09-30 17:16:00 19.6°C 59% 2.1 km/h 2.6 km/h 95° 1011.5 hPa 0.000 mm
2020-09-30 17:15:00 19.6°C 59% 1.4 km/h 2.6 km/h 59° 1011.5 hPa 0.000 mm
2020-09-30 17:14:00 19.4°C 59% 2.0 km/h 3.2 km/h 110° 1011.5 hPa 0.000 mm
2020-09-30 17:13:00 19.7°C 59% 2.8 km/h 3.7 km/h 41° 1011.5 hPa 0.000 mm
2020-09-30 17:12:00 19.6°C 59% 2.3 km/h 4.2 km/h 70° 1011.5 hPa 0.000 mm
2020-09-30 17:11:00 19.5°C 59% 1.6 km/h 4.2 km/h 134° 1011.5 hPa 0.000 mm
2020-09-30 17:10:00 19.7°C 59% 1.7 km/h 2.6 km/h 53° 1011.5 hPa 0.000 mm
2020-09-30 17:09:00 19.4°C 59% 0.1 km/h 0.5 km/h 162° 1011.5 hPa 0.000 mm
2020-09-30 17:08:00 19.3°C 59% 0.9 km/h 2.6 km/h 89° 1011.5 hPa 0.000 mm
2020-09-30 17:07:00 19.3°C 59% 2.6 km/h 4.8 km/h 47° 1011.5 hPa 0.000 mm
2020-09-30 17:06:00 19.4°C 59% 3.0 km/h 4.8 km/h 38° 1011.5 hPa 0.000 mm
2020-09-30 17:05:00 19.5°C 59% 4.2 km/h 5.3 km/h 39° 1011.5 hPa 0.000 mm
2020-09-30 17:04:00 19.6°C 59% 3.8 km/h 5.3 km/h 64° 1011.6 hPa 0.000 mm
2020-09-30 17:03:00 19.6°C 59% 3.5 km/h 4.2 km/h 86° 1011.6 hPa 0.000 mm
2020-09-30 17:02:00 19.6°C 59% 3.6 km/h 5.3 km/h 78° 1011.6 hPa 0.000 mm
2020-09-30 17:01:00 19.7°C 59% 4.5 km/h 5.8 km/h 100° 1011.6 hPa 0.000 mm
2020-09-30 17:00:00 19.5°C 59% 3.0 km/h 4.8 km/h 79° 1011.6 hPa 0.000 mm
2020-09-30 16:59:00 19.7°C 59% 3.3 km/h 4.8 km/h 43° 1011.6 hPa 0.000 mm
2020-09-30 16:58:00 19.6°C 59% 1.1 km/h 1.6 km/h 71° 1011.6 hPa 0.000 mm
2020-09-30 16:57:00 19.4°C 59% 2.5 km/h 4.2 km/h 122° 1011.6 hPa 0.000 mm
2020-09-30 16:56:00 19.4°C 59% 2.5 km/h 3.7 km/h 136° 1011.6 hPa 0.000 mm
2020-09-30 16:55:00 19.5°C 59% 2.5 km/h 4.2 km/h 87° 1011.6 hPa 0.000 mm
2020-09-30 16:54:00 19.4°C 59% 1.7 km/h 2.6 km/h 77° 1011.7 hPa 0.000 mm
2020-09-30 16:53:00 19.3°C 59% 2.6 km/h 4.2 km/h 82° 1011.6 hPa 0.000 mm
2020-09-30 16:52:00 19.3°C 59% 3.4 km/h 5.3 km/h 34° 1011.6 hPa 0.000 mm
2020-09-30 16:51:00 19.2°C 59% 2.4 km/h 4.2 km/h 51° 1011.6 hPa 0.000 mm
2020-09-30 16:50:00 19.3°C 59% 1.9 km/h 3.2 km/h 36° 1011.6 hPa 0.000 mm
2020-09-30 16:49:00 19.5°C 59% 2.6 km/h 3.7 km/h 15° 1011.6 hPa 0.000 mm
2020-09-30 16:48:00 19.5°C 59% 3.6 km/h 5.3 km/h 24° 1011.6 hPa 0.000 mm
2020-09-30 16:47:00 19.7°C 59% 2.6 km/h 4.2 km/h 59° 1011.6 hPa 0.000 mm
2020-09-30 16:46:00 19.6°C 59% 3.0 km/h 4.8 km/h 41° 1011.6 hPa 0.000 mm
2020-09-30 16:45:00 19.6°C 59% 2.7 km/h 4.2 km/h 48° 1011.6 hPa 0.000 mm
2020-09-30 16:44:00 19.7°C 59% 3.1 km/h 4.2 km/h 77° 1011.7 hPa 0.000 mm
2020-09-30 16:43:00 19.7°C 59% 3.7 km/h 5.3 km/h 63° 1011.6 hPa 0.000 mm
2020-09-30 16:42:00 19.5°C 59% 2.8 km/h 4.2 km/h 28° 1011.6 hPa 0.000 mm
2020-09-30 16:41:00 19.5°C 59% 1.9 km/h 2.6 km/h 65° 1011.6 hPa 0.000 mm
2020-09-30 16:40:00 19.7°C 59% 2.7 km/h 4.2 km/h 68° 1011.7 hPa 0.000 mm
2020-09-30 16:39:00 19.4°C 59% 2.5 km/h 3.7 km/h 70° 1011.7 hPa 0.000 mm
2020-09-30 16:38:00 19.5°C 59% 2.8 km/h 4.2 km/h 68° 1011.7 hPa 0.000 mm
2020-09-30 16:37:00 19.4°C 59% 3.2 km/h 4.8 km/h 41° 1011.7 hPa 0.000 mm
2020-09-30 16:36:00 19.3°C 59% 2.1 km/h 3.7 km/h 47° 1011.7 hPa 0.000 mm
2020-09-30 16:35:00 19.3°C 59% 2.5 km/h 3.2 km/h 71° 1011.8 hPa 0.000 mm
2020-09-30 16:34:00 19.3°C 59% 4.0 km/h 4.8 km/h 92° 1011.8 hPa 0.000 mm
2020-09-30 16:33:00 19.4°C 59% 3.9 km/h 4.8 km/h 108° 1011.8 hPa 0.000 mm
2020-09-30 16:32:00 19.5°C 59% 4.0 km/h 5.3 km/h 109° 1011.8 hPa 0.000 mm
2020-09-30 16:31:00 19.5°C 59% 3.6 km/h 5.3 km/h 59° 1011.8 hPa 0.000 mm
2020-09-30 16:30:00 19.7°C 59% 2.1 km/h 3.2 km/h 81° 1011.8 hPa 0.000 mm
2020-09-30 16:29:00 19.6°C 60% 4.6 km/h 5.8 km/h 38° 1011.8 hPa 0.000 mm
2020-09-30 16:28:00 19.5°C 60% 2.7 km/h 3.7 km/h 68° 1011.8 hPa 0.000 mm
2020-09-30 16:27:00 19.5°C 60% 4.1 km/h 4.8 km/h 91° 1011.8 hPa 0.000 mm
2020-09-30 16:26:00 19.6°C 60% 2.8 km/h 4.2 km/h 73° 1011.8 hPa 0.000 mm
2020-09-30 16:25:00 19.7°C 60% 4.6 km/h 5.3 km/h 72° 1011.8 hPa 0.000 mm
2020-09-30 16:24:00 19.7°C 60% 2.4 km/h 3.7 km/h 90° 1011.8 hPa 0.000 mm
2020-09-30 16:23:00 19.8°C 60% 2.2 km/h 3.2 km/h 70° 1011.8 hPa 0.000 mm
2020-09-30 16:22:00 19.7°C 60% 2.1 km/h 3.2 km/h 97° 1011.7 hPa 0.000 mm
2020-09-30 16:21:00 19.7°C 60% 3.6 km/h 4.2 km/h 89° 1011.8 hPa 0.000 mm
2020-09-30 16:20:00 19.6°C 60% 1.8 km/h 4.2 km/h 98° 1011.8 hPa 0.000 mm
2020-09-30 16:19:00 19.5°C 60% 0.2 km/h 1.1 km/h 82° 1011.8 hPa 0.000 mm
2020-09-30 16:18:00 19.4°C 60% 1.3 km/h 4.2 km/h 1011.8 hPa 0.000 mm
2020-09-30 16:17:00 19.4°C 60% 3.6 km/h 4.8 km/h 1011.9 hPa 0.000 mm
2020-09-30 16:16:00 19.2°C 60% 3.0 km/h 4.2 km/h 18° 1012.0 hPa 0.000 mm
2020-09-30 16:15:00 19.2°C 60% 2.9 km/h 4.2 km/h 35° 1012.1 hPa 0.000 mm
2020-09-30 16:14:00 19.1°C 60% 2.7 km/h 4.2 km/h 21° 1012.0 hPa 0.000 mm
2020-09-30 16:13:00 19.1°C 60% 2.2 km/h 3.2 km/h 37° 1012.0 hPa 0.000 mm
2020-09-30 16:12:00 19.1°C 60% 1.1 km/h 1.6 km/h 178° 1012.0 hPa 0.000 mm
2020-09-30 16:11:00 19.2°C 60% 2.5 km/h 4.2 km/h 1012.1 hPa 0.000 mm
2020-09-30 16:10:00 19.3°C 60% 4.3 km/h 5.3 km/h 24° 1012.1 hPa 0.000 mm
2020-09-30 16:09:00 19.4°C 60% 1.8 km/h 4.8 km/h 69° 1012.1 hPa 0.000 mm
2020-09-30 16:08:00 19.2°C 60% 2.3 km/h 3.2 km/h 79° 1012.1 hPa 0.000 mm
2020-09-30 16:07:00 19.3°C 60% 3.3 km/h 5.3 km/h 38° 1012.1 hPa 0.000 mm
2020-09-30 16:06:00 19.3°C 60% 2.2 km/h 3.2 km/h 38° 1012.1 hPa 0.000 mm
2020-09-30 16:05:00 19.3°C 60% 4.1 km/h 4.8 km/h 28° 1012.1 hPa 0.000 mm
2020-09-30 16:04:00 19.3°C 61% 3.2 km/h 4.8 km/h 53° 1012.1 hPa 0.000 mm
2020-09-30 16:03:00 19.3°C 61% 2.8 km/h 4.8 km/h 65° 1012.1 hPa 0.000 mm
2020-09-30 16:02:00 19.4°C 61% 2.2 km/h 3.7 km/h 123° 1012.1 hPa 0.000 mm
2020-09-30 16:01:00 19.6°C 61% 1.8 km/h 3.2 km/h 109° 1012.2 hPa 0.000 mm
2020-09-30 16:00:00 20.1°C 61% 4.4 km/h 5.8 km/h 122° 1012.2 hPa 0.000 mm
2020-09-30 15:59:00 20.2°C 61% 2.4 km/h 3.7 km/h 111° 1012.2 hPa 0.000 mm
2020-09-30 15:58:00 20.1°C 61% 1.1 km/h 1.6 km/h 115° 1012.2 hPa 0.000 mm
2020-09-30 15:57:00 20.0°C 61% 0.8 km/h 1.6 km/h 115° 1012.2 hPa 0.000 mm
2020-09-30 15:56:00 20.0°C 61% 1.5 km/h 2.6 km/h 89° 1012.2 hPa 0.000 mm
2020-09-30 15:55:00 20.0°C 61% 1.6 km/h 3.7 km/h 86° 1012.2 hPa 0.000 mm
2020-09-30 15:54:00 20.2°C 61% 1.9 km/h 3.2 km/h 33° 1012.3 hPa 0.000 mm
2020-09-30 15:53:00 20.6°C 61% 1.6 km/h 3.2 km/h 29° 1012.3 hPa 0.000 mm
2020-09-30 15:52:00 20.2°C 61% 1.9 km/h 3.2 km/h 25° 1012.3 hPa 0.000 mm
2020-09-30 15:51:00 19.9°C 61% 3.7 km/h 5.3 km/h 34° 1012.3 hPa 0.000 mm
2020-09-30 15:50:00 19.7°C 61% 2.6 km/h 5.8 km/h 63° 1012.3 hPa 0.000 mm
2020-09-30 15:49:00 19.8°C 62% 1.0 km/h 1.6 km/h 65° 1012.3 hPa 0.000 mm
2020-09-30 15:48:00 20.0°C 62% 2.4 km/h 3.7 km/h 30° 1012.4 hPa 0.000 mm
2020-09-30 15:47:00 20.2°C 62% 1.7 km/h 2.6 km/h 54° 1012.4 hPa 0.000 mm
2020-09-30 15:46:00 20.1°C 62% 0.6 km/h 1.6 km/h 137° 1012.4 hPa 0.000 mm
2020-09-30 15:45:00 19.8°C 62% 1.0 km/h 1.6 km/h 123° 1012.4 hPa 0.000 mm
2020-09-30 15:44:00 19.7°C 62% 0.3 km/h 1.1 km/h 72° 1012.4 hPa 0.000 mm
2020-09-30 15:43:00 19.5°C 62% 0.6 km/h 1.1 km/h 109° 1012.4 hPa 0.000 mm
2020-09-30 15:42:00 19.4°C 62% 1.1 km/h 2.1 km/h 124° 1012.5 hPa 0.000 mm
2020-09-30 15:41:00 19.4°C 62% 0.9 km/h 2.1 km/h 56° 1012.5 hPa 0.000 mm
2020-09-30 15:40:00 19.3°C 62% 2.4 km/h 3.2 km/h 50° 1012.5 hPa 0.000 mm
2020-09-30 15:39:00 19.6°C 62% 2.7 km/h 4.2 km/h 77° 1012.5 hPa 0.000 mm
2020-09-30 15:38:00 19.4°C 62% 3.3 km/h 4.2 km/h 56° 1012.5 hPa 0.000 mm
2020-09-30 15:37:00 19.5°C 62% 4.3 km/h 5.8 km/h 86° 1012.5 hPa 0.000 mm
2020-09-30 15:36:00 19.5°C 62% 3.4 km/h 5.3 km/h 62° 1012.5 hPa 0.000 mm
2020-09-30 15:35:00 19.3°C 62% 1.7 km/h 2.6 km/h 48° 1012.6 hPa 0.000 mm
2020-09-30 15:34:00 19.1°C 63% 0.0 km/h 0.5 km/h 126° 1012.6 hPa 0.000 mm
2020-09-30 15:33:00 19.2°C 63% 0.6 km/h 1.6 km/h 71° 1012.6 hPa 0.000 mm
2020-09-30 15:32:00 19.5°C 63% 1.8 km/h 3.2 km/h 29° 1012.6 hPa 0.000 mm
2020-09-30 15:31:00 19.4°C 63% 1.7 km/h 3.2 km/h 21° 1012.6 hPa 0.000 mm
2020-09-30 15:30:00 19.6°C 63% 1.9 km/h 3.7 km/h 61° 1012.6 hPa 0.000 mm
2020-09-30 15:29:00 19.6°C 63% 3.2 km/h 5.3 km/h 54° 1012.6 hPa 0.000 mm
2020-09-30 15:28:00 19.5°C 63% 1.3 km/h 2.6 km/h 69° 1012.6 hPa 0.000 mm
2020-09-30 15:27:00 19.4°C 63% 1.0 km/h 1.6 km/h 87° 1012.6 hPa 0.000 mm
2020-09-30 15:26:00 19.5°C 63% 3.7 km/h 5.8 km/h 29° 1012.6 hPa 0.000 mm
2020-09-30 15:25:00 19.5°C 63% 2.7 km/h 5.3 km/h 17° 1012.6 hPa 0.000 mm
2020-09-30 15:24:00 19.3°C 64% 2.4 km/h 3.7 km/h 30° 1012.7 hPa 0.000 mm
2020-09-30 15:23:00 19.3°C 64% 3.0 km/h 5.8 km/h 14° 1012.7 hPa 0.000 mm
2020-09-30 15:22:00 19.2°C 64% 1.7 km/h 2.6 km/h 68° 1012.7 hPa 0.000 mm
2020-09-30 15:21:00 19.5°C 64% 1.5 km/h 2.1 km/h 82° 1012.8 hPa 0.000 mm
2020-09-30 15:20:00 19.4°C 64% 1.7 km/h 2.6 km/h 16° 1012.8 hPa 0.000 mm
2020-09-30 15:19:00 19.4°C 64% 3.8 km/h 5.8 km/h 145° 1012.8 hPa 0.000 mm
2020-09-30 15:18:00 19.5°C 64% 6.2 km/h 7.9 km/h 270° 1012.8 hPa 0.000 mm
2020-09-30 15:17:00 19.5°C 64% 6.5 km/h 7.4 km/h 236° 1012.8 hPa 0.000 mm
2020-09-30 15:16:00 19.5°C 64% 5.4 km/h 7.4 km/h 191° 1012.8 hPa 0.000 mm
2020-09-30 15:15:00 19.5°C 64% 4.8 km/h 6.9 km/h 152° 1012.8 hPa 0.000 mm
2020-09-30 15:14:00 19.1°C 65% 4.9 km/h 6.3 km/h 255° 1012.8 hPa 0.000 mm
2020-09-30 15:13:00 19.2°C 65% 4.3 km/h 5.3 km/h 80° 1012.8 hPa 0.000 mm
2020-09-30 15:12:00 19.3°C 65% 4.5 km/h 5.8 km/h 64° 1012.8 hPa 0.000 mm
2020-09-30 15:11:00 19.1°C 65% 2.4 km/h 4.8 km/h 57° 1012.8 hPa 0.000 mm
2020-09-30 15:10:00 19.5°C 65% 2.3 km/h 4.2 km/h 55° 1012.8 hPa 0.000 mm
2020-09-30 15:09:00 19.6°C 65% 4.7 km/h 6.3 km/h 99° 1012.8 hPa 0.000 mm
2020-09-30 15:08:00 19.5°C 65% 5.1 km/h 6.3 km/h 190° 1012.8 hPa 0.000 mm
2020-09-30 15:07:00 19.7°C 65% 4.9 km/h 6.3 km/h 128° 1012.8 hPa 0.000 mm
2020-09-30 15:06:00 20.1°C 65% 5.3 km/h 7.4 km/h 14° 1012.9 hPa 0.000 mm
2020-09-30 15:05:00 20.4°C 65% 4.3 km/h 5.8 km/h 47° 1012.9 hPa 0.000 mm
2020-09-30 15:04:00 20.4°C 66% 2.9 km/h 5.8 km/h 188° 1012.9 hPa 0.000 mm
2020-09-30 15:03:00 20.2°C 66% 1.6 km/h 2.6 km/h 205° 1012.9 hPa 0.000 mm
2020-09-30 15:02:00 20.1°C 66% 2.8 km/h 3.7 km/h 249° 1012.9 hPa 0.000 mm
2020-09-30 15:01:00 20.2°C 66% 2.0 km/h 3.2 km/h 96° 1012.9 hPa 0.000 mm
2020-09-30 15:00:00 20.4°C 66% 2.6 km/h 3.7 km/h 127° 1012.9 hPa 0.000 mm
2020-09-30 14:59:00 20.5°C 66% 2.3 km/h 3.2 km/h 159° 1013.0 hPa 0.000 mm
2020-09-30 14:58:00 20.5°C 66% 2.1 km/h 3.2 km/h 95° 1013.0 hPa 0.000 mm
2020-09-30 14:57:00 20.7°C 66% 2.0 km/h 3.7 km/h 34° 1013.0 hPa 0.000 mm
2020-09-30 14:56:00 21.0°C 66% 2.5 km/h 3.7 km/h 46° 1013.0 hPa 0.000 mm
2020-09-30 14:55:00 20.6°C 66% 1.8 km/h 2.6 km/h 28° 1013.0 hPa 0.000 mm
2020-09-30 14:54:00 20.4°C 67% 1.7 km/h 2.6 km/h 52° 1013.0 hPa 0.000 mm
2020-09-30 14:53:00 20.2°C 67% 1.6 km/h 2.1 km/h 47° 1013.0 hPa 0.000 mm
2020-09-30 14:52:00 20.1°C 67% 1.9 km/h 3.2 km/h 82° 1013.0 hPa 0.000 mm
2020-09-30 14:51:00 20.3°C 67% 1.0 km/h 2.1 km/h 124° 1013.1 hPa 0.000 mm
2020-09-30 14:50:00 20.1°C 67% 1.6 km/h 2.6 km/h 188° 1013.0 hPa 0.000 mm
2020-09-30 14:49:00 19.9°C 67% 2.2 km/h 3.7 km/h 221° 1013.1 hPa 0.000 mm
2020-09-30 14:48:00 19.6°C 67% 2.0 km/h 2.6 km/h 286° 1013.1 hPa 0.000 mm
2020-09-30 14:47:00 19.8°C 67% 2.5 km/h 4.2 km/h 218° 1013.1 hPa 0.000 mm
2020-09-30 14:46:00 19.2°C 67% 0.8 km/h 2.1 km/h 234° 1013.1 hPa 0.000 mm
2020-09-30 14:45:00 18.9°C 67% 0.6 km/h 1.6 km/h 137° 1013.1 hPa 0.000 mm
2020-09-30 14:44:00 18.8°C 68% 1.8 km/h 3.2 km/h 219° 1013.1 hPa 0.000 mm
2020-09-30 14:43:00 18.8°C 68% 2.7 km/h 3.7 km/h 158° 1013.0 hPa 0.000 mm
2020-09-30 14:42:00 18.9°C 68% 3.3 km/h 4.2 km/h 126° 1013.1 hPa 0.000 mm
2020-09-30 14:41:00 19.1°C 68% 3.8 km/h 4.8 km/h 114° 1013.1 hPa 0.000 mm
2020-09-30 14:40:00 19.3°C 68% 3.6 km/h 4.8 km/h 161° 1013.0 hPa 0.000 mm
2020-09-30 14:39:00 19.4°C 68% 2.8 km/h 4.2 km/h 174° 1013.1 hPa 0.000 mm
2020-09-30 14:38:00 18.9°C 68% 0.7 km/h 2.1 km/h 99° 1013.1 hPa 0.000 mm
2020-09-30 14:37:00 19.1°C 68% 3.1 km/h 4.8 km/h 122° 1013.1 hPa 0.000 mm
2020-09-30 14:36:00 19.3°C 68% 2.5 km/h 5.8 km/h 137° 1013.0 hPa 0.000 mm
2020-09-30 14:35:00 19.0°C 68% 1.2 km/h 2.6 km/h 197° 1013.0 hPa 0.000 mm
2020-09-30 14:34:00 19.0°C 69% 3.0 km/h 4.8 km/h 137° 1013.0 hPa 0.000 mm
2020-09-30 14:33:00 19.5°C 69% 2.0 km/h 3.2 km/h 147° 1013.0 hPa 0.000 mm
2020-09-30 14:32:00 19.3°C 69% 0.8 km/h 1.6 km/h 43° 1013.1 hPa 0.000 mm
2020-09-30 14:31:00 19.2°C 69% 2.1 km/h 3.2 km/h 80° 1013.1 hPa 0.000 mm
2020-09-30 14:30:00 18.9°C 69% 2.7 km/h 4.8 km/h 87° 1013.1 hPa 0.000 mm
2020-09-30 14:29:00 18.9°C 69% 2.4 km/h 4.8 km/h 50° 1013.2 hPa 0.000 mm
2020-09-30 14:28:00 18.8°C 69% 3.5 km/h 4.8 km/h 1013.3 hPa 0.000 mm
2020-09-30 14:27:00 18.7°C 69% 3.1 km/h 5.8 km/h 38° 1013.4 hPa 0.000 mm
2020-09-30 14:26:00 18.5°C 69% 1.8 km/h 3.2 km/h 36° 1013.4 hPa 0.000 mm
2020-09-30 14:25:00 18.5°C 69% 1.8 km/h 2.6 km/h 183° 1013.4 hPa 0.000 mm
2020-09-30 14:24:00 19.1°C 70% 3.6 km/h 5.3 km/h 11° 1013.4 hPa 0.000 mm
2020-09-30 14:23:00 19.2°C 70% 5.4 km/h 6.9 km/h 15° 1013.4 hPa 0.000 mm
2020-09-30 14:22:00 19.1°C 70% 2.2 km/h 3.7 km/h 56° 1013.4 hPa 0.000 mm
2020-09-30 14:21:00 18.9°C 70% 2.8 km/h 4.2 km/h 51° 1013.5 hPa 0.000 mm
2020-09-30 14:20:00 18.9°C 70% 2.3 km/h 3.2 km/h 33° 1013.5 hPa 0.000 mm
2020-09-30 14:19:00 18.6°C 70% 1.0 km/h 1.6 km/h 61° 1013.5 hPa 0.000 mm
2020-09-30 14:18:00 18.5°C 70% 0.1 km/h 0.5 km/h 170° 1013.5 hPa 0.000 mm
2020-09-30 14:17:00 18.7°C 70% 1.4 km/h 3.2 km/h 1013.6 hPa 0.000 mm
2020-09-30 14:16:00 18.8°C 70% 3.0 km/h 4.8 km/h 24° 1013.5 hPa 0.000 mm
2020-09-30 14:15:00 19.0°C 70% 3.4 km/h 5.3 km/h 55° 1013.6 hPa 0.000 mm
2020-09-30 14:14:00 19.1°C 71% 1.8 km/h 4.2 km/h 128° 1013.6 hPa 0.000 mm
2020-09-30 14:13:00 19.5°C 71% 1.2 km/h 2.1 km/h 158° 1013.6 hPa 0.000 mm
2020-09-30 14:12:00 19.7°C 71% 1.2 km/h 2.1 km/h 105° 1013.6 hPa 0.000 mm
2020-09-30 14:11:00 19.6°C 71% 3.5 km/h 5.3 km/h 108° 1013.6 hPa 0.000 mm
2020-09-30 14:10:00 19.5°C 71% 1.6 km/h 2.6 km/h 127° 1013.7 hPa 0.000 mm
2020-09-30 14:09:00 19.6°C 71% 1.8 km/h 2.6 km/h 117° 1013.7 hPa 0.000 mm
2020-09-30 14:08:00 19.3°C 71% 1.1 km/h 2.1 km/h 113° 1013.7 hPa 0.000 mm
2020-09-30 14:07:00 19.4°C 71% 1.0 km/h 2.1 km/h 66° 1013.7 hPa 0.000 mm
2020-09-30 14:06:00 19.2°C 71% 2.1 km/h 4.2 km/h 122° 1013.8 hPa 0.000 mm
2020-09-30 14:05:00 18.9°C 71% 1.0 km/h 1.6 km/h 97° 1013.8 hPa 0.000 mm
2020-09-30 14:04:00 18.7°C 72% 0.7 km/h 1.6 km/h 82° 1013.8 hPa 0.000 mm
2020-09-30 14:03:00 18.6°C 72% 1.0 km/h 1.6 km/h 153° 1013.8 hPa 0.000 mm
2020-09-30 14:02:00 18.6°C 72% 2.2 km/h 2.6 km/h 38° 1013.9 hPa 0.000 mm
2020-09-30 14:01:00 18.7°C 72% 2.2 km/h 3.7 km/h 37° 1013.9 hPa 0.000 mm
2020-09-30 14:00:00 18.5°C 72% 2.5 km/h 3.7 km/h 51° 1013.9 hPa 0.000 mm
2020-09-30 13:59:00 18.9°C 72% 1.8 km/h 3.2 km/h 70° 1013.9 hPa 0.000 mm
2020-09-30 13:58:00 19.2°C 72% 2.2 km/h 3.7 km/h 63° 1013.9 hPa 0.000 mm
2020-09-30 13:57:00 19.4°C 72% 2.2 km/h 3.2 km/h 48° 1013.9 hPa 0.000 mm
2020-09-30 13:56:00 19.6°C 72% 1.6 km/h 3.2 km/h 61° 1013.9 hPa 0.000 mm
2020-09-30 13:55:00 19.4°C 72% 1.8 km/h 2.6 km/h 98° 1013.9 hPa 0.000 mm
2020-09-30 13:54:00 19.2°C 73% 0.7 km/h 1.6 km/h 144° 1013.9 hPa 0.000 mm
2020-09-30 13:53:00 19.1°C 73% 2.0 km/h 4.2 km/h 19° 1013.9 hPa 0.000 mm
2020-09-30 13:52:00 18.8°C 73% 2.4 km/h 5.3 km/h 26° 1013.9 hPa 0.000 mm
2020-09-30 13:51:00 18.6°C 73% 1.2 km/h 2.1 km/h 118° 1013.9 hPa 0.000 mm
2020-09-30 13:50:00 18.6°C 73% 1.4 km/h 2.6 km/h 186° 1014.0 hPa 0.000 mm
2020-09-30 13:49:00 18.2°C 73% 2.6 km/h 4.2 km/h 210° 1014.0 hPa 0.000 mm
2020-09-30 13:48:00 18.5°C 73% 2.6 km/h 4.2 km/h 52° 1014.1 hPa 0.000 mm
2020-09-30 13:47:00 18.7°C 73% 2.1 km/h 3.7 km/h 92° 1014.1 hPa 0.000 mm
2020-09-30 13:46:00 18.1°C 73% 1.7 km/h 3.2 km/h 189° 1014.1 hPa 0.000 mm
2020-09-30 13:45:00 18.1°C 73% 1.5 km/h 3.2 km/h 133° 1014.1 hPa 0.000 mm
2020-09-30 13:44:00 18.2°C 73% 2.9 km/h 5.3 km/h 101° 1014.1 hPa 0.000 mm
2020-09-30 13:43:00 18.3°C 73% 3.4 km/h 4.8 km/h 110° 1014.1 hPa 0.000 mm
2020-09-30 13:42:00 18.2°C 73% 1.5 km/h 3.7 km/h 201° 1014.1 hPa 0.000 mm
2020-09-30 13:41:00 18.2°C 73% 2.6 km/h 4.2 km/h 24° 1014.2 hPa 0.000 mm
2020-09-30 13:40:00 18.4°C 73% 4.0 km/h 5.8 km/h 20° 1014.2 hPa 0.000 mm
2020-09-30 13:39:00 18.2°C 74% 2.0 km/h 4.2 km/h 194° 1014.2 hPa 0.000 mm
2020-09-30 13:38:00 18.4°C 74% 2.2 km/h 4.2 km/h 41° 1014.2 hPa 0.000 mm
2020-09-30 13:37:00 18.6°C 74% 4.0 km/h 5.8 km/h 36° 1014.2 hPa 0.000 mm
2020-09-30 13:36:00 18.5°C 74% 2.2 km/h 4.2 km/h 107° 1014.2 hPa 0.000 mm
2020-09-30 13:35:00 18.4°C 74% 2.6 km/h 3.7 km/h 32° 1014.3 hPa 0.000 mm
2020-09-30 13:34:00 18.5°C 74% 2.6 km/h 3.7 km/h 25° 1014.2 hPa 0.000 mm
2020-09-30 13:33:00 18.6°C 74% 2.1 km/h 4.2 km/h 116° 1014.2 hPa 0.000 mm
2020-09-30 13:32:00 18.2°C 74% 1.9 km/h 3.2 km/h 205° 1014.2 hPa 0.000 mm
2020-09-30 13:31:00 18.0°C 74% 2.6 km/h 3.7 km/h 191° 1014.3 hPa 0.000 mm
2020-09-30 13:30:00 17.8°C 74% 3.5 km/h 4.8 km/h 206° 1014.3 hPa 0.000 mm
2020-09-30 13:29:00 17.6°C 74% 2.6 km/h 3.7 km/h 84° 1014.3 hPa 0.000 mm
2020-09-30 13:28:00 17.6°C 74% 3.8 km/h 5.8 km/h 18° 1014.3 hPa 0.000 mm
2020-09-30 13:27:00 17.7°C 74% 2.9 km/h 5.3 km/h 39° 1014.3 hPa 0.000 mm
2020-09-30 13:26:00 17.8°C 74% 4.5 km/h 6.9 km/h 45° 1014.3 hPa 0.000 mm
2020-09-30 13:25:00 17.7°C 74% 4.0 km/h 6.3 km/h 27° 1014.4 hPa 0.000 mm
2020-09-30 13:24:00 17.7°C 75% 6.0 km/h 6.9 km/h 45° 1014.3 hPa 0.000 mm
2020-09-30 13:23:00 17.6°C 75% 4.2 km/h 6.3 km/h 54° 1014.4 hPa 0.000 mm
2020-09-30 13:22:00 17.5°C 75% 3.8 km/h 5.3 km/h 59° 1014.4 hPa 0.000 mm
2020-09-30 13:21:00 17.3°C 75% 3.5 km/h 5.3 km/h 84° 1014.4 hPa 0.000 mm
2020-09-30 13:20:00 17.2°C 75% 1.4 km/h 3.7 km/h 114° 1014.3 hPa 0.000 mm
2020-09-30 13:19:00 17.2°C 75% 1.7 km/h 2.1 km/h 114° 1014.4 hPa 0.000 mm
2020-09-30 13:18:00 17.2°C 75% 2.0 km/h 2.6 km/h 176° 1014.3 hPa 0.000 mm
2020-09-30 13:17:00 17.4°C 75% 2.3 km/h 3.7 km/h 136° 1014.3 hPa 0.000 mm
2020-09-30 13:16:00 17.6°C 75% 3.2 km/h 4.8 km/h 133° 1014.3 hPa 0.000 mm
2020-09-30 13:15:00 17.9°C 75% 4.1 km/h 5.8 km/h 87° 1014.3 hPa 0.000 mm
2020-09-30 13:14:00 18.3°C 76% 1.9 km/h 3.2 km/h 50° 1014.3 hPa 0.000 mm
2020-09-30 13:13:00 18.0°C 76% 2.0 km/h 3.7 km/h 107° 1014.4 hPa 0.000 mm
2020-09-30 13:12:00 18.3°C 76% 3.5 km/h 4.8 km/h 42° 1014.5 hPa 0.000 mm
2020-09-30 13:11:00 18.4°C 76% 3.0 km/h 4.8 km/h 45° 1014.5 hPa 0.000 mm
2020-09-30 13:10:00 18.4°C 76% 1.1 km/h 2.1 km/h 171° 1014.4 hPa 0.000 mm
2020-09-30 13:09:00 18.2°C 76% 0.6 km/h 2.1 km/h 95° 1014.4 hPa 0.000 mm
2020-09-30 13:08:00 18.0°C 76% 0.1 km/h 0.5 km/h 115° 1014.4 hPa 0.000 mm
2020-09-30 13:07:00 18.0°C 76% 1.8 km/h 3.2 km/h 66° 1014.5 hPa 0.000 mm
2020-09-30 13:06:00 18.2°C 76% 1.8 km/h 2.6 km/h 38° 1014.5 hPa 0.000 mm
2020-09-30 13:05:00 18.1°C 76% 2.5 km/h 3.7 km/h 108° 1014.5 hPa 0.000 mm
2020-09-30 13:04:00 18.1°C 76% 2.2 km/h 3.7 km/h 109° 1014.5 hPa 0.000 mm
2020-09-30 13:03:00 17.9°C 76% 0.8 km/h 3.2 km/h 164° 1014.5 hPa 0.000 mm
2020-09-30 13:02:00 17.7°C 76% 0.3 km/h 1.6 km/h 106° 1014.6 hPa 0.000 mm
2020-09-30 13:01:00 17.7°C 76% 1.0 km/h 2.1 km/h 173° 1014.5 hPa 0.000 mm
2020-09-30 13:00:00 17.6°C 76% 2.9 km/h 5.3 km/h 34° 1014.5 hPa 0.000 mm
2020-09-30 12:59:00 17.5°C 77% 3.0 km/h 4.8 km/h 21° 1014.6 hPa 0.000 mm
2020-09-30 12:58:00 17.4°C 77% 2.2 km/h 3.7 km/h 33° 1014.5 hPa 0.000 mm
2020-09-30 12:57:00 17.3°C 77% 3.0 km/h 4.2 km/h 34° 1014.5 hPa 0.000 mm
2020-09-30 12:56:00 17.4°C 77% 3.2 km/h 5.3 km/h 63° 1014.6 hPa 0.000 mm
2020-09-30 12:55:00 17.2°C 77% 5.2 km/h 6.3 km/h 55° 1014.6 hPa 0.000 mm
2020-09-30 12:54:00 17.3°C 77% 5.1 km/h 7.4 km/h 46° 1014.6 hPa 0.000 mm
2020-09-30 12:53:00 17.3°C 77% 4.1 km/h 5.8 km/h 23° 1014.6 hPa 0.000 mm
2020-09-30 12:52:00 17.4°C 77% 4.1 km/h 5.8 km/h 33° 1014.6 hPa 0.000 mm
2020-09-30 12:51:00 17.5°C 77% 4.0 km/h 6.3 km/h 29° 1014.6 hPa 0.000 mm
2020-09-30 12:50:00 17.4°C 77% 3.4 km/h 5.8 km/h 73° 1014.6 hPa 0.000 mm
2020-09-30 12:49:00 17.4°C 78% 3.2 km/h 4.8 km/h 86° 1014.6 hPa 0.000 mm
2020-09-30 12:48:00 17.7°C 78% 2.2 km/h 3.7 km/h 59° 1014.6 hPa 0.000 mm
2020-09-30 12:47:00 17.8°C 78% 3.8 km/h 6.3 km/h 43° 1014.6 hPa 0.000 mm
2020-09-30 12:46:00 17.7°C 78% 3.2 km/h 5.3 km/h 42° 1014.6 hPa 0.000 mm
2020-09-30 12:45:00 17.4°C 78% 3.8 km/h 5.8 km/h 36° 1014.6 hPa 0.000 mm
2020-09-30 12:44:00 17.0°C 78% 3.1 km/h 4.2 km/h 35° 1014.6 hPa 0.000 mm
2020-09-30 12:43:00 17.4°C 78% 2.6 km/h 3.7 km/h 43° 1014.6 hPa 0.000 mm
2020-09-30 12:42:00 17.2°C 78% 3.6 km/h 5.8 km/h 66° 1014.6 hPa 0.000 mm
2020-09-30 12:41:00 17.1°C 78% 4.1 km/h 6.9 km/h 60° 1014.6 hPa 0.000 mm
2020-09-30 12:40:00 17.1°C 78% 2.2 km/h 3.2 km/h 37° 1014.6 hPa 0.000 mm
2020-09-30 12:39:00 17.3°C 79% 2.3 km/h 3.7 km/h 80° 1014.6 hPa 0.000 mm
2020-09-30 12:38:00 17.1°C 79% 3.6 km/h 5.8 km/h 102° 1014.6 hPa 0.000 mm
2020-09-30 12:37:00 17.3°C 79% 5.3 km/h 7.9 km/h 84° 1014.6 hPa 0.000 mm
2020-09-30 12:36:00 17.1°C 79% 2.4 km/h 3.7 km/h 51° 1014.7 hPa 0.000 mm
2020-09-30 12:35:00 17.1°C 79% 2.9 km/h 4.2 km/h 43° 1014.6 hPa 0.000 mm
2020-09-30 12:34:00 17.2°C 79% 4.4 km/h 6.3 km/h 54° 1014.7 hPa 0.000 mm
2020-09-30 12:33:00 17.2°C 79% 5.4 km/h 6.3 km/h 60° 1014.7 hPa 0.000 mm
2020-09-30 12:32:00 16.9°C 79% 2.8 km/h 4.8 km/h 26° 1014.8 hPa 0.000 mm
2020-09-30 12:31:00 16.8°C 79% 2.6 km/h 6.3 km/h 32° 1014.8 hPa 0.000 mm
2020-09-30 12:30:00 16.8°C 79% 5.2 km/h 6.9 km/h 23° 1014.8 hPa 0.000 mm
2020-09-30 12:29:00 17.0°C 80% 3.2 km/h 5.3 km/h 20° 1014.8 hPa 0.000 mm
2020-09-30 12:28:00 16.9°C 80% 4.6 km/h 6.3 km/h 50° 1014.8 hPa 0.000 mm
2020-09-30 12:27:00 16.9°C 80% 4.1 km/h 5.8 km/h 35° 1014.8 hPa 0.000 mm
2020-09-30 12:26:00 16.7°C 80% 3.1 km/h 5.3 km/h 43° 1014.7 hPa 0.000 mm
2020-09-30 12:25:00 16.8°C 80% 2.0 km/h 2.6 km/h 51° 1014.7 hPa 0.000 mm
2020-09-30 12:24:00 16.9°C 80% 3.3 km/h 4.8 km/h 90° 1014.7 hPa 0.000 mm
2020-09-30 12:23:00 17.0°C 80% 2.6 km/h 4.2 km/h 83° 1014.7 hPa 0.000 mm
2020-09-30 12:22:00 17.1°C 80% 4.1 km/h 6.9 km/h 73° 1014.7 hPa 0.000 mm
2020-09-30 12:21:00 17.2°C 80% 6.5 km/h 9.0 km/h 50° 1014.7 hPa 0.000 mm
2020-09-30 12:20:00 17.3°C 80% 3.2 km/h 6.9 km/h 66° 1014.7 hPa 0.000 mm
2020-09-30 12:19:00 17.2°C 80% 2.3 km/h 3.7 km/h 65° 1014.8 hPa 0.000 mm
2020-09-30 12:18:00 17.1°C 80% 3.8 km/h 5.8 km/h 45° 1014.8 hPa 0.000 mm
2020-09-30 12:17:00 16.7°C 80% 2.4 km/h 3.7 km/h 59° 1014.8 hPa 0.000 mm
2020-09-30 12:16:00 16.7°C 80% 2.8 km/h 4.2 km/h 84° 1014.8 hPa 0.000 mm
2020-09-30 12:15:00 16.9°C 80% 3.7 km/h 5.8 km/h 84° 1014.8 hPa 0.000 mm
2020-09-30 12:14:00 16.7°C 81% 3.4 km/h 5.3 km/h 73° 1014.7 hPa 0.000 mm
2020-09-30 12:13:00 16.7°C 81% 3.5 km/h 4.8 km/h 57° 1014.8 hPa 0.000 mm
2020-09-30 12:12:00 16.2°C 81% 4.5 km/h 6.9 km/h 39° 1014.8 hPa 0.000 mm
2020-09-30 12:11:00 16.6°C 81% 3.1 km/h 6.3 km/h 56° 1014.8 hPa 0.000 mm
2020-09-30 12:10:00 16.4°C 81% 3.5 km/h 5.3 km/h 73° 1014.8 hPa 0.000 mm
2020-09-30 12:09:00 16.3°C 81% 2.5 km/h 4.8 km/h 44° 1014.8 hPa 0.000 mm
2020-09-30 12:08:00 16.0°C 81% 3.6 km/h 4.8 km/h 69° 1014.8 hPa 0.000 mm
2020-09-30 12:07:00 16.2°C 81% 4.7 km/h 6.3 km/h 113° 1014.8 hPa 0.000 mm
2020-09-30 12:06:00 16.0°C 81% 2.2 km/h 4.8 km/h 63° 1014.8 hPa 0.000 mm
2020-09-30 12:05:00 16.0°C 81% 4.4 km/h 6.3 km/h 104° 1014.8 hPa 0.000 mm
2020-09-30 12:04:00 16.1°C 82% 3.4 km/h 5.3 km/h 61° 1014.8 hPa 0.000 mm
2020-09-30 12:03:00 16.4°C 82% 5.8 km/h 6.9 km/h 35° 1014.8 hPa 0.000 mm
2020-09-30 12:02:00 16.4°C 82% 5.4 km/h 7.9 km/h 43° 1014.8 hPa 0.000 mm
2020-09-30 12:01:00 16.2°C 82% 3.9 km/h 6.3 km/h 46° 1014.8 hPa 0.000 mm
2020-09-30 12:00:00 16.4°C 82% 3.2 km/h 5.3 km/h 88° 1014.8 hPa 0.000 mm
2020-09-30 11:59:00 16.5°C 82% 3.8 km/h 5.3 km/h 71° 1014.8 hPa 0.000 mm
2020-09-30 11:58:00 16.7°C 82% 5.7 km/h 7.4 km/h 87° 1014.8 hPa 0.000 mm
2020-09-30 11:57:00 16.6°C 82% 4.7 km/h 5.8 km/h 57° 1014.8 hPa 0.000 mm
2020-09-30 11:56:00 16.6°C 82% 4.1 km/h 6.9 km/h 72° 1014.8 hPa 0.000 mm
2020-09-30 11:55:00 16.7°C 82% 3.9 km/h 6.3 km/h 60° 1014.8 hPa 0.000 mm
2020-09-30 11:54:00 16.5°C 83% 4.1 km/h 6.9 km/h 72° 1014.8 hPa 0.000 mm
2020-09-30 11:53:00 16.4°C 83% 2.9 km/h 4.8 km/h 54° 1014.8 hPa 0.000 mm
2020-09-30 11:52:00 16.1°C 83% 2.4 km/h 3.2 km/h 65° 1014.9 hPa 0.000 mm
2020-09-30 11:51:00 16.2°C 83% 3.8 km/h 4.8 km/h 73° 1014.9 hPa 0.000 mm
2020-09-30 11:50:00 16.1°C 83% 4.5 km/h 5.8 km/h 80° 1014.9 hPa 0.000 mm
2020-09-30 11:49:00 16.1°C 83% 4.2 km/h 5.3 km/h 68° 1014.9 hPa 0.000 mm
2020-09-30 11:48:00 16.0°C 83% 4.3 km/h 5.3 km/h 102° 1014.9 hPa 0.000 mm
2020-09-30 11:47:00 15.8°C 83% 2.8 km/h 3.7 km/h 72° 1015.0 hPa 0.000 mm
2020-09-30 11:46:00 15.8°C 83% 4.7 km/h 6.3 km/h 37° 1014.9 hPa 0.000 mm
2020-09-30 11:45:00 15.8°C 83% 5.1 km/h 6.9 km/h 33° 1014.9 hPa 0.000 mm
2020-09-30 11:44:00 16.1°C 84% 3.2 km/h 4.2 km/h 63° 1015.0 hPa 0.000 mm
2020-09-30 11:43:00 15.9°C 84% 6.5 km/h 9.0 km/h 45° 1015.0 hPa 0.000 mm
2020-09-30 11:42:00 16.0°C 84% 6.6 km/h 8.4 km/h 43° 1015.0 hPa 0.000 mm
2020-09-30 11:41:00 16.1°C 84% 4.2 km/h 6.9 km/h 77° 1015.0 hPa 0.000 mm
2020-09-30 11:40:00 15.7°C 84% 3.3 km/h 4.2 km/h 89° 1015.0 hPa 0.000 mm
2020-09-30 11:39:00 15.7°C 84% 4.3 km/h 5.8 km/h 78° 1015.0 hPa 0.000 mm
2020-09-30 11:38:00 15.6°C 84% 3.6 km/h 6.3 km/h 45° 1015.0 hPa 0.000 mm
2020-09-30 11:37:00 15.5°C 84% 4.9 km/h 6.9 km/h 34° 1015.0 hPa 0.000 mm
2020-09-30 11:36:00 15.5°C 84% 4.2 km/h 6.3 km/h 20° 1015.0 hPa 0.000 mm
2020-09-30 11:35:00 15.6°C 84% 5.1 km/h 7.4 km/h 45° 1015.0 hPa 0.000 mm
2020-09-30 11:34:00 15.7°C 84% 6.3 km/h 8.4 km/h 46° 1015.0 hPa 0.000 mm
2020-09-30 11:33:00 15.7°C 84% 4.8 km/h 6.3 km/h 45° 1015.0 hPa 0.000 mm
2020-09-30 11:32:00 15.7°C 84% 3.8 km/h 5.3 km/h 37° 1015.1 hPa 0.000 mm
2020-09-30 11:31:00 15.7°C 84% 2.3 km/h 3.2 km/h 50° 1015.1 hPa 0.000 mm
2020-09-30 11:30:00 15.8°C 84% 4.4 km/h 5.3 km/h 96° 1015.1 hPa 0.000 mm
2020-09-30 11:29:00 15.8°C 85% 4.5 km/h 7.4 km/h 56° 1015.0 hPa 0.000 mm
2020-09-30 11:28:00 15.5°C 85% 3.2 km/h 4.8 km/h 86° 1015.1 hPa 0.000 mm
2020-09-30 11:27:00 15.5°C 85% 4.0 km/h 5.8 km/h 111° 1015.1 hPa 0.000 mm
2020-09-30 11:26:00 15.6°C 85% 4.0 km/h 5.3 km/h 70° 1015.1 hPa 0.000 mm
2020-09-30 11:25:00 15.8°C 85% 5.2 km/h 6.9 km/h 45° 1015.1 hPa 0.000 mm
2020-09-30 11:24:00 15.8°C 85% 5.4 km/h 7.4 km/h 50° 1015.1 hPa 0.000 mm
2020-09-30 11:23:00 15.6°C 85% 1.9 km/h 3.2 km/h 100° 1015.1 hPa 0.000 mm
2020-09-30 11:22:00 15.3°C 85% 2.4 km/h 3.2 km/h 107° 1015.2 hPa 0.000 mm
2020-09-30 11:21:00 15.2°C 85% 3.9 km/h 5.8 km/h 86° 1015.1 hPa 0.000 mm
2020-09-30 11:20:00 15.1°C 85% 3.6 km/h 5.3 km/h 96° 1015.2 hPa 0.000 mm
2020-09-30 11:19:00 15.1°C 86% 3.1 km/h 4.8 km/h 95° 1015.2 hPa 0.000 mm
2020-09-30 11:18:00 15.1°C 86% 3.3 km/h 4.8 km/h 82° 1015.3 hPa 0.000 mm
2020-09-30 11:17:00 15.1°C 86% 2.7 km/h 4.2 km/h 96° 1015.2 hPa 0.000 mm
2020-09-30 11:16:00 15.1°C 86% 2.8 km/h 3.7 km/h 115° 1015.2 hPa 0.000 mm
2020-09-30 11:15:00 15.0°C 86% 3.6 km/h 4.8 km/h 111° 1015.3 hPa 0.000 mm
2020-09-30 11:14:00 15.1°C 86% 3.5 km/h 5.8 km/h 101° 1015.3 hPa 0.000 mm
2020-09-30 11:13:00 15.1°C 86% 3.4 km/h 4.8 km/h 93° 1015.2 hPa 0.000 mm
2020-09-30 11:12:00 14.9°C 86% 4.4 km/h 6.3 km/h 100° 1015.2 hPa 0.000 mm
2020-09-30 11:11:00 15.0°C 86% 5.9 km/h 7.4 km/h 88° 1015.3 hPa 0.000 mm
2020-09-30 11:10:00 14.7°C 86% 5.8 km/h 7.9 km/h 88° 1015.3 hPa 0.000 mm
2020-09-30 11:09:00 14.8°C 86% 3.5 km/h 5.8 km/h 51° 1015.3 hPa 0.000 mm
2020-09-30 11:08:00 14.8°C 86% 4.0 km/h 5.3 km/h 50° 1015.3 hPa 0.000 mm
2020-09-30 11:07:00 14.6°C 86% 4.5 km/h 5.8 km/h 55° 1015.3 hPa 0.000 mm
2020-09-30 11:06:00 14.6°C 86% 3.7 km/h 5.3 km/h 56° 1015.3 hPa 0.000 mm
2020-09-30 11:05:00 14.5°C 86% 2.6 km/h 3.7 km/h 48° 1015.3 hPa 0.000 mm
2020-09-30 11:04:00 14.7°C 87% 2.5 km/h 4.2 km/h 64° 1015.3 hPa 0.000 mm
2020-09-30 11:03:00 14.9°C 87% 4.5 km/h 6.9 km/h 41° 1015.4 hPa 0.000 mm
2020-09-30 11:02:00 15.0°C 87% 2.4 km/h 3.2 km/h 65° 1015.4 hPa 0.000 mm
2020-09-30 11:01:00 14.7°C 87% 2.2 km/h 2.6 km/h 61° 1015.4 hPa 0.000 mm
2020-09-30 11:00:00 14.6°C 87% 2.5 km/h 3.7 km/h 41° 1015.4 hPa 0.000 mm
2020-09-30 10:59:00 14.7°C 87% 3.3 km/h 4.8 km/h 34° 1015.5 hPa 0.000 mm
2020-09-30 10:58:00 14.7°C 87% 3.8 km/h 5.3 km/h 36° 1015.5 hPa 0.000 mm
2020-09-30 10:57:00 14.8°C 87% 5.4 km/h 6.9 km/h 29° 1015.5 hPa 0.000 mm
2020-09-30 10:56:00 14.9°C 87% 2.9 km/h 4.2 km/h 61° 1015.5 hPa 0.000 mm
2020-09-30 10:55:00 15.0°C 87% 3.3 km/h 4.8 km/h 59° 1015.5 hPa 0.000 mm
2020-09-30 10:54:00 14.8°C 87% 4.9 km/h 5.8 km/h 21° 1015.5 hPa 0.000 mm
2020-09-30 10:53:00 14.8°C 87% 4.5 km/h 6.9 km/h 50° 1015.4 hPa 0.000 mm
2020-09-30 10:52:00 14.6°C 87% 4.6 km/h 5.8 km/h 38° 1015.5 hPa 0.000 mm
2020-09-30 10:51:00 14.8°C 87% 4.7 km/h 6.9 km/h 39° 1015.5 hPa 0.000 mm
2020-09-30 10:50:00 14.9°C 87% 3.1 km/h 3.7 km/h 35° 1015.5 hPa 0.000 mm
2020-09-30 10:49:00 14.7°C 88% 4.1 km/h 5.3 km/h 34° 1015.5 hPa 0.000 mm
2020-09-30 10:48:00 14.5°C 88% 3.1 km/h 4.8 km/h 26° 1015.5 hPa 0.000 mm
2020-09-30 10:47:00 14.6°C 88% 2.2 km/h 3.2 km/h 63° 1015.5 hPa 0.000 mm
2020-09-30 10:46:00 14.7°C 88% 3.4 km/h 5.8 km/h 38° 1015.5 hPa 0.000 mm
2020-09-30 10:45:00 14.5°C 88% 2.5 km/h 3.2 km/h 36° 1015.6 hPa 0.000 mm
2020-09-30 10:44:00 14.4°C 88% 2.3 km/h 3.7 km/h 27° 1015.6 hPa 0.000 mm
2020-09-30 10:43:00 14.3°C 88% 3.1 km/h 4.2 km/h 48° 1015.6 hPa 0.000 mm
2020-09-30 10:42:00 14.2°C 88% 3.0 km/h 4.2 km/h 14° 1015.6 hPa 0.000 mm
2020-09-30 10:41:00 14.0°C 88% 3.5 km/h 4.8 km/h 18° 1015.6 hPa 0.000 mm
2020-09-30 10:40:00 13.8°C 88% 3.9 km/h 4.8 km/h 14° 1015.6 hPa 0.000 mm
2020-09-30 10:39:00 14.0°C 88% 3.6 km/h 4.8 km/h 28° 1015.6 hPa 0.000 mm
2020-09-30 10:38:00 14.0°C 88% 3.0 km/h 4.2 km/h 42° 1015.6 hPa 0.000 mm
2020-09-30 10:37:00 14.0°C 88% 3.6 km/h 5.3 km/h 27° 1015.6 hPa 0.000 mm
2020-09-30 10:36:00 14.1°C 88% 3.8 km/h 4.8 km/h 28° 1015.6 hPa 0.000 mm
2020-09-30 10:35:00 14.2°C 88% 3.8 km/h 5.3 km/h 17° 1015.6 hPa 0.000 mm
2020-09-30 10:34:00 14.0°C 89% 3.9 km/h 5.3 km/h 10° 1015.7 hPa 0.000 mm
2020-09-30 10:33:00 14.1°C 89% 4.7 km/h 5.8 km/h 18° 1015.7 hPa 0.000 mm
2020-09-30 10:32:00 14.1°C 89% 3.4 km/h 5.3 km/h 18° 1015.7 hPa 0.000 mm
2020-09-30 10:31:00 14.1°C 89% 2.9 km/h 4.8 km/h 48° 1015.7 hPa 0.000 mm
2020-09-30 10:30:00 14.0°C 89% 2.6 km/h 4.2 km/h 37° 1015.7 hPa 0.000 mm
2020-09-30 10:29:00 13.9°C 89% 1.8 km/h 2.6 km/h 14° 1015.7 hPa 0.000 mm
2020-09-30 10:28:00 14.0°C 89% 3.8 km/h 4.8 km/h 28° 1015.7 hPa 0.000 mm
2020-09-30 10:27:00 14.0°C 89% 3.0 km/h 4.2 km/h 33° 1015.7 hPa 0.000 mm
2020-09-30 10:26:00 13.9°C 89% 3.1 km/h 3.7 km/h 20° 1015.6 hPa 0.000 mm
2020-09-30 10:25:00 13.9°C 89% 2.9 km/h 4.8 km/h 14° 1015.7 hPa 0.000 mm
2020-09-30 10:24:00 14.0°C 89% 4.1 km/h 4.8 km/h 11° 1015.7 hPa 0.000 mm
2020-09-30 10:23:00 13.9°C 89% 3.7 km/h 4.2 km/h 16° 1015.7 hPa 0.000 mm
2020-09-30 10:22:00 13.6°C 89% 3.1 km/h 4.2 km/h 23° 1015.7 hPa 0.000 mm
2020-09-30 10:21:00 13.6°C 89% 3.3 km/h 4.2 km/h 1015.6 hPa 0.000 mm
2020-09-30 10:20:00 13.7°C 89% 2.8 km/h 3.7 km/h 27° 1015.6 hPa 0.000 mm
2020-09-30 10:19:00 13.4°C 89% 2.6 km/h 3.2 km/h 39° 1015.7 hPa 0.000 mm
2020-09-30 10:18:00 13.6°C 89% 2.7 km/h 3.7 km/h 27° 1015.7 hPa 0.000 mm
2020-09-30 10:17:00 13.7°C 89% 2.6 km/h 3.2 km/h 25° 1015.8 hPa 0.000 mm
2020-09-30 10:16:00 13.7°C 89% 3.0 km/h 4.2 km/h 28° 1015.7 hPa 0.000 mm
2020-09-30 10:15:00 13.8°C 89% 3.5 km/h 4.2 km/h 28° 1015.7 hPa 0.000 mm
2020-09-30 10:14:00 13.8°C 89% 3.0 km/h 4.2 km/h 36° 1015.7 hPa 0.000 mm
2020-09-30 10:13:00 13.6°C 89% 2.8 km/h 3.7 km/h 1015.7 hPa 0.000 mm
2020-09-30 10:12:00 13.8°C 89% 2.6 km/h 3.2 km/h 1015.8 hPa 0.000 mm
2020-09-30 10:11:00 13.8°C 89% 3.6 km/h 4.2 km/h 1015.8 hPa 0.000 mm
2020-09-30 10:10:00 13.7°C 89% 2.8 km/h 3.7 km/h 34° 1015.7 hPa 0.000 mm
2020-09-30 10:09:00 13.6°C 90% 2.5 km/h 3.2 km/h 33° 1015.8 hPa 0.000 mm
2020-09-30 10:08:00 13.6°C 90% 2.0 km/h 2.6 km/h 80° 1015.8 hPa 0.000 mm
2020-09-30 10:07:00 13.6°C 90% 1.9 km/h 2.6 km/h 10° 1015.8 hPa 0.000 mm
2020-09-30 10:06:00 13.5°C 90% 1.3 km/h 2.1 km/h 65° 1015.8 hPa 0.000 mm
2020-09-30 10:05:00 13.6°C 90% 1.6 km/h 2.1 km/h 29° 1015.7 hPa 0.000 mm
2020-09-30 10:04:00 13.6°C 90% 2.0 km/h 2.6 km/h 36° 1015.7 hPa 0.000 mm
2020-09-30 10:03:00 13.7°C 90% 2.6 km/h 3.2 km/h 36° 1015.8 hPa 0.000 mm
2020-09-30 10:02:00 13.6°C 90% 3.0 km/h 3.7 km/h 26° 1015.8 hPa 0.000 mm
2020-09-30 10:01:00 13.6°C 90% 1.8 km/h 3.2 km/h 19° 1015.8 hPa 0.000 mm
2020-09-30 10:00:00 13.7°C 90% 2.1 km/h 2.6 km/h 26° 1015.8 hPa 0.000 mm
2020-09-30 09:59:00 13.8°C 90% 2.1 km/h 2.6 km/h 27° 1015.8 hPa 0.000 mm
2020-09-30 09:58:00 13.8°C 90% 1.3 km/h 2.1 km/h 34° 1015.8 hPa 0.000 mm
2020-09-30 09:57:00 13.7°C 90% 2.1 km/h 3.2 km/h 38° 1015.8 hPa 0.000 mm
2020-09-30 09:56:00 13.7°C 90% 1.9 km/h 2.6 km/h 35° 1015.9 hPa 0.000 mm
2020-09-30 09:55:00 13.6°C 90% 0.7 km/h 1.6 km/h 39° 1015.9 hPa 0.000 mm
2020-09-30 09:54:00 13.6°C 90% 1.7 km/h 2.1 km/h 48° 1015.9 hPa 0.000 mm
2020-09-30 09:53:00 13.6°C 90% 2.3 km/h 3.7 km/h 38° 1015.8 hPa 0.000 mm
2020-09-30 09:52:00 13.6°C 90% 3.2 km/h 3.7 km/h 41° 1015.8 hPa 0.000 mm
2020-09-30 09:51:00 13.7°C 90% 2.4 km/h 3.2 km/h 41° 1015.8 hPa 0.000 mm
2020-09-30 09:50:00 13.6°C 90% 2.1 km/h 2.6 km/h 34° 1015.8 hPa 0.000 mm
2020-09-30 09:49:00 13.4°C 91% 2.2 km/h 3.2 km/h 43° 1015.8 hPa 0.000 mm
2020-09-30 09:48:00 13.4°C 91% 2.6 km/h 3.2 km/h 48° 1015.8 hPa 0.000 mm
2020-09-30 09:47:00 13.4°C 91% 1.4 km/h 2.6 km/h 50° 1015.8 hPa 0.000 mm
2020-09-30 09:46:00 13.4°C 91% 1.8 km/h 2.6 km/h 38° 1015.8 hPa 0.000 mm
2020-09-30 09:45:00 13.0°C 91% 2.1 km/h 2.6 km/h 41° 1015.8 hPa 0.000 mm
2020-09-30 09:44:00 13.0°C 91% 2.0 km/h 2.6 km/h 46° 1015.8 hPa 0.000 mm
2020-09-30 09:43:00 13.2°C 91% 1.3 km/h 2.1 km/h 43° 1015.8 hPa 0.000 mm
2020-09-30 09:42:00 13.1°C 91% 1.7 km/h 2.6 km/h 1015.8 hPa 0.000 mm
2020-09-30 09:41:00 12.8°C 91% 2.0 km/h 3.2 km/h 1015.8 hPa 0.000 mm
2020-09-30 09:40:00 13.0°C 91% 1.1 km/h 1.6 km/h 38° 1015.8 hPa 0.000 mm
2020-09-30 09:39:00 12.9°C 91% 1.3 km/h 1.6 km/h 38° 1015.9 hPa 0.000 mm
2020-09-30 09:38:00 12.9°C 91% 1.5 km/h 2.6 km/h 38° 1015.9 hPa 0.000 mm
2020-09-30 09:37:00 12.9°C 91% 1.6 km/h 2.1 km/h 39° 1015.9 hPa 0.000 mm
2020-09-30 09:36:00 12.7°C 91% 1.4 km/h 1.6 km/h 43° 1015.9 hPa 0.000 mm
2020-09-30 09:35:00 12.8°C 91% 1.2 km/h 1.6 km/h 38° 1015.8 hPa 0.000 mm
2020-09-30 09:34:00 12.9°C 91% 1.5 km/h 2.6 km/h 29° 1015.8 hPa 0.000 mm
2020-09-30 09:33:00 12.8°C 91% 1.2 km/h 1.6 km/h 27° 1015.8 hPa 0.000 mm
2020-09-30 09:32:00 12.8°C 91% 1.1 km/h 1.6 km/h 16° 1015.8 hPa 0.000 mm
2020-09-30 09:31:00 12.7°C 91% 0.6 km/h 1.1 km/h 1015.8 hPa 0.000 mm
2020-09-30 09:30:00 12.7°C 91% 0.6 km/h 1.6 km/h 1015.8 hPa 0.000 mm
2020-09-30 09:29:00 12.7°C 91% 1.3 km/h 1.6 km/h 16° 1015.8 hPa 0.000 mm
2020-09-30 09:28:00 12.8°C 91% 0.9 km/h 1.6 km/h 216° 1015.8 hPa 0.000 mm
2020-09-30 09:27:00 12.8°C 91% 0.8 km/h 1.1 km/h 252° 1015.8 hPa 0.000 mm
2020-09-30 09:26:00 12.8°C 91% 0.9 km/h 1.1 km/h 250° 1015.8 hPa 0.000 mm
2020-09-30 09:25:00 12.6°C 91% 0.3 km/h 0.5 km/h 203° 1015.7 hPa 0.000 mm
2020-09-30 09:24:00 12.5°C 91% 0.5 km/h 1.1 km/h 203° 1015.7 hPa 0.000 mm
2020-09-30 09:23:00 12.4°C 91% 0.6 km/h 1.1 km/h 243° 1015.7 hPa 0.000 mm
2020-09-30 09:22:00 12.3°C 91% 0.9 km/h 1.1 km/h 270° 1015.7 hPa 0.000 mm
2020-09-30 09:21:00 12.2°C 91% 0.7 km/h 1.1 km/h 231° 1015.8 hPa 0.000 mm
2020-09-30 09:20:00 12.2°C 91% 0.0 km/h 0.5 km/h 203° 1015.7 hPa 0.000 mm
2020-09-30 09:19:00 12.2°C 91% 0.2 km/h 1.1 km/h 203° 1015.8 hPa 0.000 mm
2020-09-30 09:18:00 12.1°C 91% 0.2 km/h 1.1 km/h 203° 1015.8 hPa 0.000 mm
2020-09-30 09:17:00 12.2°C 91% 0.2 km/h 0.5 km/h 230° 1015.8 hPa 0.000 mm
2020-09-30 09:16:00 12.3°C 91% 0.0 km/h 0.5 km/h 230° 1015.8 hPa 0.000 mm
2020-09-30 09:15:00 12.1°C 91% 0.2 km/h 0.5 km/h 216° 1015.8 hPa 0.000 mm
2020-09-30 09:14:00 12.1°C 91% 0.1 km/h 0.5 km/h 234° 1015.7 hPa 0.000 mm
2020-09-30 09:13:00 12.0°C 91% 0.2 km/h 0.5 km/h 172° 1015.8 hPa 0.000 mm
2020-09-30 09:12:00 12.1°C 91% 0.0 km/h 0.5 km/h 63° 1015.8 hPa 0.000 mm
2020-09-30 09:11:00 12.0°C 91% 0.5 km/h 1.6 km/h 115° 1015.7 hPa 0.000 mm
2020-09-30 09:10:00 11.9°C 91% 1.8 km/h 2.6 km/h 101° 1015.7 hPa 0.000 mm
2020-09-30 09:09:00 11.9°C 91% 1.8 km/h 2.6 km/h 126° 1015.7 hPa 0.000 mm
2020-09-30 09:08:00 11.9°C 91% 0.6 km/h 1.1 km/h 203° 1015.7 hPa 0.000 mm
2020-09-30 09:07:00 12.1°C 91% 1.3 km/h 1.6 km/h 203° 1015.7 hPa 0.000 mm
2020-09-30 09:06:00 11.8°C 91% 0.1 km/h 1.1 km/h 135° 1015.8 hPa 0.000 mm
2020-09-30 09:05:00 11.6°C 91% 0.0 km/h 0.0 km/h 135° 1015.8 hPa 0.000 mm
2020-09-30 09:04:00 11.5°C 92% 0.0 km/h 0.0 km/h 158° 1015.8 hPa 0.000 mm
2020-09-30 09:03:00 11.5°C 92% 0.0 km/h 0.0 km/h 158° 1015.8 hPa 0.000 mm
2020-09-30 09:02:00 11.5°C 92% 0.0 km/h 0.0 km/h 146° 1015.8 hPa 0.000 mm
2020-09-30 09:01:00 11.4°C 92% 0.0 km/h 0.0 km/h 113° 1015.8 hPa 0.000 mm
2020-09-30 09:00:00 11.6°C 92% 0.0 km/h 0.0 km/h 146° 1015.8 hPa 0.000 mm
2020-09-30 08:59:00 11.4°C 92% 0.0 km/h 0.0 km/h 135° 1015.8 hPa 0.000 mm
2020-09-30 08:58:00 11.4°C 92% 0.0 km/h 0.0 km/h 203° 1015.8 hPa 0.000 mm
2020-09-30 08:57:00 11.1°C 92% 0.0 km/h 0.0 km/h 191° 1015.8 hPa 0.000 mm
2020-09-30 08:57:00 11.3°C 92% 0.0 km/h 0.0 km/h 146° 1015.8 hPa 0.000 mm
2020-09-30 08:56:00 11.1°C 92% 0.0 km/h 0.0 km/h 146° 1015.8 hPa 0.000 mm
2020-09-30 08:55:00 10.9°C 92% 0.0 km/h 0.0 km/h 113° 1015.8 hPa 0.000 mm
2020-09-30 08:54:00 10.7°C 92% 0.0 km/h 0.0 km/h 158° 1015.8 hPa 0.000 mm
2020-09-30 08:53:00 10.6°C 92% 0.0 km/h 0.0 km/h 169° 1015.8 hPa 0.000 mm
2020-09-30 08:52:00 10.4°C 92% 0.0 km/h 0.0 km/h 146° 1015.8 hPa 0.000 mm
2020-09-30 08:51:00 10.5°C 92% 0.0 km/h 0.0 km/h 113° 1015.8 hPa 0.000 mm
2020-09-30 08:50:00 10.5°C 92% 0.0 km/h 0.0 km/h 180° 1015.8 hPa 0.000 mm
2020-09-30 08:49:00 10.7°C 92% 0.0 km/h 0.0 km/h 158° 1015.8 hPa 0.000 mm
2020-09-30 08:48:00 10.7°C 92% 0.0 km/h 0.0 km/h 158° 1015.8 hPa 0.000 mm
2020-09-30 08:47:00 10.5°C 92% 0.0 km/h 0.0 km/h 180° 1015.8 hPa 0.000 mm
2020-09-30 08:46:00 10.5°C 92% 0.0 km/h 0.0 km/h 158° 1015.9 hPa 0.000 mm
2020-09-30 08:45:00 10.0°C 93% 0.5 km/h 1.1 km/h 146° 1015.9 hPa 0.000 mm
2020-09-30 08:44:00 9.6°C 93% 1.2 km/h 1.6 km/h 191° 1015.9 hPa 0.000 mm
2020-09-30 08:43:00 9.6°C 93% 0.7 km/h 1.6 km/h 191° 1015.9 hPa 0.000 mm
2020-09-30 08:42:00 9.3°C 93% 0.0 km/h 0.0 km/h 203° 1015.9 hPa 0.000 mm
2020-09-30 08:41:00 9.3°C 93% 0.2 km/h 0.5 km/h 169° 1015.9 hPa 0.000 mm
2020-09-30 08:40:00 9.3°C 93% 0.6 km/h 1.1 km/h 191° 1015.8 hPa 0.000 mm
2020-09-30 08:39:00 9.3°C 93% 0.9 km/h 1.6 km/h 180° 1015.8 hPa 0.000 mm
2020-09-30 08:38:00 9.4°C 93% 0.7 km/h 1.1 km/h 214° 1015.8 hPa 0.000 mm
2020-09-30 08:37:00 9.3°C 93% 0.7 km/h 1.1 km/h 203° 1015.8 hPa 0.000 mm
2020-09-30 08:36:00 9.3°C 93% 1.2 km/h 1.6 km/h 191° 1015.8 hPa 0.000 mm
2020-09-30 08:35:00 9.2°C 94% 1.0 km/h 1.6 km/h 180° 1015.8 hPa 0.000 mm
2020-09-30 08:34:00 9.1°C 94% 0.9 km/h 1.6 km/h 158° 1015.8 hPa 0.000 mm
2020-09-30 08:33:00 8.9°C 94% 0.0 km/h 0.0 km/h 146° 1015.8 hPa 0.000 mm
2020-09-30 08:32:00 8.8°C 94% 0.0 km/h 0.0 km/h 124° 1015.8 hPa 0.000 mm
2020-09-30 08:31:00 8.6°C 94% 0.0 km/h 0.5 km/h 158° 1015.8 hPa 0.000 mm
2020-09-30 08:30:00 8.9°C 94% 0.9 km/h 1.6 km/h 191° 1015.8 hPa 0.000 mm
2020-09-30 08:29:00 8.9°C 94% 1.0 km/h 1.6 km/h 146° 1015.8 hPa 0.000 mm
2020-09-30 08:28:00 8.8°C 94% 0.8 km/h 1.1 km/h 225° 1015.9 hPa 0.000 mm
2020-09-30 08:27:00 8.7°C 94% 0.9 km/h 1.6 km/h 169° 1016.0 hPa 0.000 mm
2020-09-30 08:26:00 8.7°C 94% 1.3 km/h 1.6 km/h 180° 1016.0 hPa 0.000 mm
2020-09-30 08:25:00 8.7°C 94% 1.6 km/h 2.1 km/h 180° 1016.0 hPa 0.000 mm
2020-09-30 08:24:00 8.7°C 94% 1.6 km/h 2.1 km/h 124° 1016.0 hPa 0.000 mm
2020-09-30 08:23:00 8.6°C 94% 1.5 km/h 2.1 km/h 191° 1016.0 hPa 0.000 mm
2020-09-30 08:22:00 8.6°C 94% 0.8 km/h 2.1 km/h 169° 1015.9 hPa 0.000 mm
2020-09-30 08:21:00 8.7°C 94% 0.0 km/h 0.0 km/h 191° 1015.9 hPa 0.000 mm
2020-09-30 08:20:00 8.8°C 93% 0.0 km/h 0.0 km/h 203° 1015.9 hPa 0.000 mm
2020-09-30 08:19:00 8.8°C 93% 0.0 km/h 0.0 km/h 180° 1015.9 hPa 0.000 mm
2020-09-30 08:18:00 8.8°C 93% 0.0 km/h 0.0 km/h 180° 1015.9 hPa 0.000 mm
2020-09-30 08:17:00 8.8°C 93% 0.0 km/h 0.0 km/h 203° 1015.8 hPa 0.000 mm
2020-09-30 08:16:00 8.8°C 93% 0.0 km/h 0.0 km/h 203° 1015.8 hPa 0.000 mm
2020-09-30 08:15:00 8.7°C 93% 0.0 km/h 0.0 km/h 180° 1015.8 hPa 0.000 mm
2020-09-30 08:14:00 8.9°C 93% 0.0 km/h 0.0 km/h 191° 1015.8 hPa 0.000 mm
2020-09-30 08:13:00 8.4°C 93% 0.0 km/h 0.0 km/h 191° 1015.8 hPa 0.000 mm
2020-09-30 08:12:00 8.4°C 93% 0.0 km/h 0.0 km/h 169° 1015.8 hPa 0.000 mm
2020-09-30 08:11:00 8.4°C 93% 0.0 km/h 0.0 km/h 180° 1015.8 hPa 0.000 mm
2020-09-30 08:10:00 8.4°C 93% 0.0 km/h 0.0 km/h 203° 1015.8 hPa 0.000 mm
2020-09-30 08:09:00 8.4°C 94% 0.0 km/h 0.0 km/h 180° 1015.8 hPa 0.000 mm
2020-09-30 08:08:00 8.5°C 94% 0.0 km/h 0.0 km/h 203° 1015.8 hPa 0.000 mm
2020-09-30 08:07:00 8.5°C 94% 0.0 km/h 0.0 km/h 214° 1015.8 hPa 0.000 mm
2020-09-30 08:06:00 8.4°C 94% 0.0 km/h 0.0 km/h 214° 1015.8 hPa 0.000 mm
2020-09-30 08:05:00 8.4°C 94% 0.0 km/h 0.0 km/h 203° 1015.8 hPa 0.000 mm
2020-09-30 08:04:00 8.3°C 94% 0.0 km/h 0.0 km/h 225° 1015.8 hPa 0.000 mm
2020-09-30 08:03:00 8.4°C 94% 0.0 km/h 0.0 km/h 180° 1015.8 hPa 0.000 mm
2020-09-30 08:02:00 8.2°C 94% 0.0 km/h 0.0 km/h 191° 1015.8 hPa 0.000 mm
2020-09-30 08:01:00 8.0°C 94% 0.6 km/h 1.6 km/h 203° 1015.8 hPa 0.000 mm
2020-09-30 08:00:00 8.0°C 94% 1.4 km/h 1.6 km/h 180° 1015.8 hPa 0.000 mm
2020-09-30 07:59:00 8.0°C 94% 1.7 km/h 2.1 km/h 180° 1015.8 hPa 0.000 mm
2020-09-30 07:58:00 7.8°C 94% 1.8 km/h 2.1 km/h 158° 1015.8 hPa 0.000 mm
2020-09-30 07:57:00 7.9°C 94% 1.9 km/h 2.1 km/h 158° 1015.8 hPa 0.000 mm
2020-09-30 07:56:00 7.9°C 94% 2.2 km/h 2.6 km/h 180° 1015.8 hPa 0.000 mm
2020-09-30 07:55:00 7.9°C 94% 1.9 km/h 2.1 km/h 146° 1015.8 hPa 0.000 mm
2020-09-30 07:54:00 7.9°C 94% 1.8 km/h 2.1 km/h 169° 1015.8 hPa 0.000 mm
2020-09-30 07:53:00 7.9°C 94% 1.6 km/h 2.1 km/h 191° 1015.8 hPa 0.000 mm
2020-09-30 07:52:00 7.9°C 94% 1.6 km/h 2.1 km/h 180° 1015.8 hPa 0.000 mm
2020-09-30 07:51:00 7.9°C 94% 1.4 km/h 1.6 km/h 169° 1015.7 hPa 0.000 mm
2020-09-30 07:50:00 8.0°C 94% 1.5 km/h 1.6 km/h 158° 1015.7 hPa 0.000 mm
2020-09-30 07:49:00 8.0°C 96% 1.7 km/h 2.1 km/h 146° 1015.7 hPa 0.000 mm
2020-09-30 07:48:00 8.0°C 96% 1.7 km/h 2.1 km/h 191° 1015.7 hPa 0.000 mm
2020-09-30 07:47:00 8.0°C 96% 1.7 km/h 2.1 km/h 191° 1015.7 hPa 0.000 mm
2020-09-30 07:46:00 8.0°C 96% 1.8 km/h 2.1 km/h 169° 1015.7 hPa 0.000 mm
2020-09-30 07:45:00 8.0°C 96% 0.2 km/h 1.6 km/h 180° 1015.7 hPa 0.000 mm
2020-09-30 07:44:00 8.1°C 96% 0.0 km/h 0.0 km/h 191° 1015.7 hPa 0.000 mm
2020-09-30 07:43:00 8.1°C 96% 0.0 km/h 0.0 km/h 214° 1015.8 hPa 0.000 mm
2020-09-30 07:42:00 8.1°C 96% 0.0 km/h 0.0 km/h 203° 1015.8 hPa 0.000 mm
2020-09-30 07:41:00 8.1°C 96% 0.0 km/h 0.0 km/h 203° 1015.8 hPa 0.000 mm
2020-09-30 07:40:00 8.1°C 96% 0.0 km/h 0.0 km/h 180° 1015.7 hPa 0.000 mm
2020-09-30 07:39:00 8.2°C 97% 0.0 km/h 0.0 km/h 203° 1015.8 hPa 0.000 mm
2020-09-30 07:38:00 8.1°C 97% 0.0 km/h 0.0 km/h 191° 1015.7 hPa 0.000 mm
2020-09-30 07:37:00 8.0°C 97% 0.0 km/h 0.0 km/h 203° 1015.8 hPa 0.000 mm
2020-09-30 07:36:00 8.0°C 97% 0.0 km/h 0.0 km/h 203° 1015.7 hPa 0.000 mm
2020-09-30 07:35:00 8.0°C 97% 0.0 km/h 0.0 km/h 203° 1015.7 hPa 0.000 mm
2020-09-30 07:34:00 8.0°C 97% 0.0 km/h 0.0 km/h 191° 1015.7 hPa 0.000 mm
2020-09-30 07:33:00 8.1°C 97% 0.0 km/h 0.0 km/h 191° 1015.7 hPa 0.000 mm
2020-09-30 07:32:00 8.1°C 97% 0.0 km/h 0.0 km/h 180° 1015.7 hPa 0.000 mm
2020-09-30 07:31:00 8.2°C 97% 0.0 km/h 0.0 km/h 191° 1015.6 hPa 0.000 mm
2020-09-30 07:30:00 8.3°C 97% 0.0 km/h 0.0 km/h 191° 1015.6 hPa 0.000 mm
2020-09-30 07:29:00 8.3°C 97% 0.0 km/h 0.0 km/h 191° 1015.6 hPa 0.000 mm
2020-09-30 07:28:00 8.3°C 97% 0.0 km/h 0.0 km/h 203° 1015.6 hPa 0.000 mm
2020-09-30 07:27:00 8.3°C 97% 0.0 km/h 0.0 km/h 180° 1015.5 hPa 0.000 mm
2020-09-30 07:26:00 8.3°C 97% 0.0 km/h 0.0 km/h 169° 1015.6 hPa 0.000 mm
2020-09-30 07:25:00 8.2°C 97% 0.0 km/h 0.0 km/h 191° 1015.5 hPa 0.000 mm
2020-09-30 07:24:00 8.3°C 97% 0.0 km/h 0.0 km/h 191° 1015.5 hPa 0.000 mm
2020-09-30 07:23:00 8.2°C 97% 0.0 km/h 0.0 km/h 203° 1015.6 hPa 0.000 mm
2020-09-30 07:22:00 8.1°C 97% 0.0 km/h 0.0 km/h 203° 1015.6 hPa 0.000 mm
2020-09-30 07:21:00 8.3°C 97% 0.0 km/h 0.0 km/h 191° 1015.6 hPa 0.000 mm
2020-09-30 07:20:00 8.2°C 97% 0.0 km/h 0.0 km/h 225° 1015.6 hPa 0.000 mm
2020-09-30 07:19:00 8.2°C 97% 0.0 km/h 0.0 km/h 191° 1015.6 hPa 0.000 mm
2020-09-30 07:18:00 8.6°C 97% 0.0 km/h 0.0 km/h 191° 1015.6 hPa 0.000 mm
2020-09-30 07:17:00 8.4°C 97% 0.0 km/h 0.0 km/h 203° 1015.5 hPa 0.000 mm
2020-09-30 07:16:00 8.6°C 97% 0.0 km/h 0.0 km/h 180° 1015.6 hPa 0.000 mm
2020-09-30 07:15:00 8.6°C 97% 0.0 km/h 0.0 km/h 191° 1015.5 hPa 0.000 mm
2020-09-30 07:14:00 8.4°C 97% 0.0 km/h 0.0 km/h 180° 1015.5 hPa 0.000 mm
2020-09-30 07:13:00 8.5°C 97% 0.0 km/h 0.0 km/h 225° 1015.6 hPa 0.000 mm
2020-09-30 07:12:00 8.5°C 97% 0.0 km/h 0.0 km/h 180° 1015.6 hPa 0.000 mm
2020-09-30 07:11:00 8.6°C 97% 0.0 km/h 0.0 km/h 191° 1015.6 hPa 0.000 mm
2020-09-30 07:10:00 8.5°C 97% 0.0 km/h 0.0 km/h 225° 1015.6 hPa 0.000 mm
2020-09-30 07:09:00 8.2°C 97% 0.0 km/h 0.0 km/h 158° 1015.6 hPa 0.000 mm
2020-09-30 07:08:00 8.3°C 97% 0.0 km/h 0.0 km/h 203° 1015.6 hPa 0.000 mm
2020-09-30 07:07:00 8.3°C 97% 0.0 km/h 0.0 km/h 169° 1015.6 hPa 0.000 mm
2020-09-30 07:06:00 7.9°C 97% 0.0 km/h 0.0 km/h 225° 1015.6 hPa 0.000 mm
2020-09-30 07:05:00 8.1°C 97% 0.1 km/h 0.5 km/h 180° 1015.6 hPa 0.000 mm
2020-09-30 07:04:00 8.1°C 97% 1.1 km/h 1.6 km/h 191° 1015.6 hPa 0.000 mm
2020-09-30 07:03:00 8.2°C 97% 1.3 km/h 1.6 km/h 135° 1015.6 hPa 0.000 mm
2020-09-30 07:02:00 7.9°C 97% 1.4 km/h 1.6 km/h 169° 1015.6 hPa 0.000 mm
2020-09-30 07:01:00 8.3°C 97% 1.8 km/h 2.1 km/h 158° 1015.6 hPa 0.000 mm
2020-09-30 07:00:00 8.2°C 97% 1.8 km/h 2.1 km/h 180° 1015.6 hPa 0.000 mm
2020-09-30 06:59:00 8.4°C 97% 1.7 km/h 2.1 km/h 225° 1015.6 hPa 0.000 mm
2020-09-30 06:58:00 8.3°C 97% 1.6 km/h 2.1 km/h 214° 1015.6 hPa 0.000 mm
2020-09-30 06:57:00 8.3°C 97% 1.4 km/h 1.6 km/h 180° 1015.6 hPa 0.000 mm
2020-09-30 06:56:00 8.2°C 97% 0.9 km/h 1.1 km/h 180° 1015.6 hPa 0.000 mm
2020-09-30 06:55:00 8.2°C 97% 1.0 km/h 1.1 km/h 169° 1015.6 hPa 0.000 mm
2020-09-30 06:54:00 8.2°C 97% 1.2 km/h 1.6 km/h 191° 1015.6 hPa 0.000 mm
2020-09-30 06:53:00 8.2°C 97% 1.5 km/h 1.6 km/h 191° 1015.6 hPa 0.000 mm
2020-09-30 06:52:00 8.2°C 97% 1.6 km/h 2.1 km/h 191° 1015.6 hPa 0.000 mm
2020-09-30 06:51:00 8.3°C 97% 1.3 km/h 1.6 km/h 191° 1015.5 hPa 0.000 mm
2020-09-30 06:50:00 8.2°C 97% 1.1 km/h 1.6 km/h 191° 1015.5 hPa 0.000 mm
2020-09-30 06:49:00 8.0°C 97% 0.7 km/h 1.1 km/h 158° 1015.5 hPa 0.000 mm
2020-09-30 06:48:00 8.3°C 97% 0.6 km/h 1.1 km/h 135° 1015.5 hPa 0.000 mm
2020-09-30 06:47:00 8.2°C 97% 0.7 km/h 1.1 km/h 169° 1015.5 hPa 0.000 mm
2020-09-30 06:46:00 8.0°C 97% 0.5 km/h 0.5 km/h 90° 1015.5 hPa 0.000 mm
2020-09-30 06:45:00 8.3°C 97% 0.7 km/h 1.1 km/h 169° 1015.5 hPa 0.000 mm
2020-09-30 06:44:00 8.3°C 97% 0.6 km/h 1.1 km/h 180° 1015.5 hPa 0.000 mm
2020-09-30 06:43:00 8.3°C 97% 0.6 km/h 1.1 km/h 169° 1015.5 hPa 0.000 mm
2020-09-30 06:42:00 8.3°C 97% 0.7 km/h 1.1 km/h 180° 1015.5 hPa 0.000 mm
2020-09-30 06:41:00 8.3°C 97% 0.7 km/h 1.1 km/h 124° 1015.5 hPa 0.000 mm
2020-09-30 06:40:00 8.4°C 97% 0.6 km/h 1.1 km/h 169° 1015.5 hPa 0.000 mm
2020-09-30 06:39:00 8.4°C 96% 0.9 km/h 1.1 km/h 169° 1015.5 hPa 0.000 mm
2020-09-30 06:38:00 8.6°C 96% 0.6 km/h 1.1 km/h 158° 1015.5 hPa 0.000 mm
2020-09-30 06:37:00 8.7°C 96% 0.0 km/h 0.0 km/h 124° 1015.5 hPa 0.000 mm
2020-09-30 06:36:00 8.7°C 96% 0.0 km/h 0.0 km/h 90° 1015.5 hPa 0.000 mm
2020-09-30 06:35:00 8.8°C 96% 0.0 km/h 0.5 km/h 169° 1015.5 hPa 0.000 mm
2020-09-30 06:34:00 8.9°C 96% 0.0 km/h 0.0 km/h 191° 1015.6 hPa 0.000 mm
2020-09-30 06:33:00 8.8°C 96% 0.0 km/h 0.0 km/h 180° 1015.6 hPa 0.000 mm
2020-09-30 06:32:00 8.8°C 96% 0.0 km/h 0.0 km/h 191° 1015.6 hPa 0.000 mm
2020-09-30 06:31:00 8.9°C 96% 0.0 km/h 0.0 km/h 191° 1015.6 hPa 0.000 mm
2020-09-30 06:30:00 9.0°C 96% 0.0 km/h 0.0 km/h 169° 1015.6 hPa 0.000 mm
2020-09-30 06:29:00 9.2°C 96% 0.0 km/h 0.0 km/h 180° 1015.6 hPa 0.000 mm
2020-09-30 06:28:00 9.1°C 96% 0.0 km/h 0.0 km/h 203° 1015.5 hPa 0.000 mm
2020-09-30 06:27:00 8.9°C 96% 0.0 km/h 0.0 km/h 180° 1015.6 hPa 0.000 mm
2020-09-30 06:26:00 8.8°C 96% 0.0 km/h 0.0 km/h 169° 1015.6 hPa 0.000 mm
2020-09-30 06:25:00 8.7°C 96% 0.0 km/h 0.0 km/h 158° 1015.6 hPa 0.000 mm
2020-09-30 06:24:00 8.7°C 96% 0.0 km/h 0.0 km/h 169° 1015.6 hPa 0.000 mm
2020-09-30 06:23:00 8.7°C 96% 0.0 km/h 0.0 km/h 169° 1015.6 hPa 0.000 mm
2020-09-30 06:22:00 8.3°C 96% 0.0 km/h 0.0 km/h 191° 1015.7 hPa 0.000 mm
2020-09-30 06:21:00 8.6°C 96% 0.2 km/h 0.5 km/h 203° 1015.7 hPa 0.000 mm
2020-09-30 06:20:00 8.7°C 96% 0.8 km/h 1.1 km/h 191° 1015.7 hPa 0.000 mm
2020-09-30 06:19:00 9.0°C 95% 0.5 km/h 1.1 km/h 135° 1015.6 hPa 0.000 mm
2020-09-30 06:18:00 9.0°C 95% 0.0 km/h 0.0 km/h 158° 1015.6 hPa 0.000 mm
2020-09-30 06:17:00 9.1°C 95% 0.0 km/h 0.0 km/h 191° 1015.7 hPa 0.000 mm
2020-09-30 06:16:00 9.0°C 95% 0.0 km/h 0.0 km/h 180° 1015.7 hPa 0.000 mm
2020-09-30 06:15:00 8.8°C 95% 0.0 km/h 0.0 km/h 203° 1015.7 hPa 0.000 mm
2020-09-30 06:14:00 8.6°C 95% 0.0 km/h 0.0 km/h 169° 1015.7 hPa 0.000 mm
2020-09-30 06:13:00 8.5°C 95% 0.0 km/h 0.0 km/h 214° 1015.8 hPa 0.000 mm
2020-09-30 06:12:00 8.5°C 95% 0.0 km/h 0.0 km/h 180° 1015.8 hPa 0.000 mm
2020-09-30 06:11:00 8.4°C 95% 0.1 km/h 0.5 km/h 146° 1015.8 hPa 0.000 mm
2020-09-30 06:10:00 8.5°C 95% 0.7 km/h 1.1 km/h 158° 1015.8 hPa 0.000 mm
2020-09-30 06:09:00 8.6°C 95% 0.9 km/h 1.1 km/h 158° 1015.8 hPa 0.000 mm
2020-09-30 06:08:00 8.5°C 95% 1.2 km/h 1.6 km/h 191° 1015.8 hPa 0.000 mm
2020-09-30 06:07:00 8.4°C 95% 1.3 km/h 1.6 km/h 180° 1015.8 hPa 0.000 mm
2020-09-30 06:06:00 8.3°C 95% 1.4 km/h 1.6 km/h 146° 1015.8 hPa 0.000 mm
2020-09-30 06:05:00 8.3°C 95% 1.0 km/h 1.1 km/h 169° 1015.7 hPa 0.000 mm
2020-09-30 06:04:00 8.4°C 95% 1.4 km/h 2.1 km/h 180° 1015.8 hPa 0.000 mm
2020-09-30 06:03:00 8.5°C 95% 1.6 km/h 2.1 km/h 158° 1015.8 hPa 0.000 mm
2020-09-30 06:02:00 8.4°C 95% 1.7 km/h 2.1 km/h 169° 1015.8 hPa 0.000 mm
2020-09-30 06:01:00 8.5°C 95% 1.5 km/h 1.6 km/h 180° 1015.8 hPa 0.000 mm
2020-09-30 06:00:00 8.5°C 95% 1.0 km/h 1.6 km/h 146° 1015.8 hPa 0.000 mm
2020-09-30 05:59:00 8.6°C 94% 1.0 km/h 1.6 km/h 146° 1015.8 hPa 0.000 mm
2020-09-30 05:58:00 8.5°C 94% 1.1 km/h 1.6 km/h 180° 1015.8 hPa 0.000 mm
2020-09-30 05:57:00 8.5°C 94% 0.7 km/h 1.6 km/h 180° 1015.8 hPa 0.000 mm
2020-09-30 05:56:00 8.5°C 94% 0.0 km/h 0.0 km/h 180° 1015.8 hPa 0.000 mm
2020-09-30 05:55:00 8.8°C 94% 0.0 km/h 0.0 km/h 191° 1015.8 hPa 0.000 mm
2020-09-30 05:54:00 8.4°C 94% 0.6 km/h 1.1 km/h 203° 1015.8 hPa 0.000 mm
2020-09-30 05:53:00 8.4°C 94% 1.1 km/h 1.6 km/h 203° 1015.8 hPa 0.000 mm
2020-09-30 05:52:00 8.5°C 94% 1.3 km/h 1.6 km/h 169° 1015.8 hPa 0.000 mm
2020-09-30 05:51:00 8.5°C 94% 1.2 km/h 1.6 km/h 180° 1015.8 hPa 0.000 mm
2020-09-30 05:50:00 8.4°C 94% 1.1 km/h 1.6 km/h 135° 1015.8 hPa 0.000 mm
2020-09-30 05:49:00 8.5°C 94% 1.1 km/h 1.6 km/h 180° 1015.8 hPa 0.000 mm
2020-09-30 05:48:00 8.5°C 94% 1.0 km/h 1.6 km/h 180° 1015.9 hPa 0.000 mm
2020-09-30 05:47:00 8.5°C 94% 0.4 km/h 1.1 km/h 191° 1015.9 hPa 0.000 mm
2020-09-30 05:46:00 8.5°C 94% 0.3 km/h 1.1 km/h 135° 1015.8 hPa 0.000 mm
2020-09-30 05:45:00 8.5°C 94% 0.2 km/h 0.5 km/h 146° 1015.8 hPa 0.000 mm
2020-09-30 05:44:00 8.5°C 93% 0.1 km/h 0.5 km/h 158° 1015.8 hPa 0.000 mm
2020-09-30 05:43:00 8.5°C 93% 0.4 km/h 1.1 km/h 180° 1015.8 hPa 0.000 mm
2020-09-30 05:42:00 8.5°C 93% 0.4 km/h 1.1 km/h 180° 1015.8 hPa 0.000 mm
2020-09-30 05:41:00 8.5°C 93% 0.4 km/h 0.5 km/h 191° 1015.8 hPa 0.000 mm
2020-09-30 05:40:00 8.5°C 93% 0.4 km/h 1.1 km/h 169° 1015.9 hPa 0.000 mm
2020-09-30 05:39:00 8.5°C 93% 0.7 km/h 1.1 km/h 180° 1015.9 hPa 0.000 mm
2020-09-30 05:38:00 8.1°C 93% 0.8 km/h 1.1 km/h 169° 1015.9 hPa 0.000 mm
2020-09-30 05:37:00 8.4°C 93% 0.9 km/h 1.6 km/h 158° 1015.9 hPa 0.000 mm
2020-09-30 05:36:00 8.5°C 93% 1.0 km/h 1.6 km/h 146° 1015.9 hPa 0.000 mm
2020-09-30 05:35:00 8.7°C 93% 1.2 km/h 1.6 km/h 169° 1015.9 hPa 0.000 mm
2020-09-30 05:34:00 8.6°C 93% 1.1 km/h 1.6 km/h 203° 1015.9 hPa 0.000 mm
2020-09-30 05:33:00 8.6°C 93% 1.0 km/h 1.1 km/h 191° 1015.8 hPa 0.000 mm
2020-09-30 05:32:00 8.6°C 93% 1.0 km/h 1.1 km/h 169° 1015.9 hPa 0.000 mm
2020-09-30 05:31:00 8.6°C 93% 0.9 km/h 1.6 km/h 203° 1015.9 hPa 0.000 mm
2020-09-30 05:30:00 8.6°C 93% 1.3 km/h 1.6 km/h 191° 1015.9 hPa 0.000 mm
2020-09-30 05:29:00 8.6°C 93% 1.4 km/h 1.6 km/h 180° 1015.9 hPa 0.000 mm
2020-09-30 05:28:00 8.5°C 93% 1.2 km/h 1.6 km/h 169° 1015.9 hPa 0.000 mm
2020-09-30 05:27:00 8.8°C 93% 1.3 km/h 1.6 km/h 180° 1015.9 hPa 0.000 mm
2020-09-30 05:26:00 8.9°C 93% 1.1 km/h 1.6 km/h 180° 1015.9 hPa 0.000 mm
2020-09-30 05:25:00 8.8°C 93% 0.4 km/h 1.1 km/h 169° 1015.9 hPa 0.000 mm
2020-09-30 05:24:00 8.7°C 93% 0.0 km/h 0.0 km/h 146° 1015.9 hPa 0.000 mm
2020-09-30 05:23:00 8.6°C 93% 0.0 km/h 0.0 km/h 180° 1015.9 hPa 0.000 mm
2020-09-30 05:22:00 8.5°C 93% 0.0 km/h 0.0 km/h 169° 1015.9 hPa 0.000 mm
2020-09-30 05:21:00 8.6°C 93% 0.3 km/h 1.1 km/h 124° 1015.9 hPa 0.000 mm
2020-09-30 05:20:00 8.6°C 93% 1.1 km/h 1.6 km/h 214° 1016.0 hPa 0.000 mm
2020-09-30 05:19:00 8.7°C 93% 1.3 km/h 1.6 km/h 169° 1016.0 hPa 0.000 mm
2020-09-30 05:18:00 8.7°C 93% 1.6 km/h 2.1 km/h 203° 1016.0 hPa 0.000 mm
2020-09-30 05:17:00 8.7°C 93% 1.5 km/h 1.6 km/h 203° 1016.0 hPa 0.000 mm
2020-09-30 05:16:00 8.8°C 93% 1.4 km/h 2.1 km/h 158° 1016.0 hPa 0.000 mm
2020-09-30 05:15:00 9.0°C 93% 0.9 km/h 1.6 km/h 191° 1016.0 hPa 0.000 mm
2020-09-30 05:14:00 9.0°C 93% 0.0 km/h 0.0 km/h 214° 1016.0 hPa 0.000 mm
2020-09-30 05:13:00 9.2°C 93% 0.0 km/h 0.0 km/h 214° 1016.1 hPa 0.000 mm
2020-09-30 05:12:00 9.1°C 93% 0.0 km/h 0.5 km/h 169° 1016.0 hPa 0.000 mm
2020-09-30 05:11:00 8.9°C 93% 0.0 km/h 0.0 km/h 214° 1016.1 hPa 0.000 mm
2020-09-30 05:10:00 8.7°C 93% 0.0 km/h 0.0 km/h 180° 1016.1 hPa 0.000 mm
2020-09-30 05:09:00 8.7°C 92% 0.0 km/h 0.0 km/h 169° 1016.0 hPa 0.000 mm
2020-09-30 05:08:00 8.7°C 92% 0.7 km/h 1.1 km/h 180° 1016.0 hPa 0.000 mm
2020-09-30 05:07:00 8.7°C 92% 1.4 km/h 1.6 km/h 169° 1016.0 hPa 0.000 mm
2020-09-30 05:06:00 8.7°C 92% 1.8 km/h 2.1 km/h 180° 1016.0 hPa 0.000 mm
2020-09-30 05:05:00 8.8°C 92% 1.8 km/h 2.1 km/h 169° 1016.0 hPa 0.000 mm
2020-09-30 05:04:00 8.9°C 92% 1.7 km/h 2.1 km/h 124° 1016.0 hPa 0.000 mm
2020-09-30 05:03:00 8.9°C 92% 1.4 km/h 1.6 km/h 203° 1016.0 hPa 0.000 mm
2020-09-30 05:02:00 9.1°C 92% 1.2 km/h 1.6 km/h 214° 1016.0 hPa 0.000 mm
2020-09-30 05:01:00 9.2°C 92% 1.1 km/h 1.6 km/h 180° 1016.0 hPa 0.000 mm
2020-09-30 05:00:00 9.2°C 92% 0.2 km/h 1.1 km/h 113° 1015.9 hPa 0.000 mm
2020-09-30 04:59:00 9.3°C 92% 0.0 km/h 0.0 km/h 191° 1016.0 hPa 0.000 mm
2020-09-30 04:58:00 9.2°C 92% 0.0 km/h 0.0 km/h 169° 1015.9 hPa 0.000 mm
2020-09-30 04:57:00 9.3°C 92% 0.0 km/h 0.0 km/h 180° 1016.0 hPa 0.000 mm
2020-09-30 04:56:00 9.3°C 92% 0.2 km/h 0.5 km/h 158° 1016.0 hPa 0.000 mm
2020-09-30 04:55:00 9.2°C 92% 0.6 km/h 1.1 km/h 214° 1016.0 hPa 0.000 mm
2020-09-30 04:54:00 9.1°C 92% 0.5 km/h 1.1 km/h 158° 1015.9 hPa 0.000 mm
2020-09-30 04:53:00 8.9°C 92% 0.6 km/h 1.1 km/h 180° 1016.0 hPa 0.000 mm
2020-09-30 04:52:00 9.0°C 92% 0.5 km/h 1.1 km/h 124° 1016.0 hPa 0.000 mm
2020-09-30 04:51:00 9.0°C 92% 0.8 km/h 1.1 km/h 191° 1015.9 hPa 0.000 mm
2020-09-30 04:50:00 8.9°C 92% 1.0 km/h 1.6 km/h 146° 1015.9 hPa 0.000 mm
2020-09-30 04:49:00 9.1°C 92% 1.4 km/h 2.1 km/h 169° 1016.0 hPa 0.000 mm
2020-09-30 04:48:00 9.2°C 92% 1.5 km/h 2.1 km/h 180° 1016.0 hPa 0.000 mm
2020-09-30 04:47:00 9.0°C 92% 1.3 km/h 1.6 km/h 169° 1016.0 hPa 0.000 mm
2020-09-30 04:46:00 9.3°C 92% 1.3 km/h 1.6 km/h 191° 1016.0 hPa 0.000 mm
2020-09-30 04:45:00 9.3°C 92% 1.1 km/h 1.6 km/h 191° 1016.0 hPa 0.000 mm
2020-09-30 04:44:00 9.5°C 92% 0.9 km/h 1.1 km/h 180° 1016.1 hPa 0.000 mm
2020-09-30 04:43:00 9.4°C 92% 0.7 km/h 1.1 km/h 169° 1016.1 hPa 0.000 mm
2020-09-30 04:42:00 9.5°C 92% 0.7 km/h 1.1 km/h 180° 1016.1 hPa 0.000 mm
2020-09-30 04:41:00 9.5°C 92% 1.0 km/h 1.6 km/h 180° 1016.1 hPa 0.000 mm
2020-09-30 04:40:00 9.6°C 92% 1.3 km/h 1.6 km/h 146° 1016.1 hPa 0.000 mm
2020-09-30 04:39:00 9.4°C 92% 1.2 km/h 2.1 km/h 203° 1016.1 hPa 0.000 mm
2020-09-30 04:38:00 9.2°C 92% 0.8 km/h 1.6 km/h 158° 1016.2 hPa 0.000 mm
2020-09-30 04:37:00 9.2°C 92% 0.3 km/h 1.1 km/h 169° 1016.2 hPa 0.000 mm
2020-09-30 04:36:00 9.2°C 92% 0.1 km/h 0.5 km/h 214° 1016.2 hPa 0.000 mm
2020-09-30 04:35:00 9.4°C 92% 0.4 km/h 0.5 km/h 191° 1016.2 hPa 0.000 mm
2020-09-30 04:34:00 9.2°C 92% 0.8 km/h 1.1 km/h 146° 1016.3 hPa 0.000 mm
2020-09-30 04:33:00 9.4°C 92% 0.6 km/h 1.1 km/h 225° 1016.3 hPa 0.000 mm
2020-09-30 04:32:00 9.4°C 92% 0.0 km/h 0.5 km/h 214° 1016.2 hPa 0.000 mm
2020-09-30 04:31:00 9.4°C 92% 0.0 km/h 0.5 km/h 180° 1016.2 hPa 0.000 mm
2020-09-30 04:30:00 9.6°C 92% 0.5 km/h 1.1 km/h 169° 1016.2 hPa 0.000 mm
2020-09-30 04:29:00 9.6°C 92% 1.0 km/h 1.1 km/h 180° 1016.2 hPa 0.000 mm
2020-09-30 04:28:00 9.8°C 92% 1.2 km/h 1.6 km/h 146° 1016.3 hPa 0.000 mm
2020-09-30 04:27:00 10.0°C 92% 1.2 km/h 1.6 km/h 169° 1016.3 hPa 0.000 mm
2020-09-30 04:26:00 10.0°C 92% 1.2 km/h 1.6 km/h 203° 1016.3 hPa 0.000 mm
2020-09-30 04:25:00 10.0°C 92% 1.2 km/h 1.6 km/h 191° 1016.3 hPa 0.000 mm
2020-09-30 04:24:00 10.0°C 92% 1.2 km/h 1.6 km/h 180° 1016.3 hPa 0.000 mm
2020-09-30 04:23:00 10.0°C 92% 0.2 km/h 1.1 km/h 135° 1016.3 hPa 0.000 mm
2020-09-30 04:22:00 9.9°C 92% 0.0 km/h 0.0 km/h 180° 1016.3 hPa 0.000 mm
2020-09-30 04:21:00 9.9°C 92% 0.0 km/h 0.0 km/h 158° 1016.3 hPa 0.000 mm
2020-09-30 04:20:00 9.8°C 92% 0.0 km/h 0.0 km/h 203° 1016.3 hPa 0.000 mm
2020-09-30 04:19:00 9.8°C 92% 0.0 km/h 0.0 km/h 146° 1016.4 hPa 0.000 mm
2020-09-30 04:18:00 9.9°C 92% 0.0 km/h 0.0 km/h 124° 1016.4 hPa 0.000 mm
2020-09-30 04:17:00 9.9°C 92% 0.2 km/h 0.5 km/h 191° 1016.4 hPa 0.000 mm
2020-09-30 04:16:00 9.9°C 92% 0.7 km/h 1.1 km/h 203° 1016.4 hPa 0.000 mm
2020-09-30 04:15:00 9.7°C 92% 0.6 km/h 1.1 km/h 180° 1016.4 hPa 0.000 mm
2020-09-30 04:14:00 9.6°C 92% 0.3 km/h 0.5 km/h 158° 1016.4 hPa 0.000 mm
2020-09-30 04:13:00 9.5°C 92% 0.0 km/h 0.5 km/h 191° 1016.4 hPa 0.000 mm
2020-09-30 04:12:00 9.4°C 92% 0.0 km/h 0.0 km/h 135° 1016.4 hPa 0.000 mm
2020-09-30 04:11:00 9.4°C 92% 0.0 km/h 0.0 km/h 146° 1016.4 hPa 0.000 mm
2020-09-30 04:10:00 9.3°C 92% 0.0 km/h 0.5 km/h 146° 1016.5 hPa 0.000 mm
2020-09-30 04:09:00 9.2°C 91% 0.4 km/h 1.1 km/h 169° 1016.5 hPa 0.000 mm
2020-09-30 04:08:00 9.4°C 91% 0.9 km/h 1.1 km/h 180° 1016.5 hPa 0.000 mm
2020-09-30 04:07:00 9.5°C 91% 0.9 km/h 1.1 km/h 180° 1016.5 hPa 0.000 mm
2020-09-30 04:06:00 9.5°C 91% 0.2 km/h 1.1 km/h 191° 1016.5 hPa 0.000 mm
2020-09-30 04:05:00 9.8°C 91% 0.6 km/h 1.6 km/h 180° 1016.5 hPa 0.000 mm
2020-09-30 04:04:00 9.5°C 91% 1.0 km/h 1.6 km/h 180° 1016.5 hPa 0.000 mm
2020-09-30 04:03:00 9.7°C 91% 0.7 km/h 1.1 km/h 203° 1016.6 hPa 0.000 mm
2020-09-30 04:02:00 9.8°C 91% 0.7 km/h 1.1 km/h 225° 1016.6 hPa 0.000 mm
2020-09-30 04:01:00 9.8°C 91% 0.6 km/h 1.1 km/h 203° 1016.5 hPa 0.000 mm
2020-09-30 04:00:00 9.9°C 91% 0.8 km/h 1.1 km/h 146° 1016.6 hPa 0.000 mm
2020-09-30 03:59:00 9.8°C 91% 1.0 km/h 1.6 km/h 180° 1016.5 hPa 0.000 mm
2020-09-30 03:58:00 9.7°C 91% 0.7 km/h 1.1 km/h 191° 1016.6 hPa 0.000 mm
2020-09-30 03:57:00 9.4°C 91% 0.2 km/h 0.5 km/h 158° 1016.6 hPa 0.000 mm
2020-09-30 03:56:00 9.4°C 91% 0.0 km/h 0.0 km/h 214° 1016.6 hPa 0.000 mm
2020-09-30 03:55:00 9.4°C 91% 0.0 km/h 0.0 km/h 203° 1016.5 hPa 0.000 mm
2020-09-30 03:54:00 9.4°C 91% 0.0 km/h 0.0 km/h 225° 1016.6 hPa 0.000 mm
2020-09-30 03:53:00 9.4°C 91% 0.1 km/h 0.5 km/h 180° 1016.6 hPa 0.000 mm
2020-09-30 03:52:00 9.4°C 91% 0.8 km/h 1.6 km/h 158° 1016.7 hPa 0.000 mm
2020-09-30 03:51:00 9.4°C 91% 1.3 km/h 1.6 km/h 158° 1016.7 hPa 0.000 mm
2020-09-30 03:50:00 9.5°C 91% 1.3 km/h 1.6 km/h 203° 1016.7 hPa 0.000 mm
2020-09-30 03:49:00 9.6°C 91% 1.5 km/h 2.1 km/h 180° 1016.7 hPa 0.000 mm
2020-09-30 03:48:00 9.6°C 91% 1.6 km/h 2.1 km/h 169° 1016.7 hPa 0.000 mm
2020-09-30 03:47:00 9.8°C 91% 1.4 km/h 1.6 km/h 191° 1016.7 hPa 0.000 mm
2020-09-30 03:46:00 9.9°C 91% 1.4 km/h 1.6 km/h 203° 1016.7 hPa 0.000 mm
2020-09-30 03:45:00 10.2°C 91% 1.2 km/h 1.6 km/h 191° 1016.7 hPa 0.000 mm
2020-09-30 03:44:00 10.4°C 90% 0.3 km/h 1.1 km/h 191° 1016.7 hPa 0.000 mm
2020-09-30 03:43:00 10.4°C 90% 0.0 km/h 0.0 km/h 169° 1016.7 hPa 0.000 mm
2020-09-30 03:42:00 10.5°C 90% 0.0 km/h 0.0 km/h 214° 1016.6 hPa 0.000 mm
2020-09-30 03:41:00 10.5°C 90% 0.0 km/h 0.0 km/h 191° 1016.6 hPa 0.000 mm
2020-09-30 03:40:00 10.7°C 90% 0.0 km/h 0.0 km/h 203° 1016.7 hPa 0.000 mm
2020-09-30 03:39:00 10.5°C 90% 0.0 km/h 0.0 km/h 214° 1016.7 hPa 0.000 mm
2020-09-30 03:38:00 10.5°C 90% 0.0 km/h 0.0 km/h 214° 1016.8 hPa 0.000 mm
2020-09-30 03:37:00 10.5°C 90% 0.0 km/h 0.0 km/h 214° 1016.8 hPa 0.000 mm
2020-09-30 03:36:00 10.5°C 90% 0.0 km/h 0.0 km/h 191° 1016.8 hPa 0.000 mm
2020-09-30 03:35:00 10.6°C 90% 0.0 km/h 0.0 km/h 191° 1016.8 hPa 0.000 mm
2020-09-30 03:34:00 10.7°C 90% 0.0 km/h 0.0 km/h 180° 1016.8 hPa 0.000 mm
2020-09-30 03:33:00 10.9°C 90% 0.0 km/h 0.0 km/h 214° 1016.8 hPa 0.000 mm
2020-09-30 03:32:00 10.7°C 90% 0.0 km/h 0.0 km/h 169° 1016.8 hPa 0.000 mm
2020-09-30 03:31:00 10.7°C 90% 0.0 km/h 0.0 km/h 214° 1016.8 hPa 0.000 mm
2020-09-30 03:30:00 10.7°C 90% 0.0 km/h 0.0 km/h 180° 1016.8 hPa 0.000 mm
2020-09-30 03:29:00 10.7°C 90% 0.0 km/h 0.0 km/h 191° 1016.8 hPa 0.000 mm
2020-09-30 03:28:00 10.7°C 90% 0.0 km/h 0.0 km/h 180° 1016.8 hPa 0.000 mm
2020-09-30 03:27:00 10.6°C 90% 0.0 km/h 0.0 km/h 225° 1016.8 hPa 0.000 mm
2020-09-30 03:26:00 10.6°C 90% 0.0 km/h 0.0 km/h 203° 1016.9 hPa 0.000 mm
2020-09-30 03:25:00 10.6°C 90% 0.0 km/h 0.0 km/h 214° 1016.9 hPa 0.000 mm
2020-09-30 03:24:00 10.4°C 89% 0.3 km/h 1.1 km/h 191° 1016.9 hPa 0.000 mm
2020-09-30 03:23:00 10.6°C 89% 0.3 km/h 0.5 km/h 180° 1016.9 hPa 0.000 mm
2020-09-30 03:22:00 10.6°C 89% 0.4 km/h 0.5 km/h 191° 1016.9 hPa 0.000 mm
2020-09-30 03:21:00 10.6°C 89% 0.5 km/h 1.1 km/h 135° 1017.0 hPa 0.000 mm
2020-09-30 03:20:00 10.6°C 89% 0.0 km/h 0.0 km/h 180° 1017.0 hPa 0.000 mm
2020-09-30 03:19:00 10.7°C 89% 0.0 km/h 0.0 km/h 203° 1017.0 hPa 0.000 mm
2020-09-30 03:18:00 10.5°C 89% 0.0 km/h 0.0 km/h 191° 1017.1 hPa 0.000 mm
2020-09-30 03:17:00 10.4°C 89% 0.0 km/h 0.0 km/h 180° 1017.1 hPa 0.000 mm
2020-09-30 03:16:00 10.2°C 89% 0.0 km/h 0.0 km/h 191° 1017.1 hPa 0.000 mm
2020-09-30 03:15:00 10.2°C 89% 0.0 km/h 0.0 km/h 158° 1017.1 hPa 0.000 mm
2020-09-30 03:14:00 10.2°C 89% 0.0 km/h 0.0 km/h 146° 1017.1 hPa 0.000 mm
2020-09-30 03:13:00 10.2°C 89% 0.0 km/h 0.5 km/h 180° 1017.1 hPa 0.000 mm
2020-09-30 03:12:00 10.3°C 89% 0.0 km/h 0.0 km/h 180° 1017.2 hPa 0.000 mm
2020-09-30 03:11:00 10.2°C 89% 0.0 km/h 0.0 km/h 214° 1017.2 hPa 0.000 mm
2020-09-30 03:10:00 10.2°C 89% 0.0 km/h 0.0 km/h 225° 1017.2 hPa 0.000 mm
2020-09-30 03:09:00 10.2°C 89% 0.0 km/h 0.0 km/h 203° 1017.3 hPa 0.000 mm
2020-09-30 03:08:00 10.2°C 89% 0.0 km/h 0.0 km/h 203° 1017.3 hPa 0.000 mm
2020-09-30 03:07:00 10.3°C 89% 0.0 km/h 0.0 km/h 214° 1017.3 hPa 0.000 mm
2020-09-30 03:06:00 10.3°C 89% 0.0 km/h 0.0 km/h 169° 1017.2 hPa 0.000 mm
2020-09-30 03:05:00 10.4°C 89% 0.0 km/h 0.0 km/h 225° 1017.3 hPa 0.000 mm
2020-09-30 03:04:00 10.4°C 88% 0.0 km/h 0.0 km/h 203° 1017.3 hPa 0.000 mm
2020-09-30 03:03:00 10.5°C 88% 0.0 km/h 0.0 km/h 191° 1017.3 hPa 0.000 mm
2020-09-30 03:02:00 10.3°C 88% 0.0 km/h 0.0 km/h 203° 1017.4 hPa 0.000 mm
2020-09-30 03:01:00 10.2°C 88% 0.0 km/h 0.0 km/h 203° 1017.4 hPa 0.000 mm
2020-09-30 03:00:00 10.5°C 88% 0.4 km/h 1.1 km/h 180° 1017.4 hPa 0.000 mm
2020-09-30 02:59:00 10.5°C 88% 0.3 km/h 1.6 km/h 146° 1017.3 hPa 0.000 mm
2020-09-30 02:58:00 10.5°C 88% 0.0 km/h 0.0 km/h 169° 1017.4 hPa 0.000 mm
2020-09-30 02:57:00 10.6°C 88% 0.0 km/h 0.0 km/h 135° 1017.4 hPa 0.000 mm
2020-09-30 02:56:00 10.7°C 88% 0.0 km/h 0.0 km/h 146° 1017.4 hPa 0.000 mm
2020-09-30 02:55:00 10.6°C 88% 0.0 km/h 0.5 km/h 101° 1017.4 hPa 0.000 mm
2020-09-30 02:54:00 10.4°C 88% 0.0 km/h 0.0 km/h 180° 1017.4 hPa 0.000 mm
2020-09-30 02:53:00 10.2°C 88% 0.0 km/h 0.0 km/h 191° 1017.3 hPa 0.000 mm
2020-09-30 02:52:00 10.1°C 88% 0.0 km/h 0.0 km/h 158° 1017.4 hPa 0.000 mm
2020-09-30 02:51:00 10.1°C 88% 0.3 km/h 0.5 km/h 146° 1017.4 hPa 0.000 mm
2020-09-30 02:50:00 10.1°C 88% 0.8 km/h 1.1 km/h 146° 1017.3 hPa 0.000 mm
2020-09-30 02:49:00 10.1°C 88% 0.9 km/h 1.6 km/h 169° 1017.3 hPa 0.000 mm
2020-09-30 02:48:00 10.2°C 88% 1.1 km/h 1.6 km/h 135° 1017.3 hPa 0.000 mm
2020-09-30 02:47:00 10.1°C 88% 0.5 km/h 1.1 km/h 158° 1017.4 hPa 0.000 mm
2020-09-30 02:46:00 10.1°C 88% 0.6 km/h 1.1 km/h 135° 1017.4 hPa 0.000 mm
2020-09-30 02:45:00 10.2°C 88% 0.5 km/h 1.1 km/h 191° 1017.4 hPa 0.000 mm
2020-09-30 02:44:00 10.2°C 88% 0.0 km/h 0.5 km/h 191° 1017.3 hPa 0.000 mm
2020-09-30 02:43:00 10.3°C 88% 1.1 km/h 1.6 km/h 158° 1017.3 hPa 0.000 mm
2020-09-30 02:42:00 10.3°C 88% 1.0 km/h 1.6 km/h 146° 1017.3 hPa 0.000 mm
2020-09-30 02:41:00 10.4°C 88% 1.0 km/h 1.6 km/h 203° 1017.3 hPa 0.000 mm
2020-09-30 02:40:00 10.4°C 88% 0.7 km/h 1.6 km/h 191° 1017.3 hPa 0.000 mm
2020-09-30 02:39:00 10.4°C 87% 0.0 km/h 0.5 km/h 191° 1017.3 hPa 0.000 mm
2020-09-30 02:38:00 10.3°C 87% 0.6 km/h 1.1 km/h 169° 1017.3 hPa 0.000 mm
2020-09-30 02:37:00 10.4°C 87% 0.4 km/h 1.1 km/h 191° 1017.3 hPa 0.000 mm
2020-09-30 02:36:00 10.2°C 87% 0.0 km/h 0.0 km/h 135° 1017.4 hPa 0.000 mm
2020-09-30 02:35:00 10.2°C 87% 0.5 km/h 1.1 km/h 158° 1017.3 hPa 0.000 mm
2020-09-30 02:34:00 10.2°C 87% 1.1 km/h 1.6 km/h 203° 1017.4 hPa 0.000 mm
2020-09-30 02:33:00 10.2°C 87% 1.7 km/h 2.1 km/h 203° 1017.4 hPa 0.000 mm
2020-09-30 02:32:00 10.2°C 87% 1.6 km/h 2.1 km/h 189° 1017.3 hPa 0.000 mm
2020-09-30 02:31:00 10.2°C 87% 1.4 km/h 1.6 km/h 117° 1017.3 hPa 0.000 mm
2020-09-30 02:30:00 10.2°C 87% 1.2 km/h 2.1 km/h 134° 1017.5 hPa 0.000 mm
2020-09-30 02:29:00 10.2°C 87% 0.8 km/h 1.6 km/h 169° 1017.4 hPa 0.000 mm
2020-09-30 02:28:00 10.2°C 87% 0.1 km/h 0.5 km/h 169° 1017.4 hPa 0.000 mm
2020-09-30 02:27:00 10.3°C 87% 1.0 km/h 1.6 km/h 169° 1017.4 hPa 0.000 mm
2020-09-30 02:26:00 10.4°C 87% 2.1 km/h 2.6 km/h 180° 1017.4 hPa 0.000 mm
2020-09-30 02:25:00 10.4°C 87% 1.2 km/h 2.1 km/h 191° 1017.4 hPa 0.000 mm
2020-09-30 02:24:00 10.4°C 87% 1.2 km/h 2.1 km/h 156° 1017.4 hPa 0.000 mm
2020-09-30 02:23:00 10.3°C 87% 1.0 km/h 1.6 km/h 90° 1017.4 hPa 0.000 mm
2020-09-30 02:22:00 10.1°C 87% 1.1 km/h 1.6 km/h 90° 1017.5 hPa 0.000 mm
2020-09-30 02:21:00 10.1°C 87% 1.2 km/h 1.6 km/h 99° 1017.5 hPa 0.000 mm
2020-09-30 02:20:00 10.1°C 87% 1.4 km/h 1.6 km/h 135° 1017.4 hPa 0.000 mm
2020-09-30 02:19:00 10.2°C 85% 1.5 km/h 2.1 km/h 117° 1017.4 hPa 0.000 mm
2020-09-30 02:18:00 10.1°C 85% 1.4 km/h 2.1 km/h 90° 1017.5 hPa 0.000 mm
2020-09-30 02:17:00 10.2°C 85% 1.4 km/h 2.1 km/h 162° 1017.4 hPa 0.000 mm
2020-09-30 02:16:00 10.3°C 85% 2.0 km/h 2.6 km/h 152° 1017.5 hPa 0.000 mm
2020-09-30 02:15:00 10.4°C 85% 1.8 km/h 2.1 km/h 153° 1017.4 hPa 0.000 mm
2020-09-30 02:14:00 10.5°C 85% 1.9 km/h 2.6 km/h 92° 1017.4 hPa 0.000 mm
2020-09-30 02:13:00 10.5°C 85% 1.1 km/h 1.6 km/h 153° 1017.4 hPa 0.000 mm
2020-09-30 02:12:00 10.6°C 85% 0.7 km/h 1.6 km/h 117° 1017.4 hPa 0.000 mm
2020-09-30 02:11:00 10.5°C 85% 0.7 km/h 1.6 km/h 135° 1017.4 hPa 0.000 mm
2020-09-30 02:10:00 10.4°C 85% 1.3 km/h 2.1 km/h 117° 1017.5 hPa 0.000 mm
2020-09-30 02:09:00 10.4°C 85% 0.8 km/h 1.1 km/h 99° 1017.5 hPa 0.000 mm
2020-09-30 02:08:00 10.5°C 85% 0.8 km/h 1.1 km/h 108° 1017.4 hPa 0.000 mm
2020-09-30 02:07:00 10.5°C 85% 0.4 km/h 1.1 km/h 126° 1017.4 hPa 0.000 mm
2020-09-30 02:06:00 10.5°C 85% 0.6 km/h 1.1 km/h 117° 1017.4 hPa 0.000 mm
2020-09-30 02:05:00 10.2°C 85% 0.9 km/h 2.1 km/h 126° 1017.4 hPa 0.000 mm
2020-09-30 02:04:00 9.8°C 85% 0.8 km/h 1.6 km/h 117° 1017.4 hPa 0.000 mm
2020-09-30 02:03:00 9.9°C 85% 1.3 km/h 1.6 km/h 182° 1017.4 hPa 0.000 mm
2020-09-30 02:02:00 10.0°C 85% 1.2 km/h 1.6 km/h 158° 1017.4 hPa 0.000 mm
2020-09-30 02:01:00 10.0°C 85% 1.7 km/h 2.1 km/h 180° 1017.5 hPa 0.000 mm
2020-09-30 02:00:00 10.0°C 85% 1.8 km/h 2.1 km/h 186° 1017.5 hPa 0.000 mm
2020-09-30 01:59:00 10.0°C 85% 1.9 km/h 2.6 km/h 169° 1017.5 hPa 0.000 mm
2020-09-30 01:58:00 10.2°C 85% 2.0 km/h 2.6 km/h 167° 1017.5 hPa 0.000 mm
2020-09-30 01:57:00 10.0°C 85% 1.9 km/h 2.6 km/h 152° 1017.5 hPa 0.000 mm
2020-09-30 01:56:00 10.1°C 85% 1.7 km/h 2.1 km/h 162° 1017.4 hPa 0.000 mm
2020-09-30 01:55:00 10.1°C 85% 1.8 km/h 2.1 km/h 172° 1017.5 hPa 0.000 mm
2020-09-30 01:54:00 10.3°C 84% 1.5 km/h 2.1 km/h 136° 1017.4 hPa 0.000 mm
2020-09-30 01:53:00 10.3°C 84% 1.2 km/h 2.1 km/h 163° 1017.5 hPa 0.000 mm
2020-09-30 01:52:00 10.3°C 84% 1.4 km/h 2.1 km/h 135° 1017.4 hPa 0.000 mm
2020-09-30 01:51:00 10.3°C 84% 1.1 km/h 1.6 km/h 131° 1017.5 hPa 0.000 mm
2020-09-30 01:50:00 10.2°C 84% 0.6 km/h 1.1 km/h 152° 1017.5 hPa 0.000 mm
2020-09-30 01:49:00 10.0°C 86% 1.4 km/h 2.1 km/h 128° 1017.5 hPa 0.000 mm
2020-09-30 01:48:00 10.0°C 86% 1.3 km/h 2.1 km/h 135° 1017.5 hPa 0.000 mm
2020-09-30 01:47:00 10.0°C 86% 1.7 km/h 2.1 km/h 99° 1017.5 hPa 0.000 mm
2020-09-30 01:46:00 10.0°C 86% 2.0 km/h 2.6 km/h 153° 1017.4 hPa 0.000 mm
2020-09-30 01:45:00 9.9°C 86% 2.1 km/h 2.6 km/h 146° 1017.4 hPa 0.000 mm
2020-09-30 01:44:00 9.9°C 86% 2.2 km/h 2.6 km/h 162° 1017.5 hPa 0.000 mm
2020-09-30 01:43:00 9.9°C 86% 2.1 km/h 2.6 km/h 154° 1017.5 hPa 0.000 mm
2020-09-30 01:42:00 9.8°C 86% 1.6 km/h 2.1 km/h 152° 1017.6 hPa 0.000 mm
2020-09-30 01:41:00 9.9°C 86% 1.5 km/h 1.6 km/h 160° 1017.5 hPa 0.000 mm
2020-09-30 01:40:00 9.9°C 86% 1.3 km/h 1.6 km/h 108° 1017.5 hPa 0.000 mm
2020-09-30 01:39:00 9.8°C 86% 1.2 km/h 1.6 km/h 90° 1017.5 hPa 0.000 mm
2020-09-30 01:38:00 9.7°C 86% 1.2 km/h 1.6 km/h 167° 1017.5 hPa 0.000 mm
2020-09-30 01:37:00 9.9°C 86% 1.6 km/h 2.1 km/h 169° 1017.5 hPa 0.000 mm
2020-09-30 01:36:00 9.8°C 86% 2.2 km/h 2.6 km/h 214° 1017.5 hPa 0.000 mm
2020-09-30 01:35:00 9.9°C 86% 1.7 km/h 2.1 km/h 146° 1017.5 hPa 0.000 mm
2020-09-30 01:34:00 10.1°C 85% 2.0 km/h 2.1 km/h 203° 1017.6 hPa 0.000 mm
2020-09-30 01:33:00 10.1°C 85% 1.9 km/h 2.6 km/h 169° 1017.5 hPa 0.000 mm
2020-09-30 01:32:00 10.2°C 85% 1.8 km/h 2.6 km/h 169° 1017.5 hPa 0.000 mm
2020-09-30 01:31:00 10.3°C 85% 1.6 km/h 2.6 km/h 117° 1017.5 hPa 0.000 mm
2020-09-30 01:30:00 10.4°C 85% 1.0 km/h 1.6 km/h 153° 1017.6 hPa 0.000 mm
2020-09-30 01:29:00 10.5°C 85% 1.1 km/h 1.6 km/h 90° 1017.6 hPa 0.000 mm
2020-09-30 01:28:00 10.6°C 85% 0.8 km/h 1.6 km/h 90° 1017.5 hPa 0.000 mm
2020-09-30 01:27:00 10.4°C 85% 0.0 km/h 0.5 km/h 144° 1017.5 hPa 0.000 mm
2020-09-30 01:26:00 10.6°C 85% 0.0 km/h 0.5 km/h 144° 1017.5 hPa 0.000 mm
2020-09-30 01:25:00 10.5°C 85% 0.0 km/h 0.0 km/h 108° 1017.6 hPa 0.000 mm
2020-09-30 01:24:00 10.6°C 85% 0.0 km/h 0.0 km/h 90° 1017.6 hPa 0.000 mm
2020-09-30 01:23:00 10.3°C 85% 0.5 km/h 1.1 km/h 108° 1017.6 hPa 0.000 mm
2020-09-30 01:22:00 10.4°C 85% 0.6 km/h 1.6 km/h 132° 1017.6 hPa 0.000 mm
2020-09-30 01:21:00 10.1°C 85% 0.2 km/h 0.5 km/h 169° 1017.6 hPa 0.000 mm
2020-09-30 01:20:00 10.0°C 85% 0.7 km/h 1.1 km/h 169° 1017.6 hPa 0.000 mm
2020-09-30 01:19:00 9.9°C 85% 0.4 km/h 1.1 km/h 158° 1017.6 hPa 0.000 mm
2020-09-30 01:18:00 9.9°C 85% 1.0 km/h 1.6 km/h 146° 1017.6 hPa 0.000 mm
2020-09-30 01:17:00 9.8°C 85% 1.2 km/h 2.1 km/h 180° 1017.6 hPa 0.000 mm
2020-09-30 01:16:00 9.9°C 85% 2.4 km/h 3.2 km/h 191° 1017.6 hPa 0.000 mm
2020-09-30 01:15:00 9.9°C 85% 2.8 km/h 3.7 km/h 180° 1017.5 hPa 0.000 mm
2020-09-30 01:14:00 10.0°C 85% 2.8 km/h 3.2 km/h 169° 1017.6 hPa 0.000 mm
2020-09-30 01:13:00 10.0°C 85% 2.4 km/h 3.2 km/h 214° 1017.6 hPa 0.000 mm
2020-09-30 01:12:00 10.0°C 85% 2.4 km/h 2.6 km/h 180° 1017.6 hPa 0.000 mm
2020-09-30 01:11:00 9.8°C 85% 2.5 km/h 2.6 km/h 203° 1017.7 hPa 0.000 mm
2020-09-30 01:10:00 9.7°C 85% 2.0 km/h 2.6 km/h 191° 1017.6 hPa 0.000 mm